PWSweather.com
Personal Weather Stations
Station Observations
CAKERNWELDON
Longview , Weldon, CA 93283

Longview Weldon, CA 93283

Lat: 35.6453095, Lon: -118.35927520000001

Elevation: 2671

Station Type: Ambient Weather 2902a

High Low Average
Temperature 82.4°F28.0°C 55.0°F12.8°C 68.4°F20.2°C
Dew Point 39.5°F4.2°C 22.4°F-5.3°C 33.9°F1.1°C
Winds 9.8 mph 15.8 kmh Calm Calm 2.0 mph SW3.2 kmh SW
Wind Gusts 17.2 mph27.7 kmh -- 3.0 mph4.8 kmh
Humidity 47% 16% 30%
Pressure 29.85 in1010.8 mb 29.72 in1006.4 mb -
Precipitation 0.00 in0.0 mm - -
Hour Temp Dew Point Humidity Winds Wind Gusts Pressure Precip Precip Rate Daily Precip Total
12:00 AM 63.0°F17.2°C 34.2°F1.2°C 34% Calm Calm -- 29.83 in1010.2 mb 0.00 in0.0 mm 0.00 in0.0 mm 0.00 in0.0 mm
12:01 AM 63.0°F17.2°C 34.2°F1.2°C 34% 1.1 mph SE1.8 kmh SE 1.1 mph1.8 kmh 29.83 in1010.2 mb 0.00 in0.0 mm 0.00 in0.0 mm 0.00 in0.0 mm
12:02 AM 63.0°F17.2°C 33.4°F0.8°C 33% 1.3 mph NE2.1 kmh NE 2.2 mph3.5 kmh 29.82 in1009.8 mb 0.00 in0.0 mm 0.00 in0.0 mm 0.00 in0.0 mm
12:03 AM 63.7°F17.6°C 34.1°F1.2°C 33% Calm Calm -- 29.83 in1010.2 mb 0.00 in0.0 mm 0.00 in0.0 mm 0.00 in0.0 mm
12:04 AM 64.2°F17.9°C 33.7°F0.9°C 32% 0.7 mph ENE1.1 kmh ENE 1.1 mph1.8 kmh 29.82 in1009.8 mb 0.00 in0.0 mm 0.00 in0.0 mm 0.00 in0.0 mm
12:05 AM 64.4°F18.0°C 33.9°F1.1°C 32% Calm Calm -- 29.83 in1010.2 mb 0.00 in0.0 mm 0.00 in0.0 mm 0.00 in0.0 mm
12:06 AM 64.2°F17.9°C 33.7°F0.9°C 32% Calm Calm -- 29.82 in1009.8 mb 0.00 in0.0 mm 0.00 in0.0 mm 0.00 in0.0 mm
12:07 AM 64.2°F17.9°C 33.7°F0.9°C 32% Calm Calm -- 29.82 in1009.8 mb 0.00 in0.0 mm 0.00 in0.0 mm 0.00 in0.0 mm
12:08 AM 64.0°F17.8°C 33.5°F0.8°C 32% Calm Calm -- 29.83 in1010.2 mb 0.00 in0.0 mm 0.00 in0.0 mm 0.00 in0.0 mm
12:09 AM 64.0°F17.8°C 32.8°F0.4°C 31% Calm Calm -- 29.83 in1010.2 mb 0.00 in0.0 mm 0.00 in0.0 mm 0.00 in0.0 mm
12:10 AM 64.0°F17.8°C 32.8°F0.4°C 31% Calm Calm -- 29.82 in1009.8 mb 0.00 in0.0 mm 0.00 in0.0 mm 0.00 in0.0 mm
12:11 AM 64.0°F17.8°C 32.8°F0.4°C 31% Calm Calm -- 29.82 in1009.8 mb 0.00 in0.0 mm 0.00 in0.0 mm 0.00 in0.0 mm
12:12 AM 64.0°F17.8°C 32.8°F0.4°C 31% 1.8 mph NNE2.9 kmh NNE 2.2 mph3.5 kmh 29.82 in1009.8 mb 0.00 in0.0 mm 0.00 in0.0 mm 0.00 in0.0 mm
12:13 AM 64.0°F17.8°C 32.8°F0.4°C 31% 2.7 mph NE4.3 kmh NE 3.4 mph5.5 kmh 29.82 in1009.8 mb 0.00 in0.0 mm 0.00 in0.0 mm 0.00 in0.0 mm
12:14 AM 64.4°F18.0°C 33.1°F0.6°C 31% 1.3 mph ENE2.1 kmh ENE 2.2 mph3.5 kmh 29.82 in1009.8 mb 0.00 in0.0 mm 0.00 in0.0 mm 0.00 in0.0 mm
12:15 AM 64.9°F18.3°C 32.7°F0.4°C 30% 2.7 mph NE4.3 kmh NE 3.4 mph5.5 kmh 29.82 in1009.8 mb 0.00 in0.0 mm 0.00 in0.0 mm 0.00 in0.0 mm
12:16 AM 65.7°F18.7°C 33.4°F0.8°C 30% 0.7 mph ENE1.1 kmh ENE 1.1 mph1.8 kmh 29.83 in1010.2 mb 0.00 in0.0 mm 0.00 in0.0 mm 0.00 in0.0 mm
12:17 AM 65.8°F18.8°C 34.3°F1.3°C 31% 0.4 mph NE0.6 kmh NE 1.1 mph1.8 kmh 29.82 in1009.8 mb 0.00 in0.0 mm 0.00 in0.0 mm 0.00 in0.0 mm
12:18 AM 65.8°F18.8°C 34.3°F1.3°C 31% Calm Calm -- 29.82 in1009.8 mb 0.00 in0.0 mm 0.00 in0.0 mm 0.00 in0.0 mm
12:19 AM 65.8°F18.8°C 34.3°F1.3°C 31% 1.6 mph NE2.6 kmh NE 2.2 mph3.5 kmh 29.83 in1010.2 mb 0.00 in0.0 mm 0.00 in0.0 mm 0.00 in0.0 mm
12:20 AM 65.5°F18.6°C 34.1°F1.2°C 31% Calm Calm -- 29.83 in1010.2 mb 0.00 in0.0 mm 0.00 in0.0 mm 0.00 in0.0 mm
12:21 AM 65.3°F18.5°C 33.9°F1.1°C 31% Calm Calm -- 29.82 in1009.8 mb 0.00 in0.0 mm 0.00 in0.0 mm 0.00 in0.0 mm
12:22 AM 65.1°F18.4°C 34.5°F1.4°C 32% Calm Calm -- 29.82 in1009.8 mb 0.00 in0.0 mm 0.00 in0.0 mm 0.00 in0.0 mm
12:23 AM 64.8°F18.2°C 34.2°F1.2°C 32% Calm Calm -- 29.83 in1010.2 mb 0.00 in0.0 mm 0.00 in0.0 mm 0.00 in0.0 mm
12:24 AM 64.6°F18.1°C 34.1°F1.2°C 32% Calm Calm -- 29.82 in1009.8 mb 0.00 in0.0 mm 0.00 in0.0 mm 0.00 in0.0 mm
12:25 AM 64.2°F17.9°C 34.5°F1.4°C 33% 0.2 mph WSW0.3 kmh WSW 1.1 mph1.8 kmh 29.82 in1009.8 mb 0.00 in0.0 mm 0.00 in0.0 mm 0.00 in0.0 mm
12:26 AM 64.0°F17.8°C 34.3°F1.3°C 33% Calm Calm -- 29.82 in1009.8 mb 0.00 in0.0 mm 0.00 in0.0 mm 0.00 in0.0 mm
12:27 AM 64.0°F17.8°C 34.3°F1.3°C 33% Calm Calm -- 29.82 in1009.8 mb 0.00 in0.0 mm 0.00 in0.0 mm 0.00 in0.0 mm
12:28 AM 63.9°F17.7°C 34.2°F1.2°C 33% 0.9 mph WSW1.4 kmh WSW 1.1 mph1.8 kmh 29.83 in1010.2 mb 0.00 in0.0 mm 0.00 in0.0 mm 0.00 in0.0 mm
12:29 AM 63.9°F17.7°C 34.2°F1.2°C 33% 0.9 mph WSW1.4 kmh WSW 1.1 mph1.8 kmh 29.82 in1009.8 mb 0.00 in0.0 mm 0.00 in0.0 mm 0.00 in0.0 mm
12:30 AM 63.9°F17.7°C 34.2°F1.2°C 33% 1.8 mph ESE2.9 kmh ESE 2.2 mph3.5 kmh 29.82 in1009.8 mb 0.00 in0.0 mm 0.00 in0.0 mm 0.00 in0.0 mm
12:31 AM 64.2°F17.9°C 34.5°F1.4°C 33% Calm Calm -- 29.82 in1009.8 mb 0.00 in0.0 mm 0.00 in0.0 mm 0.00 in0.0 mm
12:32 AM 64.6°F18.1°C 34.8°F1.6°C 33% Calm Calm -- 29.82 in1009.8 mb 0.00 in0.0 mm 0.00 in0.0 mm 0.00 in0.0 mm
12:33 AM 64.6°F18.1°C 34.8°F1.6°C 33% Calm Calm -- 29.82 in1009.8 mb 0.00 in0.0 mm 0.00 in0.0 mm 0.00 in0.0 mm
12:34 AM 64.4°F18.0°C 35.4°F1.9°C 34% Calm Calm -- 29.82 in1009.8 mb 0.00 in0.0 mm 0.00 in0.0 mm 0.00 in0.0 mm
12:35 AM 64.2°F17.9°C 34.5°F1.4°C 33% Calm Calm -- 29.82 in1009.8 mb 0.00 in0.0 mm 0.00 in0.0 mm 0.00 in0.0 mm
12:36 AM 64.0°F17.8°C 34.3°F1.3°C 33% 0.7 mph SW1.1 kmh SW 1.1 mph1.8 kmh 29.82 in1009.8 mb 0.00 in0.0 mm 0.00 in0.0 mm 0.00 in0.0 mm
12:37 AM 64.0°F17.8°C 34.3°F1.3°C 33% Calm Calm -- 29.83 in1010.2 mb 0.00 in0.0 mm 0.00 in0.0 mm 0.00 in0.0 mm
12:38 AM 63.7°F17.6°C 34.1°F1.2°C 33% Calm Calm -- 29.82 in1009.8 mb 0.00 in0.0 mm 0.00 in0.0 mm 0.00 in0.0 mm
12:39 AM 63.7°F17.6°C 34.8°F1.6°C 34% Calm Calm -- 29.82 in1009.8 mb 0.00 in0.0 mm 0.00 in0.0 mm 0.00 in0.0 mm
12:40 AM 63.3°F17.4°C 34.5°F1.4°C 34% Calm Calm -- 29.82 in1009.8 mb 0.00 in0.0 mm 0.00 in0.0 mm 0.00 in0.0 mm
12:41 AM 63.3°F17.4°C 34.5°F1.4°C 34% Calm Calm -- 29.82 in1009.8 mb 0.00 in0.0 mm 0.00 in0.0 mm 0.00 in0.0 mm
12:42 AM 63.1°F17.3°C 34.3°F1.3°C 34% Calm Calm -- 29.82 in1009.8 mb 0.00 in0.0 mm 0.00 in0.0 mm 0.00 in0.0 mm
12:43 AM 63.0°F17.2°C 34.2°F1.2°C 34% 0.4 mph SW0.6 kmh SW 1.1 mph1.8 kmh 29.82 in1009.8 mb 0.00 in0.0 mm 0.00 in0.0 mm 0.00 in0.0 mm
12:45 AM 63.0°F17.2°C 34.2°F1.2°C 34% 0.2 mph S0.3 kmh S 1.1 mph1.8 kmh 29.82 in1009.8 mb 0.00 in0.0 mm 0.00 in0.0 mm 0.00 in0.0 mm
12:46 AM 63.1°F17.3°C 34.3°F1.3°C 34% 1.1 mph E1.8 kmh E 1.1 mph1.8 kmh 29.81 in1009.5 mb 0.00 in0.0 mm 0.00 in0.0 mm 0.00 in0.0 mm
12:47 AM 63.1°F17.3°C 34.3°F1.3°C 34% 1.8 mph NE2.9 kmh NE 2.2 mph3.5 kmh 29.82 in1009.8 mb 0.00 in0.0 mm 0.00 in0.0 mm 0.00 in0.0 mm
12:48 AM 63.3°F17.4°C 34.5°F1.4°C 34% 0.4 mph E0.6 kmh E 1.1 mph1.8 kmh 29.83 in1010.2 mb 0.00 in0.0 mm 0.00 in0.0 mm 0.00 in0.0 mm
12:49 AM 63.3°F17.4°C 34.5°F1.4°C 34% Calm Calm -- 29.82 in1009.8 mb 0.00 in0.0 mm 0.00 in0.0 mm 0.00 in0.0 mm
12:50 AM 63.3°F17.4°C 35.2°F1.8°C 35% Calm Calm -- 29.82 in1009.8 mb 0.00 in0.0 mm 0.00 in0.0 mm 0.00 in0.0 mm
12:51 AM 63.3°F17.4°C 35.2°F1.8°C 35% Calm Calm -- 29.82 in1009.8 mb 0.00 in0.0 mm 0.00 in0.0 mm 0.00 in0.0 mm
12:52 AM 63.1°F17.3°C 35.0°F1.7°C 35% Calm Calm -- 29.82 in1009.8 mb 0.00 in0.0 mm 0.00 in0.0 mm 0.00 in0.0 mm
12:53 AM 63.0°F17.2°C 34.9°F1.6°C 35% Calm Calm -- 29.82 in1009.8 mb 0.00 in0.0 mm 0.00 in0.0 mm 0.00 in0.0 mm
12:54 AM 62.6°F17.0°C 35.3°F1.8°C 36% Calm Calm -- 29.82 in1009.8 mb 0.00 in0.0 mm 0.00 in0.0 mm 0.00 in0.0 mm
12:55 AM 62.4°F16.9°C 35.1°F1.7°C 36% 0.2 mph S0.3 kmh S 1.1 mph1.8 kmh 29.81 in1009.5 mb 0.00 in0.0 mm 0.00 in0.0 mm 0.00 in0.0 mm
12:56 AM 62.4°F16.9°C 35.1°F1.7°C 36% 0.7 mph ENE1.1 kmh ENE 1.1 mph1.8 kmh 29.82 in1009.8 mb 0.00 in0.0 mm 0.00 in0.0 mm 0.00 in0.0 mm
12:57 AM 62.4°F16.9°C 35.1°F1.7°C 36% Calm Calm -- 29.82 in1009.8 mb 0.00 in0.0 mm 0.00 in0.0 mm 0.00 in0.0 mm
12:58 AM 62.4°F16.9°C 35.1°F1.7°C 36% Calm Calm -- 29.81 in1009.5 mb 0.00 in0.0 mm 0.00 in0.0 mm 0.00 in0.0 mm
12:59 AM 62.4°F16.9°C 35.1°F1.7°C 36% Calm Calm -- 29.82 in1009.8 mb 0.00 in0.0 mm 0.00 in0.0 mm 0.00 in0.0 mm
01:00 AM 62.1°F16.7°C 34.8°F1.6°C 36% Calm Calm -- 29.82 in1009.8 mb 0.00 in0.0 mm 0.00 in0.0 mm 0.00 in0.0 mm
01:01 AM 61.9°F16.6°C 34.7°F1.5°C 36% Calm Calm -- 29.82 in1009.8 mb 0.00 in0.0 mm 0.00 in0.0 mm 0.00 in0.0 mm
01:02 AM 61.7°F16.5°C 34.5°F1.4°C 36% Calm Calm -- 29.82 in1009.8 mb 0.00 in0.0 mm 0.00 in0.0 mm 0.00 in0.0 mm
01:03 AM 61.7°F16.5°C 34.5°F1.4°C 36% Calm Calm -- 29.82 in1009.8 mb 0.00 in0.0 mm 0.00 in0.0 mm 0.00 in0.0 mm
01:04 AM 61.5°F16.4°C 34.3°F1.3°C 36% Calm Calm -- 29.82 in1009.8 mb 0.00 in0.0 mm 0.00 in0.0 mm 0.00 in0.0 mm
01:05 AM 61.5°F16.4°C 34.3°F1.3°C 36% Calm Calm -- 29.83 in1010.2 mb 0.00 in0.0 mm 0.00 in0.0 mm 0.00 in0.0 mm
01:06 AM 61.5°F16.4°C 34.3°F1.3°C 36% Calm Calm -- 29.82 in1009.8 mb 0.00 in0.0 mm 0.00 in0.0 mm 0.00 in0.0 mm
01:07 AM 61.5°F16.4°C 34.3°F1.3°C 36% 0.2 mph SE0.3 kmh SE 1.1 mph1.8 kmh 29.82 in1009.8 mb 0.00 in0.0 mm 0.00 in0.0 mm 0.00 in0.0 mm
01:08 AM 61.9°F16.6°C 33.9°F1.1°C 35% 0.2 mph ESE0.3 kmh ESE 1.1 mph1.8 kmh 29.82 in1009.8 mb 0.00 in0.0 mm 0.00 in0.0 mm 0.00 in0.0 mm
01:09 AM 62.1°F16.7°C 34.1°F1.2°C 35% Calm Calm -- 29.82 in1009.8 mb 0.00 in0.0 mm 0.00 in0.0 mm 0.00 in0.0 mm
01:10 AM 62.4°F16.9°C 34.4°F1.3°C 35% Calm Calm -- 29.82 in1009.8 mb 0.00 in0.0 mm 0.00 in0.0 mm 0.00 in0.0 mm
01:11 AM 62.4°F16.9°C 34.4°F1.3°C 35% Calm Calm -- 29.82 in1009.8 mb 0.00 in0.0 mm 0.00 in0.0 mm 0.00 in0.0 mm
01:12 AM 62.6°F17.0°C 33.8°F1.0°C 34% Calm Calm -- 29.82 in1009.8 mb 0.00 in0.0 mm 0.00 in0.0 mm 0.00 in0.0 mm
01:13 AM 62.6°F17.0°C 33.8°F1.0°C 34% Calm Calm -- 29.82 in1009.8 mb 0.00 in0.0 mm 0.00 in0.0 mm 0.00 in0.0 mm
01:14 AM 62.4°F16.9°C 33.7°F0.9°C 34% Calm Calm -- 29.82 in1009.8 mb 0.00 in0.0 mm 0.00 in0.0 mm 0.00 in0.0 mm
01:15 AM 62.4°F16.9°C 34.4°F1.3°C 35% Calm Calm -- 29.82 in1009.8 mb 0.00 in0.0 mm 0.00 in0.0 mm 0.00 in0.0 mm
01:16 AM 62.4°F16.9°C 33.7°F0.9°C 34% Calm Calm -- 29.82 in1009.8 mb 0.00 in0.0 mm 0.00 in0.0 mm 0.00 in0.0 mm
01:17 AM 62.4°F16.9°C 34.4°F1.3°C 35% Calm Calm -- 29.82 in1009.8 mb 0.00 in0.0 mm 0.00 in0.0 mm 0.00 in0.0 mm
01:18 AM 62.2°F16.8°C 34.2°F1.2°C 35% Calm Calm -- 29.82 in1009.8 mb 0.00 in0.0 mm 0.00 in0.0 mm 0.00 in0.0 mm
01:19 AM 62.1°F16.7°C 34.1°F1.2°C 35% Calm Calm -- 29.82 in1009.8 mb 0.00 in0.0 mm 0.00 in0.0 mm 0.00 in0.0 mm
01:20 AM 61.9°F16.6°C 34.7°F1.5°C 36% Calm Calm -- 29.81 in1009.5 mb 0.00 in0.0 mm 0.00 in0.0 mm 0.00 in0.0 mm
01:21 AM 61.9°F16.6°C 33.9°F1.1°C 35% Calm Calm -- 29.82 in1009.8 mb 0.00 in0.0 mm 0.00 in0.0 mm 0.00 in0.0 mm
01:22 AM 61.7°F16.5°C 34.5°F1.4°C 36% Calm Calm -- 29.82 in1009.8 mb 0.00 in0.0 mm 0.00 in0.0 mm 0.00 in0.0 mm
01:23 AM 61.7°F16.5°C 34.5°F1.4°C 36% Calm Calm -- 29.82 in1009.8 mb 0.00 in0.0 mm 0.00 in0.0 mm 0.00 in0.0 mm
01:24 AM 61.5°F16.4°C 34.3°F1.3°C 36% Calm Calm -- 29.82 in1009.8 mb 0.00 in0.0 mm 0.00 in0.0 mm 0.00 in0.0 mm
01:25 AM 61.7°F16.5°C 34.5°F1.4°C 36% Calm Calm -- 29.82 in1009.8 mb 0.00 in0.0 mm 0.00 in0.0 mm 0.00 in0.0 mm
01:26 AM 61.7°F16.5°C 34.5°F1.4°C 36% Calm Calm -- 29.82 in1009.8 mb 0.00 in0.0 mm 0.00 in0.0 mm 0.00 in0.0 mm
01:27 AM 61.7°F16.5°C 34.5°F1.4°C 36% Calm Calm -- 29.82 in1009.8 mb 0.00 in0.0 mm 0.00 in0.0 mm 0.00 in0.0 mm
01:28 AM 61.9°F16.6°C 34.7°F1.5°C 36% Calm Calm -- 29.81 in1009.5 mb 0.00 in0.0 mm 0.00 in0.0 mm 0.00 in0.0 mm
01:29 AM 61.9°F16.6°C 34.7°F1.5°C 36% Calm Calm -- 29.82 in1009.8 mb 0.00 in0.0 mm 0.00 in0.0 mm 0.00 in0.0 mm
01:30 AM 61.9°F16.6°C 34.7°F1.5°C 36% Calm Calm -- 29.81 in1009.5 mb 0.00 in0.0 mm 0.00 in0.0 mm 0.00 in0.0 mm
01:31 AM 61.9°F16.6°C 34.7°F1.5°C 36% 0.7 mph ESE1.1 kmh ESE 1.1 mph1.8 kmh 29.82 in1009.8 mb 0.00 in0.0 mm 0.00 in0.0 mm 0.00 in0.0 mm
01:32 AM 61.9°F16.6°C 35.3°F1.8°C 37% Calm Calm -- 29.82 in1009.8 mb 0.00 in0.0 mm 0.00 in0.0 mm 0.00 in0.0 mm
01:33 AM 61.9°F16.6°C 35.3°F1.8°C 37% Calm Calm -- 29.81 in1009.5 mb 0.00 in0.0 mm 0.00 in0.0 mm 0.00 in0.0 mm
01:34 AM 61.7°F16.5°C 35.2°F1.8°C 37% Calm Calm -- 29.82 in1009.8 mb 0.00 in0.0 mm 0.00 in0.0 mm 0.00 in0.0 mm
01:35 AM 61.5°F16.4°C 35.7°F2.1°C 38% Calm Calm -- 29.81 in1009.5 mb 0.00 in0.0 mm 0.00 in0.0 mm 0.00 in0.0 mm
01:36 AM 61.5°F16.4°C 35.7°F2.1°C 38% Calm Calm -- 29.82 in1009.8 mb 0.00 in0.0 mm 0.00 in0.0 mm 0.00 in0.0 mm
01:37 AM 61.5°F16.4°C 35.7°F2.1°C 38% 0.7 mph E1.1 kmh E 1.1 mph1.8 kmh 29.81 in1009.5 mb 0.00 in0.0 mm 0.00 in0.0 mm 0.00 in0.0 mm
01:38 AM 61.5°F16.4°C 35.0°F1.7°C 37% Calm Calm -- 29.81 in1009.5 mb 0.00 in0.0 mm 0.00 in0.0 mm 0.00 in0.0 mm
01:39 AM 61.7°F16.5°C 35.2°F1.8°C 37% 0.9 mph E1.4 kmh E 2.2 mph3.5 kmh 29.82 in1009.8 mb 0.00 in0.0 mm 0.00 in0.0 mm 0.00 in0.0 mm
01:40 AM 61.9°F16.6°C 35.3°F1.8°C 37% 1.3 mph E2.1 kmh E 2.2 mph3.5 kmh 29.82 in1009.8 mb 0.00 in0.0 mm 0.00 in0.0 mm 0.00 in0.0 mm
01:41 AM 61.9°F16.6°C 35.3°F1.8°C 37% Calm Calm -- 29.82 in1009.8 mb 0.00 in0.0 mm 0.00 in0.0 mm 0.00 in0.0 mm
01:42 AM 61.9°F16.6°C 35.3°F1.8°C 37% Calm Calm -- 29.82 in1009.8 mb 0.00 in0.0 mm 0.00 in0.0 mm 0.00 in0.0 mm
01:43 AM 61.7°F16.5°C 35.8°F2.1°C 38% Calm Calm -- 29.81 in1009.5 mb 0.00 in0.0 mm 0.00 in0.0 mm 0.00 in0.0 mm
01:44 AM 61.5°F16.4°C 35.7°F2.1°C 38% Calm Calm -- 29.82 in1009.8 mb 0.00 in0.0 mm 0.00 in0.0 mm 0.00 in0.0 mm
01:45 AM 61.5°F16.4°C 35.7°F2.1°C 38% Calm Calm -- 29.82 in1009.8 mb 0.00 in0.0 mm 0.00 in0.0 mm 0.00 in0.0 mm
01:46 AM 61.3°F16.3°C 35.5°F1.9°C 38% Calm Calm -- 29.82 in1009.8 mb 0.00 in0.0 mm 0.00 in0.0 mm 0.00 in0.0 mm
01:47 AM 61.2°F16.2°C 35.4°F1.9°C 38% Calm Calm -- 29.82 in1009.8 mb 0.00 in0.0 mm 0.00 in0.0 mm 0.00 in0.0 mm
01:48 AM 61.0°F16.1°C 35.2°F1.8°C 38% Calm Calm -- 29.82 in1009.8 mb 0.00 in0.0 mm 0.00 in0.0 mm 0.00 in0.0 mm
01:49 AM 60.8°F16.0°C 35.0°F1.7°C 38% Calm Calm -- 29.82 in1009.8 mb 0.00 in0.0 mm 0.00 in0.0 mm 0.00 in0.0 mm
01:50 AM 60.8°F16.0°C 35.0°F1.7°C 38% Calm Calm -- 29.81 in1009.5 mb 0.00 in0.0 mm 0.00 in0.0 mm 0.00 in0.0 mm
01:51 AM 60.8°F16.0°C 35.0°F1.7°C 38% 0.2 mph E0.3 kmh E 1.1 mph1.8 kmh 29.82 in1009.8 mb 0.00 in0.0 mm 0.00 in0.0 mm 0.00 in0.0 mm
01:52 AM 60.6°F15.9°C 34.2°F1.2°C 37% Calm Calm -- 29.82 in1009.8 mb 0.00 in0.0 mm 0.00 in0.0 mm 0.00 in0.0 mm
01:53 AM 60.6°F15.9°C 34.2°F1.2°C 37% Calm Calm -- 29.81 in1009.5 mb 0.00 in0.0 mm 0.00 in0.0 mm 0.00 in0.0 mm
01:54 AM 60.6°F15.9°C 34.9°F1.6°C 38% Calm Calm -- 29.81 in1009.5 mb 0.00 in0.0 mm 0.00 in0.0 mm 0.00 in0.0 mm
01:55 AM 60.6°F15.9°C 34.9°F1.6°C 38% Calm Calm -- 29.82 in1009.8 mb 0.00 in0.0 mm 0.00 in0.0 mm 0.00 in0.0 mm
01:56 AM 60.3°F15.7°C 35.2°F1.8°C 39% 0.4 mph S0.6 kmh S 1.1 mph1.8 kmh 29.81 in1009.5 mb 0.00 in0.0 mm 0.00 in0.0 mm 0.00 in0.0 mm
01:57 AM 60.3°F15.7°C 34.6°F1.4°C 38% 0.9 mph SSW1.4 kmh SSW 1.1 mph1.8 kmh 29.82 in1009.8 mb 0.00 in0.0 mm 0.00 in0.0 mm 0.00 in0.0 mm
01:58 AM 60.4°F15.8°C 34.7°F1.5°C 38% Calm Calm -- 29.82 in1009.8 mb 0.00 in0.0 mm 0.00 in0.0 mm 0.00 in0.0 mm
01:59 AM 60.6°F15.9°C 36.1°F2.3°C 40% Calm Calm -- 29.82 in1009.8 mb 0.00 in0.0 mm 0.00 in0.0 mm 0.00 in0.0 mm
02:00 AM 60.6°F15.9°C 35.5°F1.9°C 39% Calm Calm -- 29.81 in1009.5 mb 0.00 in0.0 mm 0.00 in0.0 mm 0.00 in0.0 mm
02:01 AM 60.6°F15.9°C 35.5°F1.9°C 39% Calm Calm -- 29.82 in1009.8 mb 0.00 in0.0 mm 0.00 in0.0 mm 0.00 in0.0 mm
02:02 AM 60.6°F15.9°C 37.4°F3.0°C 42% 0.7 mph SE1.1 kmh SE 1.1 mph1.8 kmh 29.82 in1009.8 mb 0.00 in0.0 mm 0.00 in0.0 mm 0.00 in0.0 mm
02:03 AM 60.3°F15.7°C 37.7°F3.2°C 43% Calm Calm -- 29.82 in1009.8 mb 0.00 in0.0 mm 0.00 in0.0 mm 0.00 in0.0 mm
02:04 AM 60.3°F15.7°C 38.3°F3.5°C 44% 0.4 mph ENE0.6 kmh ENE 1.1 mph1.8 kmh 29.82 in1009.8 mb 0.00 in0.0 mm 0.00 in0.0 mm 0.00 in0.0 mm
02:05 AM 60.1°F15.6°C 38.1°F3.4°C 44% Calm Calm -- 29.82 in1009.8 mb 0.00 in0.0 mm 0.00 in0.0 mm 0.00 in0.0 mm
02:06 AM 60.1°F15.6°C 39.3°F4.1°C 46% Calm Calm -- 29.81 in1009.5 mb 0.00 in0.0 mm 0.00 in0.0 mm 0.00 in0.0 mm
02:07 AM 60.1°F15.6°C 38.7°F3.7°C 45% Calm Calm -- 29.81 in1009.5 mb 0.00 in0.0 mm 0.00 in0.0 mm 0.00 in0.0 mm
02:08 AM 60.1°F15.6°C 38.7°F3.7°C 45% Calm Calm -- 29.82 in1009.8 mb 0.00 in0.0 mm 0.00 in0.0 mm 0.00 in0.0 mm
02:09 AM 60.1°F15.6°C 39.3°F4.1°C 46% Calm Calm -- 29.82 in1009.8 mb 0.00 in0.0 mm 0.00 in0.0 mm 0.00 in0.0 mm
02:10 AM 59.9°F15.5°C 38.5°F3.6°C 45% 0.2 mph SE0.3 kmh SE 1.1 mph1.8 kmh 29.82 in1009.8 mb 0.00 in0.0 mm 0.00 in0.0 mm 0.00 in0.0 mm
02:11 AM 59.9°F15.5°C 38.5°F3.6°C 45% Calm Calm -- 29.82 in1009.8 mb 0.00 in0.0 mm 0.00 in0.0 mm 0.00 in0.0 mm
02:12 AM 59.9°F15.5°C 39.1°F3.9°C 46% Calm Calm -- 29.82 in1009.8 mb 0.00 in0.0 mm 0.00 in0.0 mm 0.00 in0.0 mm
02:13 AM 59.9°F15.5°C 38.5°F3.6°C 45% Calm Calm -- 29.82 in1009.8 mb 0.00 in0.0 mm 0.00 in0.0 mm 0.00 in0.0 mm
02:14 AM 59.7°F15.4°C 37.8°F3.2°C 44% Calm Calm -- 29.82 in1009.8 mb 0.00 in0.0 mm 0.00 in0.0 mm 0.00 in0.0 mm
02:15 AM 59.7°F15.4°C 37.2°F2.9°C 43% Calm Calm -- 29.82 in1009.8 mb 0.00 in0.0 mm 0.00 in0.0 mm 0.00 in0.0 mm
02:16 AM 59.7°F15.4°C 37.8°F3.2°C 44% Calm Calm -- 29.82 in1009.8 mb 0.00 in0.0 mm 0.00 in0.0 mm 0.00 in0.0 mm
02:17 AM 59.7°F15.4°C 37.2°F2.9°C 43% 0.2 mph SE0.3 kmh SE 1.1 mph1.8 kmh 29.82 in1009.8 mb 0.00 in0.0 mm 0.00 in0.0 mm 0.00 in0.0 mm
02:18 AM 59.9°F15.5°C 37.9°F3.3°C 44% Calm Calm -- 29.81 in1009.5 mb 0.00 in0.0 mm 0.00 in0.0 mm 0.00 in0.0 mm
02:19 AM 60.1°F15.6°C 37.5°F3.1°C 43% Calm Calm -- 29.82 in1009.8 mb 0.00 in0.0 mm 0.00 in0.0 mm 0.00 in0.0 mm
02:20 AM 60.1°F15.6°C 37.5°F3.1°C 43% Calm Calm -- 29.82 in1009.8 mb 0.00 in0.0 mm 0.00 in0.0 mm 0.00 in0.0 mm
02:21 AM 60.1°F15.6°C 37.5°F3.1°C 43% Calm Calm -- 29.81 in1009.5 mb 0.00 in0.0 mm 0.00 in0.0 mm 0.00 in0.0 mm
02:22 AM 60.1°F15.6°C 37.5°F3.1°C 43% Calm Calm -- 29.82 in1009.8 mb 0.00 in0.0 mm 0.00 in0.0 mm 0.00 in0.0 mm
02:23 AM 59.9°F15.5°C 37.9°F3.3°C 44% Calm Calm -- 29.82 in1009.8 mb 0.00 in0.0 mm 0.00 in0.0 mm 0.00 in0.0 mm
02:24 AM 59.7°F15.4°C 37.8°F3.2°C 44% 2.5 mph S4.0 kmh S 3.4 mph5.5 kmh 29.81 in1009.5 mb 0.00 in0.0 mm 0.00 in0.0 mm 0.00 in0.0 mm
02:25 AM 59.5°F15.3°C 37.6°F3.1°C 44% 0.4 mph S0.6 kmh S 1.1 mph1.8 kmh 29.81 in1009.5 mb 0.00 in0.0 mm 0.00 in0.0 mm 0.00 in0.0 mm
02:26 AM 59.2°F15.1°C 37.9°F3.3°C 45% Calm Calm -- 29.81 in1009.5 mb 0.00 in0.0 mm 0.00 in0.0 mm 0.00 in0.0 mm
02:27 AM 59.0°F15.0°C 37.1°F2.8°C 44% Calm Calm -- 29.81 in1009.5 mb 0.00 in0.0 mm 0.00 in0.0 mm 0.00 in0.0 mm
02:28 AM 59.0°F15.0°C 37.1°F2.8°C 44% Calm Calm -- 29.82 in1009.8 mb 0.00 in0.0 mm 0.00 in0.0 mm 0.00 in0.0 mm
02:29 AM 59.0°F15.0°C 37.7°F3.2°C 45% Calm Calm -- 29.82 in1009.8 mb 0.00 in0.0 mm 0.00 in0.0 mm 0.00 in0.0 mm
02:30 AM 59.0°F15.0°C 37.1°F2.8°C 44% Calm Calm -- 29.82 in1009.8 mb 0.00 in0.0 mm 0.00 in0.0 mm 0.00 in0.0 mm
02:31 AM 59.0°F15.0°C 37.1°F2.8°C 44% Calm Calm -- 29.82 in1009.8 mb 0.00 in0.0 mm 0.00 in0.0 mm 0.00 in0.0 mm
02:32 AM 59.0°F15.0°C 37.7°F3.2°C 45% Calm Calm -- 29.82 in1009.8 mb 0.00 in0.0 mm 0.00 in0.0 mm 0.00 in0.0 mm
02:33 AM 59.2°F15.1°C 37.3°F2.9°C 44% Calm Calm -- 29.81 in1009.5 mb 0.00 in0.0 mm 0.00 in0.0 mm 0.00 in0.0 mm
02:34 AM 59.5°F15.3°C 37.6°F3.1°C 44% Calm Calm -- 29.82 in1009.8 mb 0.00 in0.0 mm 0.00 in0.0 mm 0.00 in0.0 mm
02:35 AM 59.5°F15.3°C 37.6°F3.1°C 44% Calm Calm -- 29.81 in1009.5 mb 0.00 in0.0 mm 0.00 in0.0 mm 0.00 in0.0 mm
02:36 AM 59.5°F15.3°C 37.6°F3.1°C 44% Calm Calm -- 29.81 in1009.5 mb 0.00 in0.0 mm 0.00 in0.0 mm 0.00 in0.0 mm
02:37 AM 59.9°F15.5°C 37.9°F3.3°C 44% Calm Calm -- 29.81 in1009.5 mb 0.00 in0.0 mm 0.00 in0.0 mm 0.00 in0.0 mm
02:38 AM 59.9°F15.5°C 37.3°F2.9°C 43% Calm Calm -- 29.82 in1009.8 mb 0.00 in0.0 mm 0.00 in0.0 mm 0.00 in0.0 mm
02:39 AM 59.9°F15.5°C 37.3°F2.9°C 43% Calm Calm -- 29.81 in1009.5 mb 0.00 in0.0 mm 0.00 in0.0 mm 0.00 in0.0 mm
02:40 AM 60.1°F15.6°C 37.5°F3.1°C 43% 0.2 mph SSE0.3 kmh SSE 1.1 mph1.8 kmh 29.81 in1009.5 mb 0.00 in0.0 mm 0.00 in0.0 mm 0.00 in0.0 mm
02:41 AM 60.1°F15.6°C 37.5°F3.1°C 43% Calm Calm -- 29.81 in1009.5 mb 0.00 in0.0 mm 0.00 in0.0 mm 0.00 in0.0 mm
02:42 AM 60.1°F15.6°C 37.5°F3.1°C 43% Calm Calm -- 29.81 in1009.5 mb 0.00 in0.0 mm 0.00 in0.0 mm 0.00 in0.0 mm
02:43 AM 59.9°F15.5°C 37.3°F2.9°C 43% Calm Calm -- 29.81 in1009.5 mb 0.00 in0.0 mm 0.00 in0.0 mm 0.00 in0.0 mm
02:44 AM 59.5°F15.3°C 37.0°F2.8°C 43% Calm Calm -- 29.81 in1009.5 mb 0.00 in0.0 mm 0.00 in0.0 mm 0.00 in0.0 mm
02:45 AM 59.4°F15.2°C 36.9°F2.7°C 43% Calm Calm -- 29.81 in1009.5 mb 0.00 in0.0 mm 0.00 in0.0 mm 0.00 in0.0 mm
02:46 AM 59.4°F15.2°C 36.9°F2.7°C 43% Calm Calm -- 29.81 in1009.5 mb 0.00 in0.0 mm 0.00 in0.0 mm 0.00 in0.0 mm
02:47 AM 59.2°F15.1°C 36.7°F2.6°C 43% Calm Calm -- 29.81 in1009.5 mb 0.00 in0.0 mm 0.00 in0.0 mm 0.00 in0.0 mm
02:48 AM 59.2°F15.1°C 36.7°F2.6°C 43% Calm Calm -- 29.81 in1009.5 mb 0.00 in0.0 mm 0.00 in0.0 mm 0.00 in0.0 mm
02:49 AM 59.0°F15.0°C 36.5°F2.5°C 43% Calm Calm -- 29.81 in1009.5 mb 0.00 in0.0 mm 0.00 in0.0 mm 0.00 in0.0 mm
02:50 AM 58.6°F14.8°C 36.2°F2.3°C 43% Calm Calm -- 29.80 in1009.1 mb 0.00 in0.0 mm 0.00 in0.0 mm 0.00 in0.0 mm
02:51 AM 58.3°F14.6°C 35.9°F2.2°C 43% Calm Calm -- 29.81 in1009.5 mb 0.00 in0.0 mm 0.00 in0.0 mm 0.00 in0.0 mm
02:52 AM 58.3°F14.6°C 35.9°F2.2°C 43% Calm Calm -- 29.81 in1009.5 mb 0.00 in0.0 mm 0.00 in0.0 mm 0.00 in0.0 mm
02:53 AM 58.3°F14.6°C 35.9°F2.2°C 43% Calm Calm -- 29.81 in1009.5 mb 0.00 in0.0 mm 0.00 in0.0 mm 0.00 in0.0 mm
02:54 AM 58.3°F14.6°C 35.9°F2.2°C 43% Calm Calm -- 29.81 in1009.5 mb 0.00 in0.0 mm 0.00 in0.0 mm 0.00 in0.0 mm
02:55 AM 58.5°F14.7°C 36.1°F2.3°C 43% Calm Calm -- 29.81 in1009.5 mb 0.00 in0.0 mm 0.00 in0.0 mm 0.00 in0.0 mm
02:56 AM 58.8°F14.9°C 36.4°F2.4°C 43% Calm Calm -- 29.81 in1009.5 mb 0.00 in0.0 mm 0.00 in0.0 mm 0.00 in0.0 mm
02:57 AM 58.8°F14.9°C 36.4°F2.4°C 43% Calm Calm -- 29.81 in1009.5 mb 0.00 in0.0 mm 0.00 in0.0 mm 0.00 in0.0 mm
02:58 AM 58.8°F14.9°C 36.4°F2.4°C 43% 0.7 mph SSE1.1 kmh SSE 1.1 mph1.8 kmh 29.81 in1009.5 mb 0.00 in0.0 mm 0.00 in0.0 mm 0.00 in0.0 mm
02:59 AM 58.3°F14.6°C 35.3°F1.8°C 42% 1.1 mph S1.8 kmh S 1.1 mph1.8 kmh 29.82 in1009.8 mb 0.00 in0.0 mm 0.00 in0.0 mm 0.00 in0.0 mm
03:00 AM 58.3°F14.6°C 35.3°F1.8°C 42% 0.9 mph S1.4 kmh S 1.1 mph1.8 kmh 29.81 in1009.5 mb 0.00 in0.0 mm 0.00 in0.0 mm 0.00 in0.0 mm
03:01 AM 58.8°F14.9°C 35.8°F2.1°C 42% Calm Calm -- 29.81 in1009.5 mb 0.00 in0.0 mm 0.00 in0.0 mm 0.00 in0.0 mm
03:02 AM 59.2°F15.1°C 35.5°F1.9°C 41% Calm Calm -- 29.81 in1009.5 mb 0.00 in0.0 mm 0.00 in0.0 mm 0.00 in0.0 mm
03:03 AM 59.5°F15.3°C 35.8°F2.1°C 41% Calm Calm -- 29.81 in1009.5 mb 0.00 in0.0 mm 0.00 in0.0 mm 0.00 in0.0 mm
03:04 AM 59.5°F15.3°C 35.8°F2.1°C 41% Calm Calm -- 29.81 in1009.5 mb 0.00 in0.0 mm 0.00 in0.0 mm 0.00 in0.0 mm
03:05 AM 59.5°F15.3°C 35.8°F2.1°C 41% 0.7 mph S1.1 kmh S 1.1 mph1.8 kmh 29.81 in1009.5 mb 0.00 in0.0 mm 0.00 in0.0 mm 0.00 in0.0 mm
03:06 AM 59.4°F15.2°C 36.3°F2.4°C 42% Calm Calm -- 29.81 in1009.5 mb 0.00 in0.0 mm 0.00 in0.0 mm 0.00 in0.0 mm
03:07 AM 59.2°F15.1°C 35.5°F1.9°C 41% Calm Calm -- 29.81 in1009.5 mb 0.00 in0.0 mm 0.00 in0.0 mm 0.00 in0.0 mm
03:08 AM 59.2°F15.1°C 36.1°F2.3°C 42% Calm Calm -- 29.80 in1009.1 mb 0.00 in0.0 mm 0.00 in0.0 mm 0.00 in0.0 mm
03:09 AM 59.2°F15.1°C 36.1°F2.3°C 42% Calm Calm -- 29.80 in1009.1 mb 0.00 in0.0 mm 0.00 in0.0 mm 0.00 in0.0 mm
03:10 AM 59.2°F15.1°C 36.1°F2.3°C 42% Calm Calm -- 29.80 in1009.1 mb 0.00 in0.0 mm 0.00 in0.0 mm 0.00 in0.0 mm
03:11 AM 59.0°F15.0°C 35.9°F2.2°C 42% Calm Calm -- 29.81 in1009.5 mb 0.00 in0.0 mm 0.00 in0.0 mm 0.00 in0.0 mm
03:12 AM 58.8°F14.9°C 35.2°F1.8°C 41% Calm Calm -- 29.81 in1009.5 mb 0.00 in0.0 mm 0.00 in0.0 mm 0.00 in0.0 mm
03:13 AM 58.6°F14.8°C 35.6°F2.0°C 42% Calm Calm -- 29.80 in1009.1 mb 0.00 in0.0 mm 0.00 in0.0 mm 0.00 in0.0 mm
03:14 AM 58.3°F14.6°C 35.9°F2.2°C 43% Calm Calm -- 29.80 in1009.1 mb 0.00 in0.0 mm 0.00 in0.0 mm 0.00 in0.0 mm
03:15 AM 58.1°F14.5°C 35.7°F2.1°C 43% Calm Calm -- 29.81 in1009.5 mb 0.00 in0.0 mm 0.00 in0.0 mm 0.00 in0.0 mm
03:16 AM 58.1°F14.5°C 35.1°F1.7°C 42% Calm Calm -- 29.81 in1009.5 mb 0.00 in0.0 mm 0.00 in0.0 mm 0.00 in0.0 mm
03:17 AM 57.9°F14.4°C 34.9°F1.6°C 42% Calm Calm -- 29.81 in1009.5 mb 0.00 in0.0 mm 0.00 in0.0 mm 0.00 in0.0 mm
03:18 AM 57.9°F14.4°C 35.5°F1.9°C 43% Calm Calm -- 29.80 in1009.1 mb 0.00 in0.0 mm 0.00 in0.0 mm 0.00 in0.0 mm
03:19 AM 57.9°F14.4°C 34.9°F1.6°C 42% Calm Calm -- 29.81 in1009.5 mb 0.00 in0.0 mm 0.00 in0.0 mm 0.00 in0.0 mm
03:20 AM 57.7°F14.3°C 34.8°F1.6°C 42% Calm Calm -- 29.80 in1009.1 mb 0.00 in0.0 mm 0.00 in0.0 mm 0.00 in0.0 mm
03:21 AM 57.6°F14.2°C 34.7°F1.5°C 42% Calm Calm -- 29.81 in1009.5 mb 0.00 in0.0 mm 0.00 in0.0 mm 0.00 in0.0 mm
03:22 AM 57.2°F14.0°C 34.9°F1.6°C 43% Calm Calm -- 29.80 in1009.1 mb 0.00 in0.0 mm 0.00 in0.0 mm 0.00 in0.0 mm
03:23 AM 57.0°F13.9°C 34.7°F1.5°C 43% Calm Calm -- 29.81 in1009.5 mb 0.00 in0.0 mm 0.00 in0.0 mm 0.00 in0.0 mm
03:24 AM 56.8°F13.8°C 34.5°F1.4°C 43% Calm Calm -- 29.81 in1009.5 mb 0.00 in0.0 mm 0.00 in0.0 mm 0.00 in0.0 mm
03:25 AM 56.5°F13.6°C 34.3°F1.3°C 43% Calm Calm -- 29.80 in1009.1 mb 0.00 in0.0 mm 0.00 in0.0 mm 0.00 in0.0 mm
03:26 AM 56.1°F13.4°C 33.9°F1.1°C 43% Calm Calm -- 29.80 in1009.1 mb 0.00 in0.0 mm 0.00 in0.0 mm 0.00 in0.0 mm
03:27 AM 55.9°F13.3°C 34.3°F1.3°C 44% Calm Calm -- 29.81 in1009.5 mb 0.00 in0.0 mm 0.00 in0.0 mm 0.00 in0.0 mm
03:28 AM 55.9°F13.3°C 34.3°F1.3°C 44% Calm Calm -- 29.80 in1009.1 mb 0.00 in0.0 mm 0.00 in0.0 mm 0.00 in0.0 mm
03:29 AM 55.9°F13.3°C 34.3°F1.3°C 44% Calm Calm -- 29.80 in1009.1 mb 0.00 in0.0 mm 0.00 in0.0 mm 0.00 in0.0 mm
03:30 AM 55.9°F13.3°C 34.3°F1.3°C 44% Calm Calm -- 29.80 in1009.1 mb 0.00 in0.0 mm 0.00 in0.0 mm 0.00 in0.0 mm
03:31 AM 55.9°F13.3°C 34.3°F1.3°C 44% Calm Calm -- 29.80 in1009.1 mb 0.00 in0.0 mm 0.00 in0.0 mm 0.00 in0.0 mm
03:32 AM 55.9°F13.3°C 34.3°F1.3°C 44% Calm Calm -- 29.80 in1009.1 mb 0.00 in0.0 mm 0.00 in0.0 mm 0.00 in0.0 mm
03:33 AM 55.9°F13.3°C 34.3°F1.3°C 44% Calm Calm -- 29.80 in1009.1 mb 0.00 in0.0 mm 0.00 in0.0 mm 0.00 in0.0 mm
03:34 AM 56.1°F13.4°C 34.5°F1.4°C 44% Calm Calm -- 29.80 in1009.1 mb 0.00 in0.0 mm 0.00 in0.0 mm 0.00 in0.0 mm
03:35 AM 56.1°F13.4°C 34.5°F1.4°C 44% Calm Calm -- 29.81 in1009.5 mb 0.00 in0.0 mm 0.00 in0.0 mm 0.00 in0.0 mm
03:36 AM 56.3°F13.5°C 34.7°F1.5°C 44% Calm Calm -- 29.80 in1009.1 mb 0.00 in0.0 mm 0.00 in0.0 mm 0.00 in0.0 mm
03:37 AM 56.3°F13.5°C 34.7°F1.5°C 44% Calm Calm -- 29.81 in1009.5 mb 0.00 in0.0 mm 0.00 in0.0 mm 0.00 in0.0 mm
03:38 AM 56.5°F13.6°C 34.3°F1.3°C 43% Calm Calm -- 29.80 in1009.1 mb 0.00 in0.0 mm 0.00 in0.0 mm 0.00 in0.0 mm
03:39 AM 56.5°F13.6°C 34.3°F1.3°C 43% Calm Calm -- 29.80 in1009.1 mb 0.00 in0.0 mm 0.00 in0.0 mm 0.00 in0.0 mm
03:40 AM 56.7°F13.7°C 34.5°F1.4°C 43% Calm Calm -- 29.81 in1009.5 mb 0.00 in0.0 mm 0.00 in0.0 mm 0.00 in0.0 mm
03:41 AM 57.0°F13.9°C 34.7°F1.5°C 43% Calm Calm -- 29.80 in1009.1 mb 0.00 in0.0 mm 0.00 in0.0 mm 0.00 in0.0 mm
03:42 AM 57.2°F14.0°C 34.9°F1.6°C 43% Calm Calm -- 29.80 in1009.1 mb 0.00 in0.0 mm 0.00 in0.0 mm 0.00 in0.0 mm
03:43 AM 57.4°F14.1°C 34.5°F1.4°C 42% Calm Calm -- 29.80 in1009.1 mb 0.00 in0.0 mm 0.00 in0.0 mm 0.00 in0.0 mm
03:44 AM 57.4°F14.1°C 34.5°F1.4°C 42% 0.2 mph S0.3 kmh S 1.1 mph1.8 kmh 29.79 in1008.8 mb 0.00 in0.0 mm 0.00 in0.0 mm 0.00 in0.0 mm
03:45 AM 57.4°F14.1°C 34.5°F1.4°C 42% 0.2 mph S0.3 kmh S 1.1 mph1.8 kmh 29.79 in1008.8 mb 0.00 in0.0 mm 0.00 in0.0 mm 0.00 in0.0 mm
03:46 AM 57.4°F14.1°C 33.9°F1.1°C 41% 0.2 mph S0.3 kmh S 1.1 mph1.8 kmh 29.80 in1009.1 mb 0.00 in0.0 mm 0.00 in0.0 mm 0.00 in0.0 mm
03:47 AM 57.6°F14.2°C 34.7°F1.5°C 42% Calm Calm -- 29.80 in1009.1 mb 0.00 in0.0 mm 0.00 in0.0 mm 0.00 in0.0 mm
03:48 AM 57.6°F14.2°C 34.7°F1.5°C 42% Calm Calm -- 29.80 in1009.1 mb 0.00 in0.0 mm 0.00 in0.0 mm 0.00 in0.0 mm
03:49 AM 57.6°F14.2°C 34.1°F1.2°C 41% Calm Calm -- 29.80 in1009.1 mb 0.00 in0.0 mm 0.00 in0.0 mm 0.00 in0.0 mm
03:50 AM 57.7°F14.3°C 34.2°F1.2°C 41% 0.9 mph SSE1.4 kmh SSE 1.1 mph1.8 kmh 29.80 in1009.1 mb 0.00 in0.0 mm 0.00 in0.0 mm 0.00 in0.0 mm
03:51 AM 58.3°F14.6°C 34.1°F1.2°C 40% Calm Calm -- 29.80 in1009.1 mb 0.00 in0.0 mm 0.00 in0.0 mm 0.00 in0.0 mm
03:52 AM 58.8°F14.9°C 34.5°F1.4°C 40% 0.7 mph SE1.1 kmh SE 1.1 mph1.8 kmh 29.79 in1008.8 mb 0.00 in0.0 mm 0.00 in0.0 mm 0.00 in0.0 mm
03:53 AM 58.8°F14.9°C 34.5°F1.4°C 40% Calm Calm -- 29.81 in1009.5 mb 0.00 in0.0 mm 0.00 in0.0 mm 0.00 in0.0 mm
03:54 AM 58.8°F14.9°C 34.5°F1.4°C 40% Calm Calm -- 29.80 in1009.1 mb 0.00 in0.0 mm 0.00 in0.0 mm 0.00 in0.0 mm
03:55 AM 58.6°F14.8°C 35.0°F1.7°C 41% 0.4 mph SSW0.6 kmh SSW 1.1 mph1.8 kmh 29.80 in1009.1 mb 0.00 in0.0 mm 0.00 in0.0 mm 0.00 in0.0 mm
03:56 AM 58.5°F14.7°C 35.5°F1.9°C 42% Calm Calm -- 29.80 in1009.1 mb 0.00 in0.0 mm 0.00 in0.0 mm 0.00 in0.0 mm
03:57 AM 58.5°F14.7°C 34.9°F1.6°C 41% Calm Calm -- 29.80 in1009.1 mb 0.00 in0.0 mm 0.00 in0.0 mm 0.00 in0.0 mm
03:58 AM 58.6°F14.8°C 35.6°F2.0°C 42% Calm Calm -- 29.79 in1008.8 mb 0.00 in0.0 mm 0.00 in0.0 mm 0.00 in0.0 mm
03:59 AM 58.6°F14.8°C 35.6°F2.0°C 42% 0.2 mph SW0.3 kmh SW 1.1 mph1.8 kmh 29.81 in1009.5 mb 0.00 in0.0 mm 0.00 in0.0 mm 0.00 in0.0 mm
04:00 AM 58.8°F14.9°C 35.8°F2.1°C 42% 0.9 mph SW1.4 kmh SW 1.1 mph1.8 kmh 29.81 in1009.5 mb 0.00 in0.0 mm 0.00 in0.0 mm 0.00 in0.0 mm
04:01 AM 58.8°F14.9°C 35.2°F1.8°C 41% Calm Calm -- 29.79 in1008.8 mb 0.00 in0.0 mm 0.00 in0.0 mm 0.00 in0.0 mm
04:02 AM 58.5°F14.7°C 34.9°F1.6°C 41% Calm Calm -- 29.80 in1009.1 mb 0.00 in0.0 mm 0.00 in0.0 mm 0.00 in0.0 mm
04:03 AM 58.5°F14.7°C 35.5°F1.9°C 42% Calm Calm -- 29.80 in1009.1 mb 0.00 in0.0 mm 0.00 in0.0 mm 0.00 in0.0 mm
04:04 AM 58.3°F14.6°C 35.3°F1.8°C 42% Calm Calm -- 29.80 in1009.1 mb 0.00 in0.0 mm 0.00 in0.0 mm 0.00 in0.0 mm
04:05 AM 58.3°F14.6°C 35.3°F1.8°C 42% Calm Calm -- 29.80 in1009.1 mb 0.00 in0.0 mm 0.00 in0.0 mm 0.00 in0.0 mm
04:06 AM 58.3°F14.6°C 37.1°F2.8°C 45% Calm Calm -- 29.80 in1009.1 mb 0.00 in0.0 mm 0.00 in0.0 mm 0.00 in0.0 mm
04:07 AM 58.5°F14.7°C 36.7°F2.6°C 44% Calm Calm -- 29.80 in1009.1 mb 0.00 in0.0 mm 0.00 in0.0 mm 0.00 in0.0 mm
04:08 AM 58.5°F14.7°C 36.1°F2.3°C 43% Calm Calm -- 29.80 in1009.1 mb 0.00 in0.0 mm 0.00 in0.0 mm 0.00 in0.0 mm
04:09 AM 58.5°F14.7°C 35.5°F1.9°C 42% Calm Calm -- 29.79 in1008.8 mb 0.00 in0.0 mm 0.00 in0.0 mm 0.00 in0.0 mm
04:10 AM 58.3°F14.6°C 35.3°F1.8°C 42% Calm Calm -- 29.80 in1009.1 mb 0.00 in0.0 mm 0.00 in0.0 mm 0.00 in0.0 mm
04:11 AM 58.1°F14.5°C 35.1°F1.7°C 42% Calm Calm -- 29.80 in1009.1 mb 0.00 in0.0 mm 0.00 in0.0 mm 0.00 in0.0 mm
04:12 AM 57.7°F14.3°C 34.8°F1.6°C 42% Calm Calm -- 29.80 in1009.1 mb 0.00 in0.0 mm 0.00 in0.0 mm 0.00 in0.0 mm
04:13 AM 57.7°F14.3°C 35.4°F1.9°C 43% Calm Calm -- 29.80 in1009.1 mb 0.00 in0.0 mm 0.00 in0.0 mm 0.00 in0.0 mm
04:14 AM 57.7°F14.3°C 35.4°F1.9°C 43% Calm Calm -- 29.80 in1009.1 mb 0.00 in0.0 mm 0.00 in0.0 mm 0.00 in0.0 mm
04:15 AM 57.6°F14.2°C 35.3°F1.8°C 43% Calm Calm -- 29.81 in1009.5 mb 0.00 in0.0 mm 0.00 in0.0 mm 0.00 in0.0 mm
04:16 AM 57.6°F14.2°C 35.8°F2.1°C 44% Calm Calm -- 29.80 in1009.1 mb 0.00 in0.0 mm 0.00 in0.0 mm 0.00 in0.0 mm
04:17 AM 57.4°F14.1°C 35.1°F1.7°C 43% 0.7 mph SW1.1 kmh SW 1.1 mph1.8 kmh 29.80 in1009.1 mb 0.00 in0.0 mm 0.00 in0.0 mm 0.00 in0.0 mm
04:18 AM 57.4°F14.1°C 35.1°F1.7°C 43% Calm Calm -- 29.81 in1009.5 mb 0.00 in0.0 mm 0.00 in0.0 mm 0.00 in0.0 mm
04:19 AM 57.4°F14.1°C 35.1°F1.7°C 43% 0.9 mph SW1.4 kmh SW 1.1 mph1.8 kmh 29.81 in1009.5 mb 0.00 in0.0 mm 0.00 in0.0 mm 0.00 in0.0 mm
04:20 AM 57.2°F14.0°C 34.9°F1.6°C 43% 0.7 mph SW1.1 kmh SW 1.1 mph1.8 kmh 29.80 in1009.1 mb 0.00 in0.0 mm 0.00 in0.0 mm 0.00 in0.0 mm
04:21 AM 57.2°F14.0°C 34.9°F1.6°C 43% Calm Calm -- 29.80 in1009.1 mb 0.00 in0.0 mm 0.00 in0.0 mm 0.00 in0.0 mm
04:22 AM 57.2°F14.0°C 34.9°F1.6°C 43% Calm Calm -- 29.80 in1009.1 mb 0.00 in0.0 mm 0.00 in0.0 mm 0.00 in0.0 mm
04:23 AM 57.0°F13.9°C 34.7°F1.5°C 43% 0.4 mph SW0.6 kmh SW 1.1 mph1.8 kmh 29.80 in1009.1 mb 0.00 in0.0 mm 0.00 in0.0 mm 0.00 in0.0 mm
04:24 AM 57.0°F13.9°C 34.7°F1.5°C 43% Calm Calm -- 29.80 in1009.1 mb 0.00 in0.0 mm 0.00 in0.0 mm 0.00 in0.0 mm
04:25 AM 57.0°F13.9°C 34.7°F1.5°C 43% Calm Calm -- 29.80 in1009.1 mb 0.00 in0.0 mm 0.00 in0.0 mm 0.00 in0.0 mm
04:26 AM 57.0°F13.9°C 34.7°F1.5°C 43% Calm Calm -- 29.80 in1009.1 mb 0.00 in0.0 mm 0.00 in0.0 mm 0.00 in0.0 mm
04:27 AM 57.2°F14.0°C 35.5°F1.9°C 44% Calm Calm -- 29.80 in1009.1 mb 0.00 in0.0 mm 0.00 in0.0 mm 0.00 in0.0 mm
04:28 AM 57.2°F14.0°C 34.9°F1.6°C 43% Calm Calm -- 29.80 in1009.1 mb 0.00 in0.0 mm 0.00 in0.0 mm 0.00 in0.0 mm
04:29 AM 57.2°F14.0°C 34.9°F1.6°C 43% Calm Calm -- 29.80 in1009.1 mb 0.00 in0.0 mm 0.00 in0.0 mm 0.00 in0.0 mm
04:30 AM 57.0°F13.9°C 35.3°F1.8°C 44% Calm Calm -- 29.80 in1009.1 mb 0.00 in0.0 mm 0.00 in0.0 mm 0.00 in0.0 mm
04:31 AM 56.7°F13.7°C 34.5°F1.4°C 43% Calm Calm -- 29.80 in1009.1 mb 0.00 in0.0 mm 0.00 in0.0 mm 0.00 in0.0 mm
04:32 AM 56.7°F13.7°C 33.9°F1.1°C 42% 1.1 mph SW1.8 kmh SW 1.1 mph1.8 kmh 29.80 in1009.1 mb 0.00 in0.0 mm 0.00 in0.0 mm 0.00 in0.0 mm
04:33 AM 56.8°F13.8°C 34.0°F1.1°C 42% Calm Calm -- 29.81 in1009.5 mb 0.00 in0.0 mm 0.00 in0.0 mm 0.00 in0.0 mm
04:34 AM 57.2°F14.0°C 34.3°F1.3°C 42% 0.2 mph SW0.3 kmh SW 1.1 mph1.8 kmh 29.81 in1009.5 mb 0.00 in0.0 mm 0.00 in0.0 mm 0.00 in0.0 mm
04:35 AM 57.2°F14.0°C 34.9°F1.6°C 43% Calm Calm -- 29.80 in1009.1 mb 0.00 in0.0 mm 0.00 in0.0 mm 0.00 in0.0 mm
04:36 AM 56.5°F13.6°C 34.3°F1.3°C 43% 1.3 mph SW2.1 kmh SW 2.2 mph3.5 kmh 29.81 in1009.5 mb 0.00 in0.0 mm 0.00 in0.0 mm 0.00 in0.0 mm
04:37 AM 56.3°F13.5°C 33.5°F0.8°C 42% 1.3 mph SW2.1 kmh SW 2.2 mph3.5 kmh 29.80 in1009.1 mb 0.00 in0.0 mm 0.00 in0.0 mm 0.00 in0.0 mm
04:38 AM 56.5°F13.6°C 33.7°F0.9°C 42% Calm Calm -- 29.80 in1009.1 mb 0.00 in0.0 mm 0.00 in0.0 mm 0.00 in0.0 mm
04:39 AM 57.0°F13.9°C 34.1°F1.2°C 42% Calm Calm -- 29.81 in1009.5 mb 0.00 in0.0 mm 0.00 in0.0 mm 0.00 in0.0 mm
04:40 AM 57.2°F14.0°C 34.3°F1.3°C 42% Calm Calm -- 29.80 in1009.1 mb 0.00 in0.0 mm 0.00 in0.0 mm 0.00 in0.0 mm
04:41 AM 57.2°F14.0°C 34.3°F1.3°C 42% 0.2 mph SW0.3 kmh SW 1.1 mph1.8 kmh 29.81 in1009.5 mb 0.00 in0.0 mm 0.00 in0.0 mm 0.00 in0.0 mm
04:42 AM 56.8°F13.8°C 34.0°F1.1°C 42% 0.2 mph SW0.3 kmh SW 1.1 mph1.8 kmh 29.80 in1009.1 mb 0.00 in0.0 mm 0.00 in0.0 mm 0.00 in0.0 mm
04:43 AM 56.8°F13.8°C 34.0°F1.1°C 42% Calm Calm -- 29.81 in1009.5 mb 0.00 in0.0 mm 0.00 in0.0 mm 0.00 in0.0 mm
04:44 AM 56.8°F13.8°C 34.0°F1.1°C 42% 1.1 mph WSW1.8 kmh WSW 1.1 mph1.8 kmh 29.81 in1009.5 mb 0.00 in0.0 mm 0.00 in0.0 mm 0.00 in0.0 mm
04:45 AM 56.8°F13.8°C 34.0°F1.1°C 42% Calm Calm -- 29.80 in1009.1 mb 0.00 in0.0 mm 0.00 in0.0 mm 0.00 in0.0 mm
04:46 AM 56.8°F13.8°C 33.4°F0.8°C 41% 1.8 mph S2.9 kmh S 2.2 mph3.5 kmh 29.80 in1009.1 mb 0.00 in0.0 mm 0.00 in0.0 mm 0.00 in0.0 mm
04:47 AM 56.8°F13.8°C 32.7°F0.4°C 40% 0.7 mph SSW1.1 kmh SSW 1.1 mph1.8 kmh 29.80 in1009.1 mb 0.00 in0.0 mm 0.00 in0.0 mm 0.00 in0.0 mm
04:48 AM 57.6°F14.2°C 33.5°F0.8°C 40% 0.2 mph SSW0.3 kmh SSW 1.1 mph1.8 kmh 29.80 in1009.1 mb 0.00 in0.0 mm 0.00 in0.0 mm 0.00 in0.0 mm
04:49 AM 57.7°F14.3°C 33.5°F0.8°C 40% Calm Calm -- 29.80 in1009.1 mb 0.00 in0.0 mm 0.00 in0.0 mm 0.00 in0.0 mm
04:50 AM 57.7°F14.3°C 34.2°F1.2°C 41% Calm Calm -- 29.81 in1009.5 mb 0.00 in0.0 mm 0.00 in0.0 mm 0.00 in0.0 mm
04:51 AM 57.6°F14.2°C 34.1°F1.2°C 41% Calm Calm -- 29.80 in1009.1 mb 0.00 in0.0 mm 0.00 in0.0 mm 0.00 in0.0 mm
04:52 AM 57.4°F14.1°C 33.9°F1.1°C 41% Calm Calm -- 29.81 in1009.5 mb 0.00 in0.0 mm 0.00 in0.0 mm 0.00 in0.0 mm
04:53 AM 57.4°F14.1°C 33.9°F1.1°C 41% Calm Calm -- 29.81 in1009.5 mb 0.00 in0.0 mm 0.00 in0.0 mm 0.00 in0.0 mm
04:54 AM 57.4°F14.1°C 33.3°F0.7°C 40% 0.4 mph SSW0.6 kmh SSW 1.1 mph1.8 kmh 29.81 in1009.5 mb 0.00 in0.0 mm 0.00 in0.0 mm 0.00 in0.0 mm
04:55 AM 57.7°F14.3°C 32.9°F0.5°C 39% 1.1 mph SSW1.8 kmh SSW 1.1 mph1.8 kmh 29.80 in1009.1 mb 0.00 in0.0 mm 0.00 in0.0 mm 0.00 in0.0 mm
04:56 AM 58.1°F14.5°C 33.9°F1.1°C 40% 1.1 mph SSW1.8 kmh SSW 1.1 mph1.8 kmh 29.81 in1009.5 mb 0.00 in0.0 mm 0.00 in0.0 mm 0.00 in0.0 mm
04:57 AM 58.1°F14.5°C 33.9°F1.1°C 40% 0.7 mph SSW1.1 kmh SSW 1.1 mph1.8 kmh 29.81 in1009.5 mb 0.00 in0.0 mm 0.00 in0.0 mm 0.00 in0.0 mm
04:58 AM 57.9°F14.4°C 33.7°F0.9°C 40% Calm Calm -- 29.81 in1009.5 mb 0.00 in0.0 mm 0.00 in0.0 mm 0.00 in0.0 mm
04:59 AM 57.7°F14.3°C 33.5°F0.8°C 40% Calm Calm -- 29.80 in1009.1 mb 0.00 in0.0 mm 0.00 in0.0 mm 0.00 in0.0 mm
05:00 AM 57.6°F14.2°C 33.5°F0.8°C 40% Calm Calm -- 29.80 in1009.1 mb 0.00 in0.0 mm 0.00 in0.0 mm 0.00 in0.0 mm
05:01 AM 57.6°F14.2°C 34.1°F1.2°C 41% Calm Calm -- 29.81 in1009.5 mb 0.00 in0.0 mm 0.00 in0.0 mm 0.00 in0.0 mm
05:02 AM 57.2°F14.0°C 33.7°F0.9°C 41% Calm Calm -- 29.81 in1009.5 mb 0.00 in0.0 mm 0.00 in0.0 mm 0.00 in0.0 mm
05:03 AM 56.8°F13.8°C 34.0°F1.1°C 42% Calm Calm -- 29.81 in1009.5 mb 0.00 in0.0 mm 0.00 in0.0 mm 0.00 in0.0 mm
05:04 AM 56.5°F13.6°C 33.7°F0.9°C 42% 0.4 mph SSW0.6 kmh SSW 1.1 mph1.8 kmh 29.81 in1009.5 mb 0.00 in0.0 mm 0.00 in0.0 mm 0.00 in0.0 mm
05:05 AM 56.3°F13.5°C 32.9°F0.5°C 41% 0.4 mph SSW0.6 kmh SSW 1.1 mph1.8 kmh 29.80 in1009.1 mb 0.00 in0.0 mm 0.00 in0.0 mm 0.00 in0.0 mm
05:06 AM 56.3°F13.5°C 32.9°F0.5°C 41% Calm Calm -- 29.81 in1009.5 mb 0.00 in0.0 mm 0.00 in0.0 mm 0.00 in0.0 mm
05:07 AM 56.5°F13.6°C 33.1°F0.6°C 41% Calm Calm -- 29.80 in1009.1 mb 0.00 in0.0 mm 0.00 in0.0 mm 0.00 in0.0 mm
05:08 AM 56.5°F13.6°C 33.1°F0.6°C 41% 0.9 mph SSW1.4 kmh SSW 1.1 mph1.8 kmh 29.81 in1009.5 mb 0.00 in0.0 mm 0.00 in0.0 mm 0.00 in0.0 mm
05:09 AM 56.5°F13.6°C 33.1°F0.6°C 41% Calm Calm -- 29.80 in1009.1 mb 0.00 in0.0 mm 0.00 in0.0 mm 0.00 in0.0 mm
05:10 AM 56.5°F13.6°C 33.1°F0.6°C 41% Calm Calm -- 29.80 in1009.1 mb 0.00 in0.0 mm 0.00 in0.0 mm 0.00 in0.0 mm
05:11 AM 56.3°F13.5°C 33.5°F0.8°C 42% Calm Calm -- 29.80 in1009.1 mb 0.00 in0.0 mm 0.00 in0.0 mm 0.00 in0.0 mm
05:12 AM 56.1°F13.4°C 33.3°F0.7°C 42% Calm Calm -- 29.81 in1009.5 mb 0.00 in0.0 mm 0.00 in0.0 mm 0.00 in0.0 mm
05:13 AM 55.9°F13.3°C 33.1°F0.6°C 42% 0.7 mph SSW1.1 kmh SSW 1.1 mph1.8 kmh 29.80 in1009.1 mb 0.00 in0.0 mm 0.00 in0.0 mm 0.00 in0.0 mm
05:14 AM 55.9°F13.3°C 32.5°F0.3°C 41% 1.3 mph SSW2.1 kmh SSW 2.2 mph3.5 kmh 29.80 in1009.1 mb 0.00 in0.0 mm 0.00 in0.0 mm 0.00 in0.0 mm
05:15 AM 56.1°F13.4°C 33.3°F0.7°C 42% Calm Calm -- 29.80 in1009.1 mb 0.00 in0.0 mm 0.00 in0.0 mm 0.00 in0.0 mm
05:16 AM 56.1°F13.4°C 33.3°F0.7°C 42% Calm Calm -- 29.80 in1009.1 mb 0.00 in0.0 mm 0.00 in0.0 mm 0.00 in0.0 mm
05:17 AM 55.8°F13.2°C 33.1°F0.6°C 42% Calm Calm -- 29.80 in1009.1 mb 0.00 in0.0 mm 0.00 in0.0 mm 0.00 in0.0 mm
05:18 AM 55.6°F13.1°C 32.9°F0.5°C 42% 1.3 mph SSW2.1 kmh SSW 2.2 mph3.5 kmh 29.80 in1009.1 mb 0.00 in0.0 mm 0.00 in0.0 mm 0.00 in0.0 mm
05:19 AM 55.8°F13.2°C 32.5°F0.3°C 41% Calm Calm -- 29.79 in1008.8 mb 0.00 in0.0 mm 0.00 in0.0 mm 0.00 in0.0 mm
05:20 AM 56.1°F13.4°C 32.7°F0.4°C 41% Calm Calm -- 29.80 in1009.1 mb 0.00 in0.0 mm 0.00 in0.0 mm 0.00 in0.0 mm
05:21 AM 56.1°F13.4°C 33.3°F0.7°C 42% Calm Calm -- 29.80 in1009.1 mb 0.00 in0.0 mm 0.00 in0.0 mm 0.00 in0.0 mm
05:22 AM 55.9°F13.3°C 33.1°F0.6°C 42% Calm Calm -- 29.80 in1009.1 mb 0.00 in0.0 mm 0.00 in0.0 mm 0.00 in0.0 mm
05:23 AM 55.8°F13.2°C 32.5°F0.3°C 41% 1.1 mph SSW1.8 kmh SSW 1.1 mph1.8 kmh 29.80 in1009.1 mb 0.00 in0.0 mm 0.00 in0.0 mm 0.00 in0.0 mm
05:24 AM 55.8°F13.2°C 32.5°F0.3°C 41% 1.1 mph SSW1.8 kmh SSW 1.1 mph1.8 kmh 29.80 in1009.1 mb 0.00 in0.0 mm 0.00 in0.0 mm 0.00 in0.0 mm
05:25 AM 56.1°F13.4°C 32.7°F0.4°C 41% Calm Calm -- 29.80 in1009.1 mb 0.00 in0.0 mm 0.00 in0.0 mm 0.00 in0.0 mm
05:26 AM 56.3°F13.5°C 32.9°F0.5°C 41% Calm Calm -- 29.81 in1009.5 mb 0.00 in0.0 mm 0.00 in0.0 mm 0.00 in0.0 mm
05:27 AM 56.3°F13.5°C 33.5°F0.8°C 42% Calm Calm -- 29.80 in1009.1 mb 0.00 in0.0 mm 0.00 in0.0 mm 0.00 in0.0 mm
05:28 AM 55.6°F13.1°C 32.9°F0.5°C 42% Calm Calm -- 29.80 in1009.1 mb 0.00 in0.0 mm 0.00 in0.0 mm 0.00 in0.0 mm
05:29 AM 55.6°F13.1°C 32.9°F0.5°C 42% Calm Calm -- 29.80 in1009.1 mb 0.00 in0.0 mm 0.00 in0.0 mm 0.00 in0.0 mm
05:30 AM 55.6°F13.1°C 32.9°F0.5°C 42% 0.9 mph SSW1.4 kmh SSW 1.1 mph1.8 kmh 29.80 in1009.1 mb 0.00 in0.0 mm 0.00 in0.0 mm 0.00 in0.0 mm
05:31 AM 56.1°F13.4°C 32.7°F0.4°C 41% 1.8 mph SSW2.9 kmh SSW 2.2 mph3.5 kmh 29.79 in1008.8 mb 0.00 in0.0 mm 0.00 in0.0 mm 0.00 in0.0 mm
05:32 AM 56.3°F13.5°C 33.5°F0.8°C 42% 1.3 mph SSW2.1 kmh SSW 2.2 mph3.5 kmh 29.80 in1009.1 mb 0.00 in0.0 mm 0.00 in0.0 mm 0.00 in0.0 mm
05:33 AM 56.1°F13.4°C 33.3°F0.7°C 42% 0.2 mph SSW0.3 kmh SSW 1.1 mph1.8 kmh 29.80 in1009.1 mb 0.00 in0.0 mm 0.00 in0.0 mm 0.00 in0.0 mm
05:34 AM 55.2°F12.9°C 33.7°F0.9°C 44% Calm Calm -- 29.81 in1009.5 mb 0.00 in0.0 mm 0.00 in0.0 mm 0.00 in0.0 mm
05:35 AM 55.0°F12.8°C 33.5°F0.8°C 44% 0.7 mph SSW1.1 kmh SSW 1.1 mph1.8 kmh 29.80 in1009.1 mb 0.00 in0.0 mm 0.00 in0.0 mm 0.00 in0.0 mm
05:36 AM 55.0°F12.8°C 32.3°F0.2°C 42% 0.4 mph SSW0.6 kmh SSW 1.1 mph1.8 kmh 29.80 in1009.1 mb 0.00 in0.0 mm 0.00 in0.0 mm 0.00 in0.0 mm
05:37 AM 55.8°F13.2°C 33.1°F0.6°C 42% Calm Calm -- 29.80 in1009.1 mb 0.00 in0.0 mm 0.00 in0.0 mm 0.00 in0.0 mm
05:38 AM 56.3°F13.5°C 33.5°F0.8°C 42% Calm Calm -- 29.80 in1009.1 mb 0.00 in0.0 mm 0.00 in0.0 mm 0.00 in0.0 mm
05:39 AM 56.1°F13.4°C 33.3°F0.7°C 42% Calm Calm -- 29.80 in1009.1 mb 0.00 in0.0 mm 0.00 in0.0 mm 0.00 in0.0 mm
05:40 AM 55.8°F13.2°C 33.6°F0.9°C 43% Calm Calm -- 29.80 in1009.1 mb 0.00 in0.0 mm 0.00 in0.0 mm 0.00 in0.0 mm
05:41 AM 55.6°F13.1°C 33.5°F0.8°C 43% Calm Calm -- 29.81 in1009.5 mb 0.00 in0.0 mm 0.00 in0.0 mm 0.00 in0.0 mm
05:42 AM 55.4°F13.0°C 33.9°F1.1°C 44% 1.1 mph SW1.8 kmh SW 1.1 mph1.8 kmh 29.81 in1009.5 mb 0.00 in0.0 mm 0.00 in0.0 mm 0.00 in0.0 mm
05:43 AM 55.4°F13.0°C 33.3°F0.7°C 43% 0.4 mph S0.6 kmh S 1.1 mph1.8 kmh 29.80 in1009.1 mb 0.00 in0.0 mm 0.00 in0.0 mm 0.00 in0.0 mm
05:44 AM 55.8°F13.2°C 33.6°F0.9°C 43% Calm Calm -- 29.80 in1009.1 mb 0.00 in0.0 mm 0.00 in0.0 mm 0.00 in0.0 mm
05:45 AM 55.9°F13.3°C 34.3°F1.3°C 44% Calm Calm -- 29.79 in1008.8 mb 0.00 in0.0 mm 0.00 in0.0 mm 0.00 in0.0 mm
05:46 AM 55.9°F13.3°C 33.7°F0.9°C 43% 0.7 mph SW1.1 kmh SW 1.1 mph1.8 kmh 29.81 in1009.5 mb 0.00 in0.0 mm 0.00 in0.0 mm 0.00 in0.0 mm
05:47 AM 56.5°F13.6°C 33.7°F0.9°C 42% 1.1 mph SW1.8 kmh SW 1.1 mph1.8 kmh 29.80 in1009.1 mb 0.00 in0.0 mm 0.00 in0.0 mm 0.00 in0.0 mm
05:48 AM 56.5°F13.6°C 34.3°F1.3°C 43% Calm Calm -- 29.80 in1009.1 mb 0.00 in0.0 mm 0.00 in0.0 mm 0.00 in0.0 mm
05:49 AM 56.5°F13.6°C 34.3°F1.3°C 43% Calm Calm -- 29.80 in1009.1 mb 0.00 in0.0 mm 0.00 in0.0 mm 0.00 in0.0 mm
05:50 AM 56.5°F13.6°C 34.3°F1.3°C 43% Calm Calm -- 29.80 in1009.1 mb 0.00 in0.0 mm 0.00 in0.0 mm 0.00 in0.0 mm
05:51 AM 56.3°F13.5°C 33.5°F0.8°C 42% Calm Calm -- 29.81 in1009.5 mb 0.00 in0.0 mm 0.00 in0.0 mm 0.00 in0.0 mm
05:52 AM 56.3°F13.5°C 34.1°F1.2°C 43% Calm Calm -- 29.80 in1009.1 mb 0.00 in0.0 mm 0.00 in0.0 mm 0.00 in0.0 mm
05:53 AM 55.8°F13.2°C 34.2°F1.2°C 44% Calm Calm -- 29.81 in1009.5 mb 0.00 in0.0 mm 0.00 in0.0 mm 0.00 in0.0 mm
05:54 AM 55.2°F12.9°C 33.7°F0.9°C 44% Calm Calm -- 29.81 in1009.5 mb 0.00 in0.0 mm 0.00 in0.0 mm 0.00 in0.0 mm
05:55 AM 55.2°F12.9°C 34.2°F1.2°C 45% Calm Calm -- 29.80 in1009.1 mb 0.00 in0.0 mm 0.00 in0.0 mm 0.00 in0.0 mm
05:56 AM 55.4°F13.0°C 33.9°F1.1°C 44% 0.2 mph SW0.3 kmh SW 1.1 mph1.8 kmh 29.81 in1009.5 mb 0.00 in0.0 mm 0.00 in0.0 mm 0.00 in0.0 mm
05:57 AM 55.6°F13.1°C 34.0°F1.1°C 44% Calm Calm -- 29.80 in1009.1 mb 0.00 in0.0 mm 0.00 in0.0 mm 0.00 in0.0 mm
05:58 AM 55.6°F13.1°C 34.0°F1.1°C 44% Calm Calm -- 29.80 in1009.1 mb 0.00 in0.0 mm 0.00 in0.0 mm 0.00 in0.0 mm
05:59 AM 55.6°F13.1°C 34.6°F1.4°C 45% Calm Calm -- 29.79 in1008.8 mb 0.00 in0.0 mm 0.00 in0.0 mm 0.00 in0.0 mm
06:00 AM 55.8°F13.2°C 34.2°F1.2°C 44% 0.2 mph SW0.3 kmh SW 1.1 mph1.8 kmh 29.80 in1009.1 mb 0.00 in0.0 mm 0.00 in0.0 mm 0.00 in0.0 mm
06:01 AM 56.1°F13.4°C 34.5°F1.4°C 44% Calm Calm -- 29.81 in1009.5 mb 0.00 in0.0 mm 0.00 in0.0 mm 0.00 in0.0 mm
06:02 AM 56.3°F13.5°C 35.2°F1.8°C 45% Calm Calm -- 29.80 in1009.1 mb 0.00 in0.0 mm 0.00 in0.0 mm 0.00 in0.0 mm
06:03 AM 56.5°F13.6°C 35.4°F1.9°C 45% 0.2 mph SW0.3 kmh SW 1.1 mph1.8 kmh 29.80 in1009.1 mb 0.00 in0.0 mm 0.00 in0.0 mm 0.00 in0.0 mm
06:04 AM 56.5°F13.6°C 34.3°F1.3°C 43% Calm Calm -- 29.80 in1009.1 mb 0.00 in0.0 mm 0.00 in0.0 mm 0.00 in0.0 mm
06:05 AM 56.7°F13.7°C 34.5°F1.4°C 43% Calm Calm -- 29.80 in1009.1 mb 0.00 in0.0 mm 0.00 in0.0 mm 0.00 in0.0 mm
06:06 AM 56.7°F13.7°C 35.6°F2.0°C 45% Calm Calm -- 29.80 in1009.1 mb 0.00 in0.0 mm 0.00 in0.0 mm 0.00 in0.0 mm
06:07 AM 56.3°F13.5°C 35.8°F2.1°C 46% Calm Calm -- 29.80 in1009.1 mb 0.00 in0.0 mm 0.00 in0.0 mm 0.00 in0.0 mm
06:08 AM 56.3°F13.5°C 34.7°F1.5°C 44% 0.7 mph SW1.1 kmh SW 1.1 mph1.8 kmh 29.80 in1009.1 mb 0.00 in0.0 mm 0.00 in0.0 mm 0.00 in0.0 mm
06:09 AM 56.8°F13.8°C 34.5°F1.4°C 43% 1.1 mph SW1.8 kmh SW 1.1 mph1.8 kmh 29.80 in1009.1 mb 0.00 in0.0 mm 0.00 in0.0 mm 0.00 in0.0 mm
06:10 AM 57.2°F14.0°C 34.9°F1.6°C 43% Calm Calm -- 29.81 in1009.5 mb 0.00 in0.0 mm 0.00 in0.0 mm 0.00 in0.0 mm
06:11 AM 57.6°F14.2°C 35.3°F1.8°C 43% Calm Calm -- 29.80 in1009.1 mb 0.00 in0.0 mm 0.00 in0.0 mm 0.00 in0.0 mm
06:12 AM 57.6°F14.2°C 35.3°F1.8°C 43% Calm Calm -- 29.80 in1009.1 mb 0.00 in0.0 mm 0.00 in0.0 mm 0.00 in0.0 mm
06:13 AM 57.6°F14.2°C 35.3°F1.8°C 43% 1.3 mph SW2.1 kmh SW 2.2 mph3.5 kmh 29.80 in1009.1 mb 0.00 in0.0 mm 0.00 in0.0 mm 0.00 in0.0 mm
06:14 AM 57.2°F14.0°C 35.5°F1.9°C 44% 1.1 mph SW1.8 kmh SW 1.1 mph1.8 kmh 29.80 in1009.1 mb 0.00 in0.0 mm 0.00 in0.0 mm 0.00 in0.0 mm
06:15 AM 56.3°F13.5°C 34.7°F1.5°C 44% 0.9 mph SW1.4 kmh SW 1.1 mph1.8 kmh 29.80 in1009.1 mb 0.00 in0.0 mm 0.00 in0.0 mm 0.00 in0.0 mm
06:16 AM 56.1°F13.4°C 34.5°F1.4°C 44% 1.3 mph SW2.1 kmh SW 2.2 mph3.5 kmh 29.80 in1009.1 mb 0.00 in0.0 mm 0.00 in0.0 mm 0.00 in0.0 mm
06:17 AM 56.1°F13.4°C 34.5°F1.4°C 44% 1.8 mph SW2.9 kmh SW 2.2 mph3.5 kmh 29.80 in1009.1 mb 0.00 in0.0 mm 0.00 in0.0 mm 0.00 in0.0 mm
06:18 AM 56.1°F13.4°C 33.9°F1.1°C 43% 2.2 mph SW3.5 kmh SW 2.2 mph3.5 kmh 29.79 in1008.8 mb 0.00 in0.0 mm 0.00 in0.0 mm 0.00 in0.0 mm
06:19 AM 56.7°F13.7°C 34.5°F1.4°C 43% 1.1 mph SSW1.8 kmh SSW 1.1 mph1.8 kmh 29.80 in1009.1 mb 0.00 in0.0 mm 0.00 in0.0 mm 0.00 in0.0 mm
06:20 AM 57.0°F13.9°C 34.7°F1.5°C 43% Calm Calm -- 29.80 in1009.1 mb 0.00 in0.0 mm 0.00 in0.0 mm 0.00 in0.0 mm
06:21 AM 57.0°F13.9°C 34.7°F1.5°C 43% 1.1 mph SSW1.8 kmh SSW 1.1 mph1.8 kmh 29.80 in1009.1 mb 0.00 in0.0 mm 0.00 in0.0 mm 0.00 in0.0 mm
06:22 AM 56.8°F13.8°C 35.1°F1.7°C 44% 1.1 mph S1.8 kmh S 1.1 mph1.8 kmh 29.81 in1009.5 mb 0.00 in0.0 mm 0.00 in0.0 mm 0.00 in0.0 mm
06:23 AM 56.5°F13.6°C 34.3°F1.3°C 43% 2.5 mph SSW4.0 kmh SSW 3.4 mph5.5 kmh 29.80 in1009.1 mb 0.00 in0.0 mm 0.00 in0.0 mm 0.00 in0.0 mm
06:24 AM 56.5°F13.6°C 34.3°F1.3°C 43% 2.2 mph S3.5 kmh S 2.2 mph3.5 kmh 29.80 in1009.1 mb 0.00 in0.0 mm 0.00 in0.0 mm 0.00 in0.0 mm
06:25 AM 56.5°F13.6°C 34.9°F1.6°C 44% 1.3 mph SSW2.1 kmh SSW 2.2 mph3.5 kmh 29.80 in1009.1 mb 0.00 in0.0 mm 0.00 in0.0 mm 0.00 in0.0 mm
06:26 AM 56.3°F13.5°C 34.7°F1.5°C 44% 1.8 mph S2.9 kmh S 2.2 mph3.5 kmh 29.79 in1008.8 mb 0.00 in0.0 mm 0.00 in0.0 mm 0.00 in0.0 mm
06:27 AM 56.3°F13.5°C 34.7°F1.5°C 44% Calm Calm -- 29.79 in1008.8 mb 0.00 in0.0 mm 0.00 in0.0 mm 0.00 in0.0 mm
06:28 AM 56.3°F13.5°C 34.7°F1.5°C 44% 0.9 mph S1.4 kmh S 2.2 mph3.5 kmh 29.80 in1009.1 mb 0.00 in0.0 mm 0.00 in0.0 mm 0.00 in0.0 mm
06:29 AM 56.3°F13.5°C 34.1°F1.2°C 43% 2.2 mph SSW3.5 kmh SSW 2.2 mph3.5 kmh 29.80 in1009.1 mb 0.00 in0.0 mm 0.00 in0.0 mm 0.00 in0.0 mm
06:30 AM 56.5°F13.6°C 34.3°F1.3°C 43% 2.2 mph S3.5 kmh S 2.2 mph3.5 kmh 29.80 in1009.1 mb 0.00 in0.0 mm 0.00 in0.0 mm 0.00 in0.0 mm
06:31 AM 56.5°F13.6°C 34.3°F1.3°C 43% 1.3 mph SSW2.1 kmh SSW 2.2 mph3.5 kmh 29.80 in1009.1 mb 0.00 in0.0 mm 0.00 in0.0 mm 0.00 in0.0 mm
06:32 AM 56.5°F13.6°C 34.3°F1.3°C 43% 2.5 mph S4.0 kmh S 3.4 mph5.5 kmh 29.80 in1009.1 mb 0.00 in0.0 mm 0.00 in0.0 mm 0.00 in0.0 mm
06:33 AM 56.7°F13.7°C 34.5°F1.4°C 43% 2.2 mph S3.5 kmh S 2.2 mph3.5 kmh 29.79 in1008.8 mb 0.00 in0.0 mm 0.00 in0.0 mm 0.00 in0.0 mm
06:34 AM 57.0°F13.9°C 34.7°F1.5°C 43% 1.1 mph S1.8 kmh S 1.1 mph1.8 kmh 29.80 in1009.1 mb 0.00 in0.0 mm 0.00 in0.0 mm 0.00 in0.0 mm
06:35 AM 57.2°F14.0°C 34.9°F1.6°C 43% 1.3 mph S2.1 kmh S 2.2 mph3.5 kmh 29.79 in1008.8 mb 0.00 in0.0 mm 0.00 in0.0 mm 0.00 in0.0 mm
06:36 AM 57.2°F14.0°C 34.9°F1.6°C 43% Calm Calm -- 29.79 in1008.8 mb 0.00 in0.0 mm 0.00 in0.0 mm 0.00 in0.0 mm
06:37 AM 57.2°F14.0°C 34.9°F1.6°C 43% Calm Calm -- 29.80 in1009.1 mb 0.00 in0.0 mm 0.00 in0.0 mm 0.00 in0.0 mm
06:38 AM 57.0°F13.9°C 34.7°F1.5°C 43% Calm Calm -- 29.80 in1009.1 mb 0.00 in0.0 mm 0.00 in0.0 mm 0.00 in0.0 mm
06:39 AM 56.8°F13.8°C 35.7°F2.1°C 45% Calm Calm -- 29.80 in1009.1 mb 0.00 in0.0 mm 0.00 in0.0 mm 0.00 in0.0 mm
06:40 AM 56.8°F13.8°C 35.1°F1.7°C 44% Calm Calm -- 29.80 in1009.1 mb 0.00 in0.0 mm 0.00 in0.0 mm 0.00 in0.0 mm
06:41 AM 56.7°F13.7°C 35.0°F1.7°C 44% 1.1 mph SSW1.8 kmh SSW 1.1 mph1.8 kmh 29.80 in1009.1 mb 0.00 in0.0 mm 0.00 in0.0 mm 0.00 in0.0 mm
06:42 AM 56.5°F13.6°C 35.4°F1.9°C 45% Calm Calm -- 29.80 in1009.1 mb 0.00 in0.0 mm 0.00 in0.0 mm 0.00 in0.0 mm
06:43 AM 56.1°F13.4°C 35.6°F2.0°C 46% Calm Calm -- 29.80 in1009.1 mb 0.00 in0.0 mm 0.00 in0.0 mm 0.00 in0.0 mm
06:44 AM 55.9°F13.3°C 36.0°F2.2°C 47% Calm Calm -- 29.80 in1009.1 mb 0.00 in0.0 mm 0.00 in0.0 mm 0.00 in0.0 mm
06:45 AM 55.9°F13.3°C 36.0°F2.2°C 47% Calm Calm -- 29.80 in1009.1 mb 0.00 in0.0 mm 0.00 in0.0 mm 0.00 in0.0 mm
06:46 AM 55.9°F13.3°C 36.0°F2.2°C 47% Calm Calm -- 29.80 in1009.1 mb 0.00 in0.0 mm 0.00 in0.0 mm 0.00 in0.0 mm
06:47 AM 55.9°F13.3°C 35.4°F1.9°C 46% Calm Calm -- 29.80 in1009.1 mb 0.00 in0.0 mm 0.00 in0.0 mm 0.00 in0.0 mm
06:48 AM 56.1°F13.4°C 35.1°F1.7°C 45% 0.9 mph SSW1.4 kmh SSW 1.1 mph1.8 kmh 29.79 in1008.8 mb 0.00 in0.0 mm 0.00 in0.0 mm 0.00 in0.0 mm
06:49 AM 56.5°F13.6°C 36.0°F2.2°C 46% Calm Calm -- 29.80 in1009.1 mb 0.00 in0.0 mm 0.00 in0.0 mm 0.00 in0.0 mm
06:50 AM 56.8°F13.8°C 36.2°F2.3°C 46% Calm Calm -- 29.80 in1009.1 mb 0.00 in0.0 mm 0.00 in0.0 mm 0.00 in0.0 mm
06:51 AM 56.8°F13.8°C 36.2°F2.3°C 46% Calm Calm -- 29.79 in1008.8 mb 0.00 in0.0 mm 0.00 in0.0 mm 0.00 in0.0 mm
06:52 AM 57.0°F13.9°C 35.9°F2.2°C 45% 0.9 mph SSW1.4 kmh SSW 1.1 mph1.8 kmh 29.80 in1009.1 mb 0.00 in0.0 mm 0.00 in0.0 mm 0.00 in0.0 mm
06:53 AM 57.0°F13.9°C 35.3°F1.8°C 44% 0.7 mph SSW1.1 kmh SSW 1.1 mph1.8 kmh 29.79 in1008.8 mb 0.00 in0.0 mm 0.00 in0.0 mm 0.00 in0.0 mm
06:54 AM 57.4°F14.1°C 36.8°F2.7°C 46% Calm Calm -- 29.79 in1008.8 mb 0.00 in0.0 mm 0.00 in0.0 mm 0.00 in0.0 mm
06:55 AM 57.4°F14.1°C 36.2°F2.3°C 45% Calm Calm -- 29.80 in1009.1 mb 0.00 in0.0 mm 0.00 in0.0 mm 0.00 in0.0 mm
06:56 AM 57.4°F14.1°C 36.2°F2.3°C 45% Calm Calm -- 29.80 in1009.1 mb 0.00 in0.0 mm 0.00 in0.0 mm 0.00 in0.0 mm
06:57 AM 57.4°F14.1°C 36.8°F2.7°C 46% Calm Calm -- 29.79 in1008.8 mb 0.00 in0.0 mm 0.00 in0.0 mm 0.00 in0.0 mm
06:58 AM 57.4°F14.1°C 36.2°F2.3°C 45% Calm Calm -- 29.80 in1009.1 mb 0.00 in0.0 mm 0.00 in0.0 mm 0.00 in0.0 mm
06:59 AM 57.4°F14.1°C 35.7°F2.1°C 44% Calm Calm -- 29.79 in1008.8 mb 0.00 in0.0 mm 0.00 in0.0 mm 0.00 in0.0 mm
07:00 AM 57.4°F14.1°C 36.2°F2.3°C 45% Calm Calm -- 29.80 in1009.1 mb 0.00 in0.0 mm 0.00 in0.0 mm 0.00 in0.0 mm
07:01 AM 57.0°F13.9°C 35.9°F2.2°C 45% Calm Calm -- 29.80 in1009.1 mb 0.00 in0.0 mm 0.00 in0.0 mm 0.00 in0.0 mm
07:02 AM 57.0°F13.9°C 35.9°F2.2°C 45% Calm Calm -- 29.80 in1009.1 mb 0.00 in0.0 mm 0.00 in0.0 mm 0.00 in0.0 mm
07:03 AM 57.0°F13.9°C 35.9°F2.2°C 45% 0.9 mph SSW1.4 kmh SSW 1.1 mph1.8 kmh 29.80 in1009.1 mb 0.00 in0.0 mm 0.00 in0.0 mm 0.00 in0.0 mm
07:04 AM 57.2°F14.0°C 36.6°F2.6°C 46% Calm Calm -- 29.79 in1008.8 mb 0.00 in0.0 mm 0.00 in0.0 mm 0.00 in0.0 mm
07:05 AM 57.2°F14.0°C 36.1°F2.3°C 45% Calm Calm -- 29.80 in1009.1 mb 0.00 in0.0 mm 0.00 in0.0 mm 0.00 in0.0 mm
07:06 AM 57.2°F14.0°C 36.1°F2.3°C 45% Calm Calm -- 29.80 in1009.1 mb 0.00 in0.0 mm 0.00 in0.0 mm 0.00 in0.0 mm
07:07 AM 57.2°F14.0°C 36.6°F2.6°C 46% Calm Calm -- 29.80 in1009.1 mb 0.00 in0.0 mm 0.00 in0.0 mm 0.00 in0.0 mm
07:08 AM 57.4°F14.1°C 37.3°F2.9°C 47% Calm Calm -- 29.79 in1008.8 mb 0.00 in0.0 mm 0.00 in0.0 mm 0.00 in0.0 mm
07:09 AM 57.6°F14.2°C 37.0°F2.8°C 46% Calm Calm -- 29.79 in1008.8 mb 0.00 in0.0 mm 0.00 in0.0 mm 0.00 in0.0 mm
07:10 AM 58.3°F14.6°C 37.6°F3.1°C 46% Calm Calm -- 29.79 in1008.8 mb 0.00 in0.0 mm 0.00 in0.0 mm 0.00 in0.0 mm
07:11 AM 58.5°F14.7°C 37.2°F2.9°C 45% Calm Calm -- 29.79 in1008.8 mb 0.00 in0.0 mm 0.00 in0.0 mm 0.00 in0.0 mm
07:12 AM 58.8°F14.9°C 37.5°F3.1°C 45% Calm Calm -- 29.79 in1008.8 mb 0.00 in0.0 mm 0.00 in0.0 mm 0.00 in0.0 mm
07:13 AM 59.2°F15.1°C 37.3°F2.9°C 44% Calm Calm -- 29.79 in1008.8 mb 0.00 in0.0 mm 0.00 in0.0 mm 0.00 in0.0 mm
07:14 AM 59.5°F15.3°C 37.6°F3.1°C 44% Calm Calm -- 29.79 in1008.8 mb 0.00 in0.0 mm 0.00 in0.0 mm 0.00 in0.0 mm
07:15 AM 59.5°F15.3°C 38.1°F3.4°C 45% Calm Calm -- 29.79 in1008.8 mb 0.00 in0.0 mm 0.00 in0.0 mm 0.00 in0.0 mm
07:16 AM 59.5°F15.3°C 38.1°F3.4°C 45% Calm Calm -- 29.80 in1009.1 mb 0.00 in0.0 mm 0.00 in0.0 mm 0.00 in0.0 mm
07:17 AM 59.5°F15.3°C 38.1°F3.4°C 45% Calm Calm -- 29.79 in1008.8 mb 0.00 in0.0 mm 0.00 in0.0 mm 0.00 in0.0 mm
07:18 AM 59.5°F15.3°C 38.1°F3.4°C 45% Calm Calm -- 29.79 in1008.8 mb 0.00 in0.0 mm 0.00 in0.0 mm 0.00 in0.0 mm
07:19 AM 59.5°F15.3°C 38.1°F3.4°C 45% Calm Calm -- 29.80 in1009.1 mb 0.00 in0.0 mm 0.00 in0.0 mm 0.00 in0.0 mm
07:20 AM 59.5°F15.3°C 37.6°F3.1°C 44% Calm Calm -- 29.80 in1009.1 mb 0.00 in0.0 mm 0.00 in0.0 mm 0.00 in0.0 mm
07:21 AM 59.4°F15.2°C 37.5°F3.1°C 44% Calm Calm -- 29.79 in1008.8 mb 0.00 in0.0 mm 0.00 in0.0 mm 0.00 in0.0 mm
07:22 AM 58.8°F14.9°C 37.5°F3.1°C 45% Calm Calm -- 29.79 in1008.8 mb 0.00 in0.0 mm 0.00 in0.0 mm 0.00 in0.0 mm
07:23 AM 58.5°F14.7°C 37.8°F3.2°C 46% 1.3 mph S2.1 kmh S 2.2 mph3.5 kmh 29.79 in1008.8 mb 0.00 in0.0 mm 0.00 in0.0 mm 0.00 in0.0 mm
07:24 AM 58.5°F14.7°C 37.2°F2.9°C 45% Calm Calm -- 29.80 in1009.1 mb 0.00 in0.0 mm 0.00 in0.0 mm 0.00 in0.0 mm
07:25 AM 58.6°F14.8°C 37.3°F2.9°C 45% Calm Calm -- 29.80 in1009.1 mb 0.00 in0.0 mm 0.00 in0.0 mm 0.00 in0.0 mm
07:26 AM 58.6°F14.8°C 37.3°F2.9°C 45% 1.3 mph SSW2.1 kmh SSW 2.2 mph3.5 kmh 29.79 in1008.8 mb 0.00 in0.0 mm 0.00 in0.0 mm 0.00 in0.0 mm
07:27 AM 58.6°F14.8°C 36.8°F2.7°C 44% 0.9 mph SSW1.4 kmh SSW 1.1 mph1.8 kmh 29.80 in1009.1 mb 0.00 in0.0 mm 0.00 in0.0 mm 0.00 in0.0 mm
07:28 AM 58.8°F14.9°C 37.5°F3.1°C 45% Calm Calm -- 29.80 in1009.1 mb 0.00 in0.0 mm 0.00 in0.0 mm 0.00 in0.0 mm
07:29 AM 58.8°F14.9°C 37.5°F3.1°C 45% Calm Calm -- 29.79 in1008.8 mb 0.00 in0.0 mm 0.00 in0.0 mm 0.00 in0.0 mm
07:30 AM 59.0°F15.0°C 37.1°F2.8°C 44% Calm Calm -- 29.80 in1009.1 mb 0.00 in0.0 mm 0.00 in0.0 mm 0.00 in0.0 mm
07:31 AM 59.5°F15.3°C 37.6°F3.1°C 44% Calm Calm -- 29.79 in1008.8 mb 0.00 in0.0 mm 0.00 in0.0 mm 0.00 in0.0 mm
07:32 AM 59.7°F15.4°C 37.2°F2.9°C 43% Calm Calm -- 29.81 in1009.5 mb 0.00 in0.0 mm 0.00 in0.0 mm 0.00 in0.0 mm
07:33 AM 59.9°F15.5°C 37.3°F2.9°C 43% Calm Calm -- 29.80 in1009.1 mb 0.00 in0.0 mm 0.00 in0.0 mm 0.00 in0.0 mm
07:34 AM 60.1°F15.6°C 37.5°F3.1°C 43% Calm Calm -- 29.80 in1009.1 mb 0.00 in0.0 mm 0.00 in0.0 mm 0.00 in0.0 mm
07:35 AM 60.4°F15.8°C 37.2°F2.9°C 42% Calm Calm -- 29.80 in1009.1 mb 0.00 in0.0 mm 0.00 in0.0 mm 0.00 in0.0 mm
07:36 AM 61.0°F16.1°C 37.7°F3.2°C 42% Calm Calm -- 29.79 in1008.8 mb 0.00 in0.0 mm 0.00 in0.0 mm 0.00 in0.0 mm
07:37 AM 61.3°F16.3°C 37.4°F3.0°C 41% Calm Calm -- 29.80 in1009.1 mb 0.00 in0.0 mm 0.00 in0.0 mm 0.00 in0.0 mm
07:38 AM 61.9°F16.6°C 37.9°F3.3°C 41% Calm Calm -- 29.80 in1009.1 mb 0.00 in0.0 mm 0.00 in0.0 mm 0.00 in0.0 mm
07:39 AM 62.1°F16.7°C 38.7°F3.7°C 42% Calm Calm -- 29.80 in1009.1 mb 0.00 in0.0 mm 0.00 in0.0 mm 0.00 in0.0 mm
07:40 AM 61.7°F16.5°C 38.4°F3.6°C 42% Calm Calm -- 29.80 in1009.1 mb 0.00 in0.0 mm 0.00 in0.0 mm 0.00 in0.0 mm
07:41 AM 61.7°F16.5°C 37.8°F3.2°C 41% Calm Calm -- 29.80 in1009.1 mb 0.00 in0.0 mm 0.00 in0.0 mm 0.00 in0.0 mm
07:42 AM 61.9°F16.6°C 36.7°F2.6°C 39% Calm Calm -- 29.80 in1009.1 mb 0.00 in0.0 mm 0.00 in0.0 mm 0.00 in0.0 mm
07:43 AM 62.4°F16.9°C 37.1°F2.8°C 39% Calm Calm -- 29.80 in1009.1 mb 0.00 in0.0 mm 0.00 in0.0 mm 0.00 in0.0 mm
07:44 AM 63.0°F17.2°C 37.0°F2.8°C 38% Calm Calm -- 29.79 in1008.8 mb 0.00 in0.0 mm 0.00 in0.0 mm 0.00 in0.0 mm
07:45 AM 63.1°F17.3°C 38.4°F3.6°C 40% Calm Calm -- 29.80 in1009.1 mb 0.00 in0.0 mm 0.00 in0.0 mm 0.00 in0.0 mm
07:46 AM 63.5°F17.5°C 38.7°F3.7°C 40% Calm Calm -- 29.79 in1008.8 mb 0.00 in0.0 mm 0.00 in0.0 mm 0.00 in0.0 mm
07:47 AM 63.5°F17.5°C 38.1°F3.4°C 39% Calm Calm -- 29.80 in1009.1 mb 0.00 in0.0 mm 0.00 in0.0 mm 0.00 in0.0 mm
07:48 AM 63.5°F17.5°C 37.4°F3.0°C 38% Calm Calm -- 29.79 in1008.8 mb 0.00 in0.0 mm 0.00 in0.0 mm 0.00 in0.0 mm
07:49 AM 63.5°F17.5°C 36.8°F2.7°C 37% Calm Calm -- 29.79 in1008.8 mb 0.00 in0.0 mm 0.00 in0.0 mm 0.00 in0.0 mm
07:50 AM 64.2°F17.9°C 38.1°F3.4°C 38% Calm Calm -- 29.79 in1008.8 mb 0.00 in0.0 mm 0.00 in0.0 mm 0.00 in0.0 mm
07:51 AM 64.4°F18.0°C 38.9°F3.8°C 39% Calm Calm -- 29.79 in1008.8 mb 0.00 in0.0 mm 0.00 in0.0 mm 0.00 in0.0 mm
07:52 AM 64.2°F17.9°C 38.1°F3.4°C 38% Calm Calm -- 29.80 in1009.1 mb 0.00 in0.0 mm 0.00 in0.0 mm 0.00 in0.0 mm
07:53 AM 64.2°F17.9°C 37.4°F3.0°C 37% Calm Calm -- 29.79 in1008.8 mb 0.00 in0.0 mm 0.00 in0.0 mm 0.00 in0.0 mm
07:54 AM 64.8°F18.2°C 37.2°F2.9°C 36% Calm Calm -- 29.80 in1009.1 mb 0.00 in0.0 mm 0.00 in0.0 mm 0.00 in0.0 mm
07:55 AM 65.5°F18.6°C 37.1°F2.8°C 35% Calm Calm -- 29.80 in1009.1 mb 0.00 in0.0 mm 0.00 in0.0 mm 0.00 in0.0 mm
07:56 AM 66.4°F19.1°C 38.6°F3.7°C 36% Calm Calm -- 29.80 in1009.1 mb 0.00 in0.0 mm 0.00 in0.0 mm 0.00 in0.0 mm
07:57 AM 66.6°F19.2°C 38.1°F3.4°C 35% Calm Calm -- 29.80 in1009.1 mb 0.00 in0.0 mm 0.00 in0.0 mm 0.00 in0.0 mm
07:58 AM 66.6°F19.2°C 39.5°F4.2°C 37% Calm Calm -- 29.80 in1009.1 mb 0.00 in0.0 mm 0.00 in0.0 mm 0.00 in0.0 mm
07:59 AM 66.4°F19.1°C 39.3°F4.1°C 37% Calm Calm -- 29.80 in1009.1 mb 0.00 in0.0 mm 0.00 in0.0 mm 0.00 in0.0 mm
08:00 AM 66.4°F19.1°C 37.9°F3.3°C 35% Calm Calm -- 29.79 in1008.8 mb 0.00 in0.0 mm 0.00 in0.0 mm 0.00 in0.0 mm
08:01 AM 66.4°F19.1°C 37.9°F3.3°C 35% Calm Calm -- 29.80 in1009.1 mb 0.00 in0.0 mm 0.00 in0.0 mm 0.00 in0.0 mm
08:02 AM 67.1°F19.5°C 38.5°F3.6°C 35% Calm Calm -- 29.80 in1009.1 mb 0.00 in0.0 mm 0.00 in0.0 mm 0.00 in0.0 mm
08:03 AM 67.3°F19.6°C 39.4°F4.1°C 36% Calm Calm -- 29.80 in1009.1 mb 0.00 in0.0 mm 0.00 in0.0 mm 0.00 in0.0 mm
08:04 AM 67.3°F19.6°C 39.4°F4.1°C 36% Calm Calm -- 29.80 in1009.1 mb 0.00 in0.0 mm 0.00 in0.0 mm 0.00 in0.0 mm
08:05 AM 67.1°F19.5°C 39.2°F4.0°C 36% Calm Calm -- 29.80 in1009.1 mb 0.00 in0.0 mm 0.00 in0.0 mm 0.00 in0.0 mm
08:06 AM 66.6°F19.2°C 38.8°F3.8°C 36% Calm Calm -- 29.80 in1009.1 mb 0.00 in0.0 mm 0.00 in0.0 mm 0.00 in0.0 mm
08:07 AM 66.4°F19.1°C 38.6°F3.7°C 36% Calm Calm -- 29.80 in1009.1 mb 0.00 in0.0 mm 0.00 in0.0 mm 0.00 in0.0 mm
08:08 AM 66.4°F19.1°C 38.6°F3.7°C 36% Calm Calm -- 29.80 in1009.1 mb 0.00 in0.0 mm 0.00 in0.0 mm 0.00 in0.0 mm
08:09 AM 66.4°F19.1°C 38.6°F3.7°C 36% Calm Calm -- 29.80 in1009.1 mb 0.00 in0.0 mm 0.00 in0.0 mm 0.00 in0.0 mm
08:10 AM 66.6°F19.2°C 38.8°F3.8°C 36% Calm Calm -- 29.81 in1009.5 mb 0.00 in0.0 mm 0.00 in0.0 mm 0.00 in0.0 mm
08:11 AM 66.6°F19.2°C 38.8°F3.8°C 36% 0.2 mph SW0.3 kmh SW 1.1 mph1.8 kmh 29.80 in1009.1 mb 0.00 in0.0 mm 0.00 in0.0 mm 0.00 in0.0 mm
08:12 AM 66.6°F19.2°C 38.8°F3.8°C 36% Calm Calm -- 29.80 in1009.1 mb 0.00 in0.0 mm 0.00 in0.0 mm 0.00 in0.0 mm
08:13 AM 66.6°F19.2°C 38.1°F3.4°C 35% 0.4 mph SSW0.6 kmh SSW 1.1 mph1.8 kmh 29.81 in1009.5 mb 0.00 in0.0 mm 0.00 in0.0 mm 0.00 in0.0 mm
08:14 AM 66.6°F19.2°C 38.1°F3.4°C 35% 0.4 mph SSW0.6 kmh SSW 1.1 mph1.8 kmh 29.80 in1009.1 mb 0.00 in0.0 mm 0.00 in0.0 mm 0.00 in0.0 mm
08:15 AM 66.6°F19.2°C 38.1°F3.4°C 35% Calm Calm -- 29.80 in1009.1 mb 0.00 in0.0 mm 0.00 in0.0 mm 0.00 in0.0 mm
08:16 AM 66.6°F19.2°C 38.1°F3.4°C 35% Calm Calm -- 29.80 in1009.1 mb 0.00 in0.0 mm 0.00 in0.0 mm 0.00 in0.0 mm
08:17 AM 66.9°F19.4°C 37.6°F3.1°C 34% 0.9 mph WSW1.4 kmh WSW 2.2 mph3.5 kmh 29.80 in1009.1 mb 0.00 in0.0 mm 0.00 in0.0 mm 0.00 in0.0 mm
08:18 AM 66.9°F19.4°C 38.4°F3.6°C 35% Calm Calm -- 29.81 in1009.5 mb 0.00 in0.0 mm 0.00 in0.0 mm 0.00 in0.0 mm
08:19 AM 67.1°F19.5°C 37.8°F3.2°C 34% Calm Calm -- 29.81 in1009.5 mb 0.00 in0.0 mm 0.00 in0.0 mm 0.00 in0.0 mm
08:20 AM 67.3°F19.6°C 38.7°F3.7°C 35% 0.2 mph SW0.3 kmh SW 1.1 mph1.8 kmh 29.80 in1009.1 mb 0.00 in0.0 mm 0.00 in0.0 mm 0.00 in0.0 mm
08:21 AM 67.3°F19.6°C 38.0°F3.3°C 34% 0.9 mph WSW1.4 kmh WSW 1.1 mph1.8 kmh 29.81 in1009.5 mb 0.00 in0.0 mm 0.00 in0.0 mm 0.00 in0.0 mm
08:22 AM 67.5°F19.7°C 38.1°F3.4°C 34% 1.6 mph WSW2.6 kmh WSW 2.2 mph3.5 kmh 29.80 in1009.1 mb 0.00 in0.0 mm 0.00 in0.0 mm 0.00 in0.0 mm
08:23 AM 67.6°F19.8°C 38.2°F3.4°C 34% Calm Calm -- 29.80 in1009.1 mb 0.00 in0.0 mm 0.00 in0.0 mm 0.00 in0.0 mm
08:24 AM 67.8°F19.9°C 38.4°F3.6°C 34% 0.2 mph S0.3 kmh S 1.1 mph1.8 kmh 29.80 in1009.1 mb 0.00 in0.0 mm 0.00 in0.0 mm 0.00 in0.0 mm
08:25 AM 67.8°F19.9°C 37.6°F3.1°C 33% 0.9 mph ESE1.4 kmh ESE 1.1 mph1.8 kmh 29.80 in1009.1 mb 0.00 in0.0 mm 0.00 in0.0 mm 0.00 in0.0 mm
08:26 AM 68.0°F20.0°C 37.8°F3.2°C 33% 0.2 mph S0.3 kmh S 1.1 mph1.8 kmh 29.80 in1009.1 mb 0.00 in0.0 mm 0.00 in0.0 mm 0.00 in0.0 mm
08:27 AM 68.0°F20.0°C 37.8°F3.2°C 33% 0.7 mph WNW1.1 kmh WNW 2.2 mph3.5 kmh 29.80 in1009.1 mb 0.00 in0.0 mm 0.00 in0.0 mm 0.00 in0.0 mm
08:28 AM 68.0°F20.0°C 37.8°F3.2°C 33% 0.2 mph SW0.3 kmh SW 1.1 mph1.8 kmh 29.81 in1009.5 mb 0.00 in0.0 mm 0.00 in0.0 mm 0.00 in0.0 mm
08:29 AM 68.2°F20.1°C 37.2°F2.9°C 32% 1.3 mph E2.1 kmh E 2.2 mph3.5 kmh 29.80 in1009.1 mb 0.00 in0.0 mm 0.00 in0.0 mm 0.00 in0.0 mm
08:30 AM 68.4°F20.2°C 38.2°F3.4°C 33% 0.7 mph SE1.1 kmh SE 1.1 mph1.8 kmh 29.81 in1009.5 mb 0.00 in0.0 mm 0.00 in0.0 mm 0.00 in0.0 mm
08:31 AM 68.4°F20.2°C 38.9°F3.8°C 34% 3.6 mph NE5.8 kmh NE 4.5 mph7.2 kmh 29.80 in1009.1 mb 0.00 in0.0 mm 0.00 in0.0 mm 0.00 in0.0 mm
08:32 AM 68.2°F20.1°C 38.0°F3.3°C 33% 1.8 mph NE2.9 kmh NE 3.4 mph5.5 kmh 29.81 in1009.5 mb 0.00 in0.0 mm 0.00 in0.0 mm 0.00 in0.0 mm
08:33 AM 68.2°F20.1°C 38.0°F3.3°C 33% 2.0 mph NNW3.2 kmh NNW 2.2 mph3.5 kmh 29.81 in1009.5 mb 0.00 in0.0 mm 0.00 in0.0 mm 0.00 in0.0 mm
08:34 AM 68.2°F20.1°C 38.0°F3.3°C 33% 1.3 mph ENE2.1 kmh ENE 2.2 mph3.5 kmh 29.81 in1009.5 mb 0.00 in0.0 mm 0.00 in0.0 mm 0.00 in0.0 mm
08:35 AM 68.2°F20.1°C 38.0°F3.3°C 33% 1.8 mph NE2.9 kmh NE 2.2 mph3.5 kmh 29.81 in1009.5 mb 0.00 in0.0 mm 0.00 in0.0 mm 0.00 in0.0 mm
08:36 AM 68.0°F20.0°C 37.8°F3.2°C 33% Calm Calm -- 29.80 in1009.1 mb 0.00 in0.0 mm 0.00 in0.0 mm 0.00 in0.0 mm
08:37 AM 68.0°F20.0°C 37.0°F2.8°C 32% 0.2 mph SE0.3 kmh SE 1.1 mph1.8 kmh 29.80 in1009.1 mb 0.00 in0.0 mm 0.00 in0.0 mm 0.00 in0.0 mm
08:38 AM 68.2°F20.1°C 38.0°F3.3°C 33% 0.2 mph NE0.3 kmh NE 2.2 mph3.5 kmh 29.81 in1009.5 mb 0.00 in0.0 mm 0.00 in0.0 mm 0.00 in0.0 mm
08:39 AM 68.4°F20.2°C 38.2°F3.4°C 33% Calm Calm -- 29.81 in1009.5 mb 0.00 in0.0 mm 0.00 in0.0 mm 0.00 in0.0 mm
08:40 AM 68.5°F20.3°C 36.7°F2.6°C 31% 2.2 mph SW3.5 kmh SW 3.4 mph5.5 kmh 29.81 in1009.5 mb 0.00 in0.0 mm 0.00 in0.0 mm 0.00 in0.0 mm
08:41 AM 68.5°F20.3°C 35.0°F1.7°C 29% 3.4 mph WNW5.5 kmh WNW 4.5 mph7.2 kmh 29.81 in1009.5 mb 0.00 in0.0 mm 0.00 in0.0 mm 0.00 in0.0 mm
08:42 AM 69.3°F20.7°C 34.8°F1.6°C 28% 1.6 mph WSW2.6 kmh WSW 2.2 mph3.5 kmh 29.81 in1009.5 mb 0.00 in0.0 mm 0.00 in0.0 mm 0.00 in0.0 mm
08:43 AM 70.2°F21.2°C 34.6°F1.4°C 27% 1.8 mph NW2.9 kmh NW 2.2 mph3.5 kmh 29.80 in1009.1 mb 0.00 in0.0 mm 0.00 in0.0 mm 0.00 in0.0 mm
08:44 AM 70.7°F21.5°C 34.1°F1.2°C 26% 5.6 mph SW9.0 kmh SW 8.1 mph13.0 kmh 29.81 in1009.5 mb 0.00 in0.0 mm 0.00 in0.0 mm 0.00 in0.0 mm
08:45 AM 71.2°F21.8°C 35.5°F1.9°C 27% 1.1 mph WNW1.8 kmh WNW 4.5 mph7.2 kmh 29.81 in1009.5 mb 0.00 in0.0 mm 0.00 in0.0 mm 0.00 in0.0 mm
08:46 AM 71.6°F22.0°C 34.9°F1.6°C 26% 5.1 mph WSW8.2 kmh WSW 10.3 mph16.6 kmh 29.81 in1009.5 mb 0.00 in0.0 mm 0.00 in0.0 mm 0.00 in0.0 mm
08:47 AM 72.0°F22.2°C 35.2°F1.8°C 26% 1.1 mph NW1.8 kmh NW 2.2 mph3.5 kmh 29.81 in1009.5 mb 0.00 in0.0 mm 0.00 in0.0 mm 0.00 in0.0 mm
08:48 AM 72.1°F22.3°C 35.3°F1.8°C 26% 2.7 mph NNW4.3 kmh NNW 4.5 mph7.2 kmh 29.81 in1009.5 mb 0.00 in0.0 mm 0.00 in0.0 mm 0.00 in0.0 mm
08:49 AM 72.3°F22.4°C 35.5°F1.9°C 26% 1.8 mph WSW2.9 kmh WSW 3.4 mph5.5 kmh 29.81 in1009.5 mb 0.00 in0.0 mm 0.00 in0.0 mm 0.00 in0.0 mm
08:50 AM 72.5°F22.5°C 34.7°F1.5°C 25% 5.8 mph NW9.3 kmh NW 8.1 mph13.0 kmh 29.81 in1009.5 mb 0.00 in0.0 mm 0.00 in0.0 mm 0.00 in0.0 mm
08:51 AM 72.5°F22.5°C 35.7°F2.1°C 26% 4.5 mph SW7.2 kmh SW 5.8 mph9.3 kmh 29.81 in1009.5 mb 0.00 in0.0 mm 0.00 in0.0 mm 0.00 in0.0 mm
08:52 AM 72.5°F22.5°C 35.7°F2.1°C 26% 1.8 mph SW2.9 kmh SW 3.4 mph5.5 kmh 29.81 in1009.5 mb 0.00 in0.0 mm 0.00 in0.0 mm 0.00 in0.0 mm
08:53 AM 72.5°F22.5°C 34.7°F1.5°C 25% 5.1 mph WNW8.2 kmh WNW 8.1 mph13.0 kmh 29.81 in1009.5 mb 0.00 in0.0 mm 0.00 in0.0 mm 0.00 in0.0 mm
08:54 AM 72.7°F22.6°C 35.8°F2.1°C 26% 4.0 mph WSW6.4 kmh WSW 8.1 mph13.0 kmh 29.81 in1009.5 mb 0.00 in0.0 mm 0.00 in0.0 mm 0.00 in0.0 mm
08:55 AM 72.7°F22.6°C 35.8°F2.1°C 26% 3.1 mph SW5.0 kmh SW 4.5 mph7.2 kmh 29.81 in1009.5 mb 0.00 in0.0 mm 0.00 in0.0 mm 0.00 in0.0 mm
08:56 AM 72.9°F22.7°C 35.0°F1.7°C 25% 4.5 mph WNW7.2 kmh WNW 8.1 mph13.0 kmh 29.81 in1009.5 mb 0.00 in0.0 mm 0.00 in0.0 mm 0.00 in0.0 mm
08:57 AM 72.9°F22.7°C 36.0°F2.2°C 26% 2.9 mph WNW4.7 kmh WNW 5.8 mph9.3 kmh 29.81 in1009.5 mb 0.00 in0.0 mm 0.00 in0.0 mm 0.00 in0.0 mm
08:58 AM 72.9°F22.7°C 36.0°F2.2°C 26% 4.5 mph NW7.2 kmh NW 6.9 mph11.1 kmh 29.82 in1009.8 mb 0.00 in0.0 mm 0.00 in0.0 mm 0.00 in0.0 mm
08:59 AM 73.0°F22.8°C 35.1°F1.7°C 25% 4.3 mph W6.9 kmh W 8.1 mph13.0 kmh 29.81 in1009.5 mb 0.00 in0.0 mm 0.00 in0.0 mm 0.00 in0.0 mm
09:00 AM 73.0°F22.8°C 35.1°F1.7°C 25% 3.8 mph W6.1 kmh W 6.9 mph11.1 kmh 29.82 in1009.8 mb 0.00 in0.0 mm 0.00 in0.0 mm 0.00 in0.0 mm
09:01 AM 73.0°F22.8°C 36.1°F2.3°C 26% 0.9 mph WSW1.4 kmh WSW 1.1 mph1.8 kmh 29.81 in1009.5 mb 0.00 in0.0 mm 0.00 in0.0 mm 0.00 in0.0 mm
09:02 AM 73.2°F22.9°C 36.2°F2.3°C 26% 0.9 mph SW1.4 kmh SW 1.1 mph1.8 kmh 29.81 in1009.5 mb 0.00 in0.0 mm 0.00 in0.0 mm 0.00 in0.0 mm
09:03 AM 73.4°F23.0°C 35.4°F1.9°C 25% 4.9 mph WSW7.9 kmh WSW 9.2 mph14.8 kmh 29.81 in1009.5 mb 0.00 in0.0 mm 0.00 in0.0 mm 0.00 in0.0 mm
09:04 AM 73.6°F23.1°C 36.6°F2.6°C 26% 1.6 mph WNW2.6 kmh WNW 2.2 mph3.5 kmh 29.81 in1009.5 mb 0.00 in0.0 mm 0.00 in0.0 mm 0.00 in0.0 mm
09:05 AM 73.6°F23.1°C 35.6°F2.0°C 25% 6.5 mph WSW10.5 kmh WSW 8.1 mph13.0 kmh 29.81 in1009.5 mb 0.00 in0.0 mm 0.00 in0.0 mm 0.00 in0.0 mm
09:06 AM 73.6°F23.1°C 35.6°F2.0°C 25% 3.8 mph WSW6.1 kmh WSW 4.5 mph7.2 kmh 29.81 in1009.5 mb 0.00 in0.0 mm 0.00 in0.0 mm 0.00 in0.0 mm
09:07 AM 73.4°F23.0°C 35.4°F1.9°C 25% 6.3 mph SW10.1 kmh SW 10.3 mph16.6 kmh 29.81 in1009.5 mb 0.00 in0.0 mm 0.00 in0.0 mm 0.00 in0.0 mm
09:08 AM 73.4°F23.0°C 35.4°F1.9°C 25% 4.0 mph NW6.4 kmh NW 4.5 mph7.2 kmh 29.81 in1009.5 mb 0.00 in0.0 mm 0.00 in0.0 mm 0.00 in0.0 mm
09:09 AM 73.2°F22.9°C 35.3°F1.8°C 25% 4.0 mph WSW6.4 kmh WSW 5.8 mph9.3 kmh 29.81 in1009.5 mb 0.00 in0.0 mm 0.00 in0.0 mm 0.00 in0.0 mm
09:10 AM 73.2°F22.9°C 35.3°F1.8°C 25% 2.9 mph WSW4.7 kmh WSW 4.5 mph7.2 kmh 29.81 in1009.5 mb 0.00 in0.0 mm 0.00 in0.0 mm 0.00 in0.0 mm
09:11 AM 73.2°F22.9°C 35.3°F1.8°C 25% 3.6 mph WSW5.8 kmh WSW 4.5 mph7.2 kmh 29.81 in1009.5 mb 0.00 in0.0 mm 0.00 in0.0 mm 0.00 in0.0 mm
09:12 AM 73.4°F23.0°C 35.4°F1.9°C 25% 5.4 mph WSW8.7 kmh WSW 6.9 mph11.1 kmh 29.81 in1009.5 mb 0.00 in0.0 mm 0.00 in0.0 mm 0.00 in0.0 mm
09:13 AM 73.6°F23.1°C 35.6°F2.0°C 25% 4.9 mph WSW7.9 kmh WSW 6.9 mph11.1 kmh 29.81 in1009.5 mb 0.00 in0.0 mm 0.00 in0.0 mm 0.00 in0.0 mm
09:14 AM 73.8°F23.2°C 35.8°F2.1°C 25% 2.0 mph WSW3.2 kmh WSW 3.4 mph5.5 kmh 29.81 in1009.5 mb 0.00 in0.0 mm 0.00 in0.0 mm 0.00 in0.0 mm
09:15 AM 73.8°F23.2°C 35.8°F2.1°C 25% 1.8 mph WSW2.9 kmh WSW 2.2 mph3.5 kmh 29.81 in1009.5 mb 0.00 in0.0 mm 0.00 in0.0 mm 0.00 in0.0 mm
09:16 AM 73.8°F23.2°C 35.8°F2.1°C 25% 1.3 mph WSW2.1 kmh WSW 2.2 mph3.5 kmh 29.81 in1009.5 mb 0.00 in0.0 mm 0.00 in0.0 mm 0.00 in0.0 mm
09:17 AM 73.8°F23.2°C 35.8°F2.1°C 25% 2.0 mph WSW3.2 kmh WSW 3.4 mph5.5 kmh 29.81 in1009.5 mb 0.00 in0.0 mm 0.00 in0.0 mm 0.00 in0.0 mm
09:18 AM 73.9°F23.3°C 35.9°F2.2°C 25% 5.8 mph W9.3 kmh W 6.9 mph11.1 kmh 29.81 in1009.5 mb 0.00 in0.0 mm 0.00 in0.0 mm 0.00 in0.0 mm
09:19 AM 74.1°F23.4°C 36.0°F2.2°C 25% 4.3 mph WSW6.9 kmh WSW 5.8 mph9.3 kmh 29.81 in1009.5 mb 0.00 in0.0 mm 0.00 in0.0 mm 0.00 in0.0 mm
09:20 AM 74.1°F23.4°C 36.0°F2.2°C 25% 4.3 mph WSW6.9 kmh WSW 6.9 mph11.1 kmh 29.81 in1009.5 mb 0.00 in0.0 mm 0.00 in0.0 mm 0.00 in0.0 mm
09:21 AM 74.1°F23.4°C 36.0°F2.2°C 25% 3.4 mph WSW5.5 kmh WSW 4.5 mph7.2 kmh 29.81 in1009.5 mb 0.00 in0.0 mm 0.00 in0.0 mm 0.00 in0.0 mm
09:22 AM 74.1°F23.4°C 36.0°F2.2°C 25% 1.3 mph SW2.1 kmh SW 2.2 mph3.5 kmh 29.81 in1009.5 mb 0.00 in0.0 mm 0.00 in0.0 mm 0.00 in0.0 mm
09:23 AM 74.1°F23.4°C 36.0°F2.2°C 25% 2.5 mph SW4.0 kmh SW 4.5 mph7.2 kmh 29.81 in1009.5 mb 0.00 in0.0 mm 0.00 in0.0 mm 0.00 in0.0 mm
09:24 AM 74.1°F23.4°C 36.0°F2.2°C 25% 0.2 mph SW0.3 kmh SW 1.1 mph1.8 kmh 29.81 in1009.5 mb 0.00 in0.0 mm 0.00 in0.0 mm 0.00 in0.0 mm
09:25 AM 74.3°F23.5°C 36.2°F2.3°C 25% 5.8 mph SW9.3 kmh SW 10.3 mph16.6 kmh 29.81 in1009.5 mb 0.00 in0.0 mm 0.00 in0.0 mm 0.00 in0.0 mm
09:26 AM 74.5°F23.6°C 36.4°F2.4°C 25% 7.2 mph SW11.6 kmh SW 10.3 mph16.6 kmh 29.81 in1009.5 mb 0.00 in0.0 mm 0.00 in0.0 mm 0.00 in0.0 mm
09:27 AM 74.3°F23.5°C 36.2°F2.3°C 25% 2.9 mph SW4.7 kmh SW 5.8 mph9.3 kmh 29.81 in1009.5 mb 0.00 in0.0 mm 0.00 in0.0 mm 0.00 in0.0 mm
09:28 AM 73.9°F23.3°C 35.9°F2.2°C 25% 6.0 mph SW9.7 kmh SW 9.2 mph14.8 kmh 29.81 in1009.5 mb 0.00 in0.0 mm 0.00 in0.0 mm 0.00 in0.0 mm
09:29 AM 73.9°F23.3°C 35.9°F2.2°C 25% 4.0 mph WSW6.4 kmh WSW 5.8 mph9.3 kmh 29.81 in1009.5 mb 0.00 in0.0 mm 0.00 in0.0 mm 0.00 in0.0 mm
09:30 AM 73.9°F23.3°C 35.9°F2.2°C 25% 4.9 mph W7.9 kmh W 6.9 mph11.1 kmh 29.81 in1009.5 mb 0.00 in0.0 mm 0.00 in0.0 mm 0.00 in0.0 mm
09:31 AM 73.9°F23.3°C 35.9°F2.2°C 25% 4.9 mph W7.9 kmh W 8.1 mph13.0 kmh 29.81 in1009.5 mb 0.00 in0.0 mm 0.00 in0.0 mm 0.00 in0.0 mm
09:32 AM 74.1°F23.4°C 36.0°F2.2°C 25% 3.6 mph SW5.8 kmh SW 5.8 mph9.3 kmh 29.81 in1009.5 mb 0.00 in0.0 mm 0.00 in0.0 mm 0.00 in0.0 mm
09:33 AM 74.1°F23.4°C 36.0°F2.2°C 25% 5.4 mph NW8.7 kmh NW 6.9 mph11.1 kmh 29.81 in1009.5 mb 0.00 in0.0 mm 0.00 in0.0 mm 0.00 in0.0 mm
09:34 AM 74.1°F23.4°C 36.0°F2.2°C 25% 4.0 mph WSW6.4 kmh WSW 4.5 mph7.2 kmh 29.81 in1009.5 mb 0.00 in0.0 mm 0.00 in0.0 mm 0.00 in0.0 mm
09:35 AM 74.1°F23.4°C 36.0°F2.2°C 25% 5.4 mph W8.7 kmh W 8.1 mph13.0 kmh 29.80 in1009.1 mb 0.00 in0.0 mm 0.00 in0.0 mm 0.00 in0.0 mm
09:36 AM 74.1°F23.4°C 36.0°F2.2°C 25% 2.9 mph WNW4.7 kmh WNW 4.5 mph7.2 kmh 29.81 in1009.5 mb 0.00 in0.0 mm 0.00 in0.0 mm 0.00 in0.0 mm
09:37 AM 74.3°F23.5°C 36.2°F2.3°C 25% 5.8 mph WNW9.3 kmh WNW 9.2 mph14.8 kmh 29.81 in1009.5 mb 0.00 in0.0 mm 0.00 in0.0 mm 0.00 in0.0 mm
09:38 AM 74.3°F23.5°C 36.2°F2.3°C 25% 1.8 mph SW2.9 kmh SW 2.2 mph3.5 kmh 29.81 in1009.5 mb 0.00 in0.0 mm 0.00 in0.0 mm 0.00 in0.0 mm
09:39 AM 74.3°F23.5°C 36.2°F2.3°C 25% 5.4 mph W8.7 kmh W 6.9 mph11.1 kmh 29.81 in1009.5 mb 0.00 in0.0 mm 0.00 in0.0 mm 0.00 in0.0 mm
09:40 AM 74.5°F23.6°C 36.4°F2.4°C 25% 5.8 mph W9.3 kmh W 8.1 mph13.0 kmh 29.81 in1009.5 mb 0.00 in0.0 mm 0.00 in0.0 mm 0.00 in0.0 mm
09:41 AM 74.5°F23.6°C 36.4°F2.4°C 25% 5.8 mph SW9.3 kmh SW 9.2 mph14.8 kmh 29.81 in1009.5 mb 0.00 in0.0 mm 0.00 in0.0 mm 0.00 in0.0 mm
09:42 AM 74.5°F23.6°C 36.4°F2.4°C 25% 4.9 mph W7.9 kmh W 6.9 mph11.1 kmh 29.81 in1009.5 mb 0.00 in0.0 mm 0.00 in0.0 mm 0.00 in0.0 mm
09:43 AM 74.7°F23.7°C 36.5°F2.5°C 25% 4.3 mph WNW6.9 kmh WNW 6.9 mph11.1 kmh 29.81 in1009.5 mb 0.00 in0.0 mm 0.00 in0.0 mm 0.00 in0.0 mm
09:44 AM 74.7°F23.7°C 36.5°F2.5°C 25% 8.9 mph NW14.3 kmh NW 17.2 mph27.7 kmh 29.81 in1009.5 mb 0.00 in0.0 mm 0.00 in0.0 mm 0.00 in0.0 mm
09:45 AM 74.7°F23.7°C 36.5°F2.5°C 25% 4.9 mph WNW7.9 kmh WNW 8.1 mph13.0 kmh 29.80 in1009.1 mb 0.00 in0.0 mm 0.00 in0.0 mm 0.00 in0.0 mm
09:46 AM 74.7°F23.7°C 36.5°F2.5°C 25% 3.1 mph NW5.0 kmh NW 6.9 mph11.1 kmh 29.80 in1009.1 mb 0.00 in0.0 mm 0.00 in0.0 mm 0.00 in0.0 mm
09:47 AM 74.7°F23.7°C 36.5°F2.5°C 25% 3.4 mph SW5.5 kmh SW 5.8 mph9.3 kmh 29.81 in1009.5 mb 0.00 in0.0 mm 0.00 in0.0 mm 0.00 in0.0 mm
09:48 AM 74.8°F23.8°C 36.6°F2.6°C 25% 2.5 mph WSW4.0 kmh WSW 3.4 mph5.5 kmh 29.81 in1009.5 mb 0.00 in0.0 mm 0.00 in0.0 mm 0.00 in0.0 mm
09:49 AM 74.8°F23.8°C 36.6°F2.6°C 25% 3.4 mph WSW5.5 kmh WSW 5.8 mph9.3 kmh 29.80 in1009.1 mb 0.00 in0.0 mm 0.00 in0.0 mm 0.00 in0.0 mm
09:50 AM 75.0°F23.9°C 36.8°F2.7°C 25% 7.4 mph W11.9 kmh W 9.2 mph14.8 kmh 29.80 in1009.1 mb 0.00 in0.0 mm 0.00 in0.0 mm 0.00 in0.0 mm
09:51 AM 75.0°F23.9°C 36.8°F2.7°C 25% 4.3 mph NW6.9 kmh NW 5.8 mph9.3 kmh 29.81 in1009.5 mb 0.00 in0.0 mm 0.00 in0.0 mm 0.00 in0.0 mm
09:52 AM 75.0°F23.9°C 36.8°F2.7°C 25% 5.8 mph W9.3 kmh W 9.2 mph14.8 kmh 29.80 in1009.1 mb 0.00 in0.0 mm 0.00 in0.0 mm 0.00 in0.0 mm
09:53 AM 74.8°F23.8°C 36.6°F2.6°C 25% 8.1 mph NW13.0 kmh NW 11.4 mph18.3 kmh 29.80 in1009.1 mb 0.00 in0.0 mm 0.00 in0.0 mm 0.00 in0.0 mm
09:54 AM 74.8°F23.8°C 36.6°F2.6°C 25% 6.3 mph W10.1 kmh W 8.1 mph13.0 kmh 29.80 in1009.1 mb 0.00 in0.0 mm 0.00 in0.0 mm 0.00 in0.0 mm
09:55 AM 74.7°F23.7°C 36.5°F2.5°C 25% 6.5 mph WSW10.5 kmh WSW 10.3 mph16.6 kmh 29.81 in1009.5 mb 0.00 in0.0 mm 0.00 in0.0 mm 0.00 in0.0 mm
09:56 AM 74.7°F23.7°C 36.5°F2.5°C 25% 5.6 mph W9.0 kmh W 10.3 mph16.6 kmh 29.80 in1009.1 mb 0.00 in0.0 mm 0.00 in0.0 mm 0.00 in0.0 mm
09:57 AM 74.8°F23.8°C 36.6°F2.6°C 25% 4.5 mph W7.2 kmh W 6.9 mph11.1 kmh 29.81 in1009.5 mb 0.00 in0.0 mm 0.00 in0.0 mm 0.00 in0.0 mm
09:58 AM 75.0°F23.9°C 36.8°F2.7°C 25% 5.1 mph N8.2 kmh N 8.1 mph13.0 kmh 29.81 in1009.5 mb 0.00 in0.0 mm 0.00 in0.0 mm 0.00 in0.0 mm
09:59 AM 75.2°F24.0°C 36.9°F2.7°C 25% 6.3 mph WNW10.1 kmh WNW 9.2 mph14.8 kmh 29.81 in1009.5 mb 0.00 in0.0 mm 0.00 in0.0 mm 0.00 in0.0 mm
10:00 AM 75.2°F24.0°C 35.9°F2.2°C 24% 6.7 mph W10.8 kmh W 9.2 mph14.8 kmh 29.81 in1009.5 mb 0.00 in0.0 mm 0.00 in0.0 mm 0.00 in0.0 mm
10:01 AM 75.2°F24.0°C 35.9°F2.2°C 24% 4.7 mph WNW7.6 kmh WNW 6.9 mph11.1 kmh 29.81 in1009.5 mb 0.00 in0.0 mm 0.00 in0.0 mm 0.00 in0.0 mm
10:02 AM 75.2°F24.0°C 35.9°F2.2°C 24% 5.4 mph NW8.7 kmh NW 9.2 mph14.8 kmh 29.81 in1009.5 mb 0.00 in0.0 mm 0.00 in0.0 mm 0.00 in0.0 mm
10:03 AM 75.2°F24.0°C 36.9°F2.7°C 25% 3.8 mph W6.1 kmh W 5.8 mph9.3 kmh 29.80 in1009.1 mb 0.00 in0.0 mm 0.00 in0.0 mm 0.00 in0.0 mm
10:04 AM 75.2°F24.0°C 35.9°F2.2°C 24% 4.0 mph W6.4 kmh W 5.8 mph9.3 kmh 29.81 in1009.5 mb 0.00 in0.0 mm 0.00 in0.0 mm 0.00 in0.0 mm
10:05 AM 75.2°F24.0°C 35.9°F2.2°C 24% 3.1 mph WSW5.0 kmh WSW 4.5 mph7.2 kmh 29.80 in1009.1 mb 0.00 in0.0 mm 0.00 in0.0 mm 0.00 in0.0 mm
10:06 AM 75.4°F24.1°C 36.1°F2.3°C 24% 2.9 mph NW4.7 kmh NW 3.4 mph5.5 kmh 29.80 in1009.1 mb 0.00 in0.0 mm 0.00 in0.0 mm 0.00 in0.0 mm
10:07 AM 75.7°F24.3°C 36.3°F2.4°C 24% 3.4 mph SW5.5 kmh SW 4.5 mph7.2 kmh 29.81 in1009.5 mb 0.00 in0.0 mm 0.00 in0.0 mm 0.00 in0.0 mm
10:08 AM 76.1°F24.5°C 36.7°F2.6°C 24% 5.8 mph W9.3 kmh W 10.3 mph16.6 kmh 29.80 in1009.1 mb 0.00 in0.0 mm 0.00 in0.0 mm 0.00 in0.0 mm
10:09 AM 76.3°F24.6°C 36.8°F2.7°C 24% 2.0 mph W3.2 kmh W 2.2 mph3.5 kmh 29.81 in1009.5 mb 0.00 in0.0 mm 0.00 in0.0 mm 0.00 in0.0 mm
10:10 AM 76.3°F24.6°C 36.8°F2.7°C 24% 4.0 mph WSW6.4 kmh WSW 5.8 mph9.3 kmh 29.80 in1009.1 mb 0.00 in0.0 mm 0.00 in0.0 mm 0.00 in0.0 mm
10:11 AM 76.3°F24.6°C 36.8°F2.7°C 24% 2.7 mph WSW4.3 kmh WSW 4.5 mph7.2 kmh 29.80 in1009.1 mb 0.00 in0.0 mm 0.00 in0.0 mm 0.00 in0.0 mm
10:12 AM 76.3°F24.6°C 36.8°F2.7°C 24% 8.5 mph WNW13.7 kmh WNW 11.4 mph18.3 kmh 29.80 in1009.1 mb 0.00 in0.0 mm 0.00 in0.0 mm 0.00 in0.0 mm
10:13 AM 76.3°F24.6°C 36.8°F2.7°C 24% 5.6 mph SW9.0 kmh SW 8.1 mph13.0 kmh 29.81 in1009.5 mb 0.00 in0.0 mm 0.00 in0.0 mm 0.00 in0.0 mm
10:14 AM 75.9°F24.4°C 36.5°F2.5°C 24% 5.4 mph WNW8.7 kmh WNW 6.9 mph11.1 kmh 29.81 in1009.5 mb 0.00 in0.0 mm 0.00 in0.0 mm 0.00 in0.0 mm
10:15 AM 75.7°F24.3°C 36.3°F2.4°C 24% 3.6 mph NW5.8 kmh NW 5.8 mph9.3 kmh 29.80 in1009.1 mb 0.00 in0.0 mm 0.00 in0.0 mm 0.00 in0.0 mm
10:16 AM 75.7°F24.3°C 36.3°F2.4°C 24% 7.4 mph W11.9 kmh W 10.3 mph16.6 kmh 29.81 in1009.5 mb 0.00 in0.0 mm 0.00 in0.0 mm 0.00 in0.0 mm
10:17 AM 75.6°F24.2°C 36.3°F2.4°C 24% 3.4 mph WSW5.5 kmh WSW 6.9 mph11.1 kmh 29.81 in1009.5 mb 0.00 in0.0 mm 0.00 in0.0 mm 0.00 in0.0 mm
10:18 AM 75.7°F24.3°C 37.4°F3.0°C 25% 2.2 mph WNW3.5 kmh WNW 3.4 mph5.5 kmh 29.80 in1009.1 mb 0.00 in0.0 mm 0.00 in0.0 mm 0.00 in0.0 mm
10:19 AM 75.7°F24.3°C 36.3°F2.4°C 24% 4.9 mph W7.9 kmh W 8.1 mph13.0 kmh 29.81 in1009.5 mb 0.00 in0.0 mm 0.00 in0.0 mm 0.00 in0.0 mm
10:20 AM 75.9°F24.4°C 36.5°F2.5°C 24% 6.0 mph NNW9.7 kmh NNW 11.4 mph18.3 kmh 29.81 in1009.5 mb 0.00 in0.0 mm 0.00 in0.0 mm 0.00 in0.0 mm
10:21 AM 76.1°F24.5°C 36.7°F2.6°C 24% 4.0 mph WSW6.4 kmh WSW 5.8 mph9.3 kmh 29.81 in1009.5 mb 0.00 in0.0 mm 0.00 in0.0 mm 0.00 in0.0 mm
10:22 AM 76.1°F24.5°C 36.7°F2.6°C 24% 4.7 mph WNW7.6 kmh WNW 6.9 mph11.1 kmh 29.80 in1009.1 mb 0.00 in0.0 mm 0.00 in0.0 mm 0.00 in0.0 mm
10:23 AM 76.5°F24.7°C 37.0°F2.8°C 24% 6.0 mph NW9.7 kmh NW 6.9 mph11.1 kmh 29.80 in1009.1 mb 0.00 in0.0 mm 0.00 in0.0 mm 0.00 in0.0 mm
10:24 AM 76.5°F24.7°C 38.0°F3.3°C 25% 5.4 mph W8.7 kmh W 8.1 mph13.0 kmh 29.80 in1009.1 mb 0.00 in0.0 mm 0.00 in0.0 mm 0.00 in0.0 mm
10:25 AM 76.1°F24.5°C 37.7°F3.2°C 25% 3.6 mph WSW5.8 kmh WSW 4.5 mph7.2 kmh 29.80 in1009.1 mb 0.00 in0.0 mm 0.00 in0.0 mm 0.00 in0.0 mm
10:26 AM 76.1°F24.5°C 37.7°F3.2°C 25% 4.3 mph W6.9 kmh W 6.9 mph11.1 kmh 29.80 in1009.1 mb 0.00 in0.0 mm 0.00 in0.0 mm 0.00 in0.0 mm
10:27 AM 76.1°F24.5°C 37.7°F3.2°C 25% 3.6 mph WSW5.8 kmh WSW 4.5 mph7.2 kmh 29.80 in1009.1 mb 0.00 in0.0 mm 0.00 in0.0 mm 0.00 in0.0 mm
10:28 AM 76.5°F24.7°C 37.0°F2.8°C 24% 2.9 mph WSW4.7 kmh WSW 4.5 mph7.2 kmh 29.80 in1009.1 mb 0.00 in0.0 mm 0.00 in0.0 mm 0.00 in0.0 mm
10:29 AM 76.8°F24.9°C 37.3°F2.9°C 24% 2.5 mph WSW4.0 kmh WSW 3.4 mph5.5 kmh 29.80 in1009.1 mb 0.00 in0.0 mm 0.00 in0.0 mm 0.00 in0.0 mm
10:30 AM 77.0°F25.0°C 37.4°F3.0°C 24% 4.0 mph WNW6.4 kmh WNW 5.8 mph9.3 kmh 29.81 in1009.5 mb 0.00 in0.0 mm 0.00 in0.0 mm 0.00 in0.0 mm
10:31 AM 77.0°F25.0°C 37.4°F3.0°C 24% 2.5 mph N4.0 kmh N 3.4 mph5.5 kmh 29.81 in1009.5 mb 0.00 in0.0 mm 0.00 in0.0 mm 0.00 in0.0 mm
10:32 AM 77.0°F25.0°C 37.4°F3.0°C 24% 3.4 mph WSW5.5 kmh WSW 4.5 mph7.2 kmh 29.80 in1009.1 mb 0.00 in0.0 mm 0.00 in0.0 mm 0.00 in0.0 mm
10:33 AM 77.0°F25.0°C 36.4°F2.4°C 23% 1.8 mph WSW2.9 kmh WSW 2.2 mph3.5 kmh 29.80 in1009.1 mb 0.00 in0.0 mm 0.00 in0.0 mm 0.00 in0.0 mm
10:34 AM 77.5°F25.3°C 36.8°F2.7°C 23% 1.8 mph WSW2.9 kmh WSW 2.2 mph3.5 kmh 29.81 in1009.5 mb 0.00 in0.0 mm 0.00 in0.0 mm 0.00 in0.0 mm
10:35 AM 77.7°F25.4°C 36.9°F2.7°C 23% 5.8 mph WNW9.3 kmh WNW 8.1 mph13.0 kmh 29.80 in1009.1 mb 0.00 in0.0 mm 0.00 in0.0 mm 0.00 in0.0 mm
10:36 AM 77.7°F25.4°C 38.0°F3.3°C 24% 6.3 mph WSW10.1 kmh WSW 11.4 mph18.3 kmh 29.80 in1009.1 mb 0.00 in0.0 mm 0.00 in0.0 mm 0.00 in0.0 mm
10:37 AM 77.7°F25.4°C 38.0°F3.3°C 24% 2.5 mph W4.0 kmh W 4.5 mph7.2 kmh 29.80 in1009.1 mb 0.00 in0.0 mm 0.00 in0.0 mm 0.00 in0.0 mm
10:38 AM 77.5°F25.3°C 36.8°F2.7°C 23% 2.5 mph WSW4.0 kmh WSW 4.5 mph7.2 kmh 29.80 in1009.1 mb 0.00 in0.0 mm 0.00 in0.0 mm 0.00 in0.0 mm
10:39 AM 77.5°F25.3°C 36.8°F2.7°C 23% 1.8 mph WSW2.9 kmh WSW 2.2 mph3.5 kmh 29.80 in1009.1 mb 0.00 in0.0 mm 0.00 in0.0 mm 0.00 in0.0 mm
10:40 AM 77.9°F25.5°C 37.1°F2.8°C 23% 2.0 mph W3.2 kmh W 3.4 mph5.5 kmh 29.80 in1009.1 mb 0.00 in0.0 mm 0.00 in0.0 mm 0.00 in0.0 mm
10:41 AM 78.3°F25.7°C 37.4°F3.0°C 23% 2.9 mph N4.7 kmh N 4.5 mph7.2 kmh 29.80 in1009.1 mb 0.00 in0.0 mm 0.00 in0.0 mm 0.00 in0.0 mm
10:42 AM 78.3°F25.7°C 37.4°F3.0°C 23% 6.5 mph WNW10.5 kmh WNW 9.2 mph14.8 kmh 29.80 in1009.1 mb 0.00 in0.0 mm 0.00 in0.0 mm 0.00 in0.0 mm
10:43 AM 78.3°F25.7°C 38.5°F3.6°C 24% 4.0 mph WSW6.4 kmh WSW 5.8 mph9.3 kmh 29.79 in1008.8 mb 0.00 in0.0 mm 0.00 in0.0 mm 0.00 in0.0 mm
10:44 AM 77.9°F25.5°C 37.1°F2.8°C 23% 4.7 mph N7.6 kmh N 6.9 mph11.1 kmh 29.80 in1009.1 mb 0.00 in0.0 mm 0.00 in0.0 mm 0.00 in0.0 mm
10:45 AM 77.9°F25.5°C 36.0°F2.2°C 22% 2.2 mph NW3.5 kmh NW 3.4 mph5.5 kmh 29.79 in1008.8 mb 0.00 in0.0 mm 0.00 in0.0 mm 0.00 in0.0 mm
10:46 AM 78.1°F25.6°C 36.1°F2.3°C 22% 2.5 mph SW4.0 kmh SW 4.5 mph7.2 kmh 29.79 in1008.8 mb 0.00 in0.0 mm 0.00 in0.0 mm 0.00 in0.0 mm
10:47 AM 78.4°F25.8°C 37.5°F3.1°C 23% 2.7 mph WSW4.3 kmh WSW 4.5 mph7.2 kmh 29.80 in1009.1 mb 0.00 in0.0 mm 0.00 in0.0 mm 0.00 in0.0 mm
10:48 AM 78.4°F25.8°C 37.5°F3.1°C 23% 5.4 mph NW8.7 kmh NW 8.1 mph13.0 kmh 29.79 in1008.8 mb 0.00 in0.0 mm 0.00 in0.0 mm 0.00 in0.0 mm
10:49 AM 78.4°F25.8°C 38.6°F3.7°C 24% 4.7 mph NW7.6 kmh NW 6.9 mph11.1 kmh 29.79 in1008.8 mb 0.00 in0.0 mm 0.00 in0.0 mm 0.00 in0.0 mm
10:50 AM 77.7°F25.4°C 38.0°F3.3°C 24% 7.4 mph WSW11.9 kmh WSW 9.2 mph14.8 kmh 29.79 in1008.8 mb 0.00 in0.0 mm 0.00 in0.0 mm 0.00 in0.0 mm
10:51 AM 77.5°F25.3°C 37.8°F3.2°C 24% 2.9 mph WSW4.7 kmh WSW 3.4 mph5.5 kmh 29.79 in1008.8 mb 0.00 in0.0 mm 0.00 in0.0 mm 0.00 in0.0 mm
10:52 AM 77.2°F25.1°C 36.5°F2.5°C 23% 9.4 mph WNW15.1 kmh WNW 11.4 mph18.3 kmh 29.79 in1008.8 mb 0.00 in0.0 mm 0.00 in0.0 mm 0.00 in0.0 mm
10:53 AM 77.4°F25.2°C 36.7°F2.6°C 23% 3.4 mph WSW5.5 kmh WSW 5.8 mph9.3 kmh 29.79 in1008.8 mb 0.00 in0.0 mm 0.00 in0.0 mm 0.00 in0.0 mm
10:54 AM 77.7°F25.4°C 35.8°F2.1°C 22% 2.7 mph WNW4.3 kmh WNW 6.9 mph11.1 kmh 29.79 in1008.8 mb 0.00 in0.0 mm 0.00 in0.0 mm 0.00 in0.0 mm
10:55 AM 78.1°F25.6°C 37.3°F2.9°C 23% 2.2 mph W3.5 kmh W 4.5 mph7.2 kmh 29.79 in1008.8 mb 0.00 in0.0 mm 0.00 in0.0 mm 0.00 in0.0 mm
10:56 AM 78.1°F25.6°C 37.3°F2.9°C 23% 3.8 mph W6.1 kmh W 4.5 mph7.2 kmh 29.79 in1008.8 mb 0.00 in0.0 mm 0.00 in0.0 mm 0.00 in0.0 mm
10:57 AM 78.1°F25.6°C 37.3°F2.9°C 23% 1.8 mph WSW2.9 kmh WSW 3.4 mph5.5 kmh 29.79 in1008.8 mb 0.00 in0.0 mm 0.00 in0.0 mm 0.00 in0.0 mm
10:58 AM 78.1°F25.6°C 37.3°F2.9°C 23% 2.2 mph NW3.5 kmh NW 5.8 mph9.3 kmh 29.79 in1008.8 mb 0.00 in0.0 mm 0.00 in0.0 mm 0.00 in0.0 mm
10:59 AM 78.1°F25.6°C 37.3°F2.9°C 23% 3.4 mph SE5.5 kmh SE 6.9 mph11.1 kmh 29.80 in1009.1 mb 0.00 in0.0 mm 0.00 in0.0 mm 0.00 in0.0 mm
11:00 AM 78.4°F25.8°C 37.5°F3.1°C 23% 6.0 mph WNW9.7 kmh WNW 8.1 mph13.0 kmh 29.79 in1008.8 mb 0.00 in0.0 mm 0.00 in0.0 mm 0.00 in0.0 mm
11:01 AM 78.4°F25.8°C 37.5°F3.1°C 23% 0.9 mph WSW1.4 kmh WSW 1.1 mph1.8 kmh 29.79 in1008.8 mb 0.00 in0.0 mm 0.00 in0.0 mm 0.00 in0.0 mm
11:02 AM 78.3°F25.7°C 37.4°F3.0°C 23% 3.6 mph SW5.8 kmh SW 5.8 mph9.3 kmh 29.79 in1008.8 mb 0.00 in0.0 mm 0.00 in0.0 mm 0.00 in0.0 mm
11:03 AM 78.3°F25.7°C 36.3°F2.4°C 22% 2.5 mph NW4.0 kmh NW 3.4 mph5.5 kmh 29.79 in1008.8 mb 0.00 in0.0 mm 0.00 in0.0 mm 0.00 in0.0 mm
11:04 AM 78.6°F25.9°C 36.6°F2.6°C 22% 3.1 mph SW5.0 kmh SW 4.5 mph7.2 kmh 29.80 in1009.1 mb 0.00 in0.0 mm 0.00 in0.0 mm 0.00 in0.0 mm
11:05 AM 78.8°F26.0°C 36.7°F2.6°C 22% 3.8 mph NE6.1 kmh NE 5.8 mph9.3 kmh 29.79 in1008.8 mb 0.00 in0.0 mm 0.00 in0.0 mm 0.00 in0.0 mm
11:06 AM 78.8°F26.0°C 37.9°F3.3°C 23% 3.4 mph W5.5 kmh W 5.8 mph9.3 kmh 29.80 in1009.1 mb 0.00 in0.0 mm 0.00 in0.0 mm 0.00 in0.0 mm
11:07 AM 78.8°F26.0°C 36.7°F2.6°C 22% 3.4 mph WSW5.5 kmh WSW 5.8 mph9.3 kmh 29.80 in1009.1 mb 0.00 in0.0 mm 0.00 in0.0 mm 0.00 in0.0 mm
11:09 AM 79.2°F26.2°C 37.1°F2.8°C 22% 6.3 mph NW10.1 kmh NW 9.2 mph14.8 kmh 29.79 in1008.8 mb 0.00 in0.0 mm 0.00 in0.0 mm 0.00 in0.0 mm
11:10 AM 79.2°F26.2°C 38.2°F3.4°C 23% 1.8 mph WSW2.9 kmh WSW 2.2 mph3.5 kmh 29.80 in1009.1 mb 0.00 in0.0 mm 0.00 in0.0 mm 0.00 in0.0 mm
11:11 AM 79.2°F26.2°C 37.1°F2.8°C 22% 2.2 mph W3.5 kmh W 3.4 mph5.5 kmh 29.79 in1008.8 mb 0.00 in0.0 mm 0.00 in0.0 mm 0.00 in0.0 mm
11:12 AM 79.5°F26.4°C 37.3°F2.9°C 22% 3.4 mph W5.5 kmh W 4.5 mph7.2 kmh 29.79 in1008.8 mb 0.00 in0.0 mm 0.00 in0.0 mm 0.00 in0.0 mm
11:13 AM 79.5°F26.4°C 37.3°F2.9°C 22% 2.5 mph WSW4.0 kmh WSW 3.4 mph5.5 kmh 29.79 in1008.8 mb 0.00 in0.0 mm 0.00 in0.0 mm 0.00 in0.0 mm
11:14 AM 79.9°F26.6°C 37.6°F3.1°C 22% 3.4 mph WSW5.5 kmh WSW 4.5 mph7.2 kmh 29.79 in1008.8 mb 0.00 in0.0 mm 0.00 in0.0 mm 0.00 in0.0 mm
11:15 AM 79.9°F26.6°C 37.6°F3.1°C 22% 2.7 mph WSW4.3 kmh WSW 3.4 mph5.5 kmh 29.79 in1008.8 mb 0.00 in0.0 mm 0.00 in0.0 mm 0.00 in0.0 mm
11:16 AM 79.7°F26.5°C 37.5°F3.1°C 22% 3.6 mph E5.8 kmh E 5.8 mph9.3 kmh 29.78 in1008.5 mb 0.00 in0.0 mm 0.00 in0.0 mm 0.00 in0.0 mm
11:17 AM 79.5°F26.4°C 37.3°F2.9°C 22% 9.8 mph NNE15.8 kmh NNE 15.9 mph25.6 kmh 29.78 in1008.5 mb 0.00 in0.0 mm 0.00 in0.0 mm 0.00 in0.0 mm
11:18 AM 79.5°F26.4°C 37.3°F2.9°C 22% 5.4 mph NW8.7 kmh NW 8.1 mph13.0 kmh 29.78 in1008.5 mb 0.00 in0.0 mm 0.00 in0.0 mm 0.00 in0.0 mm
11:19 AM 79.3°F26.3°C 37.1°F2.8°C 22% 5.4 mph N8.7 kmh N 10.3 mph16.6 kmh 29.78 in1008.5 mb 0.00 in0.0 mm 0.00 in0.0 mm 0.00 in0.0 mm
11:20 AM 79.2°F26.2°C 37.1°F2.8°C 22% 4.5 mph W7.2 kmh W 5.8 mph9.3 kmh 29.79 in1008.8 mb 0.00 in0.0 mm 0.00 in0.0 mm 0.00 in0.0 mm
11:21 AM 79.0°F26.1°C 36.9°F2.7°C 22% 4.3 mph SW6.9 kmh SW 8.1 mph13.0 kmh 29.78 in1008.5 mb 0.00 in0.0 mm 0.00 in0.0 mm 0.00 in0.0 mm
11:22 AM 78.8°F26.0°C 36.7°F2.6°C 22% 5.8 mph WSW9.3 kmh WSW 9.2 mph14.8 kmh 29.79 in1008.8 mb 0.00 in0.0 mm 0.00 in0.0 mm 0.00 in0.0 mm
11:23 AM 78.8°F26.0°C 36.7°F2.6°C 22% 2.9 mph WSW4.7 kmh WSW 4.5 mph7.2 kmh 29.78 in1008.5 mb 0.00 in0.0 mm 0.00 in0.0 mm 0.00 in0.0 mm
11:24 AM 79.0°F26.1°C 36.9°F2.7°C 22% 5.6 mph WNW9.0 kmh WNW 12.5 mph20.1 kmh 29.79 in1008.8 mb 0.00 in0.0 mm 0.00 in0.0 mm 0.00 in0.0 mm
11:25 AM 78.8°F26.0°C 37.9°F3.3°C 23% 4.7 mph NW7.6 kmh NW 5.8 mph9.3 kmh 29.78 in1008.5 mb 0.00 in0.0 mm 0.00 in0.0 mm 0.00 in0.0 mm
11:26 AM 78.3°F25.7°C 37.4°F3.0°C 23% 7.2 mph SW11.6 kmh SW 11.4 mph18.3 kmh 29.78 in1008.5 mb 0.00 in0.0 mm 0.00 in0.0 mm 0.00 in0.0 mm
11:27 AM 78.1°F25.6°C 37.3°F2.9°C 23% 3.4 mph NW5.5 kmh NW 5.8 mph9.3 kmh 29.78 in1008.5 mb 0.00 in0.0 mm 0.00 in0.0 mm 0.00 in0.0 mm
11:28 AM 78.3°F25.7°C 36.3°F2.4°C 22% 2.0 mph NNW3.2 kmh NNW 2.2 mph3.5 kmh 29.78 in1008.5 mb 0.00 in0.0 mm 0.00 in0.0 mm 0.00 in0.0 mm
11:29 AM 78.8°F26.0°C 36.7°F2.6°C 22% 2.2 mph W3.5 kmh W 3.4 mph5.5 kmh 29.78 in1008.5 mb 0.00 in0.0 mm 0.00 in0.0 mm 0.00 in0.0 mm
11:30 AM 79.2°F26.2°C 37.1°F2.8°C 22% 0.9 mph W1.4 kmh W 2.2 mph3.5 kmh 29.79 in1008.8 mb 0.00 in0.0 mm 0.00 in0.0 mm 0.00 in0.0 mm
11:31 AM 79.3°F26.3°C 37.1°F2.8°C 22% 3.8 mph W6.1 kmh W 4.5 mph7.2 kmh 29.78 in1008.5 mb 0.00 in0.0 mm 0.00 in0.0 mm 0.00 in0.0 mm
11:32 AM 79.7°F26.5°C 37.5°F3.1°C 22% 1.8 mph NNW2.9 kmh NNW 2.2 mph3.5 kmh 29.79 in1008.8 mb 0.00 in0.0 mm 0.00 in0.0 mm 0.00 in0.0 mm
11:33 AM 79.9°F26.6°C 36.5°F2.5°C 21% 3.1 mph WSW5.0 kmh WSW 5.8 mph9.3 kmh 29.78 in1008.5 mb 0.00 in0.0 mm 0.00 in0.0 mm 0.00 in0.0 mm
11:34 AM 80.1°F26.7°C 37.8°F3.2°C 22% 3.1 mph N5.0 kmh N 4.5 mph7.2 kmh 29.78 in1008.5 mb 0.00 in0.0 mm 0.00 in0.0 mm 0.00 in0.0 mm
11:35 AM 80.1°F26.7°C 37.8°F3.2°C 22% 3.4 mph WSW5.5 kmh WSW 4.5 mph7.2 kmh 29.78 in1008.5 mb 0.00 in0.0 mm 0.00 in0.0 mm 0.00 in0.0 mm
11:36 AM 79.9°F26.6°C 37.6°F3.1°C 22% 3.4 mph NW5.5 kmh NW 5.8 mph9.3 kmh 29.79 in1008.8 mb 0.00 in0.0 mm 0.00 in0.0 mm 0.00 in0.0 mm
11:37 AM 79.5°F26.4°C 37.3°F2.9°C 22% 4.0 mph N6.4 kmh N 5.8 mph9.3 kmh 29.78 in1008.5 mb 0.00 in0.0 mm 0.00 in0.0 mm 0.00 in0.0 mm
11:38 AM 79.3°F26.3°C 37.1°F2.8°C 22% 4.7 mph W7.6 kmh W 9.2 mph14.8 kmh 29.78 in1008.5 mb 0.00 in0.0 mm 0.00 in0.0 mm 0.00 in0.0 mm
11:39 AM 79.5°F26.4°C 37.3°F2.9°C 22% 2.7 mph W4.3 kmh W 3.4 mph5.5 kmh 29.78 in1008.5 mb 0.00 in0.0 mm 0.00 in0.0 mm 0.00 in0.0 mm
11:40 AM 79.7°F26.5°C 36.3°F2.4°C 21% 3.4 mph W5.5 kmh W 5.8 mph9.3 kmh 29.78 in1008.5 mb 0.00 in0.0 mm 0.00 in0.0 mm 0.00 in0.0 mm
11:41 AM 79.9°F26.6°C 37.6°F3.1°C 22% 3.1 mph WSW5.0 kmh WSW 4.5 mph7.2 kmh 29.78 in1008.5 mb 0.00 in0.0 mm 0.00 in0.0 mm 0.00 in0.0 mm
11:42 AM 80.1°F26.7°C 37.8°F3.2°C 22% 2.5 mph WNW4.0 kmh WNW 4.5 mph7.2 kmh 29.78 in1008.5 mb 0.00 in0.0 mm 0.00 in0.0 mm 0.00 in0.0 mm
11:43 AM 80.1°F26.7°C 37.8°F3.2°C 22% 5.6 mph W9.0 kmh W 8.1 mph13.0 kmh 29.78 in1008.5 mb 0.00 in0.0 mm 0.00 in0.0 mm 0.00 in0.0 mm
11:44 AM 80.1°F26.7°C 37.8°F3.2°C 22% 6.9 mph NE11.1 kmh NE 9.2 mph14.8 kmh 29.77 in1008.1 mb 0.00 in0.0 mm 0.00 in0.0 mm 0.00 in0.0 mm
11:45 AM 79.9°F26.6°C 38.8°F3.8°C 23% 4.7 mph WSW7.6 kmh WSW 9.2 mph14.8 kmh 29.78 in1008.5 mb 0.00 in0.0 mm 0.00 in0.0 mm 0.00 in0.0 mm
11:46 AM 79.2°F26.2°C 37.1°F2.8°C 22% 9.6 mph WSW15.4 kmh WSW 12.5 mph20.1 kmh 29.78 in1008.5 mb 0.00 in0.0 mm 0.00 in0.0 mm 0.00 in0.0 mm
11:47 AM 79.2°F26.2°C 37.1°F2.8°C 22% 4.3 mph NNW6.9 kmh NNW 10.3 mph16.6 kmh 29.78 in1008.5 mb 0.00 in0.0 mm 0.00 in0.0 mm 0.00 in0.0 mm
11:48 AM 79.2°F26.2°C 37.1°F2.8°C 22% 2.7 mph NW4.3 kmh NW 4.5 mph7.2 kmh 29.78 in1008.5 mb 0.00 in0.0 mm 0.00 in0.0 mm 0.00 in0.0 mm
11:49 AM 79.3°F26.3°C 36.0°F2.2°C 21% 3.1 mph NW5.0 kmh NW 3.4 mph5.5 kmh 29.78 in1008.5 mb 0.00 in0.0 mm 0.00 in0.0 mm 0.00 in0.0 mm
11:50 AM 79.5°F26.4°C 36.1°F2.3°C 21% 5.8 mph NNW9.3 kmh NNW 10.3 mph16.6 kmh 29.78 in1008.5 mb 0.00 in0.0 mm 0.00 in0.0 mm 0.00 in0.0 mm
11:51 AM 79.7°F26.5°C 35.1°F1.7°C 20% 4.7 mph W7.6 kmh W 8.1 mph13.0 kmh 29.77 in1008.1 mb 0.00 in0.0 mm 0.00 in0.0 mm 0.00 in0.0 mm
11:52 AM 80.1°F26.7°C 36.6°F2.6°C 21% 6.3 mph SW10.1 kmh SW 9.2 mph14.8 kmh 29.78 in1008.5 mb 0.00 in0.0 mm 0.00 in0.0 mm 0.00 in0.0 mm
11:53 AM 80.4°F26.9°C 36.9°F2.7°C 21% 3.8 mph W6.1 kmh W 6.9 mph11.1 kmh 29.78 in1008.5 mb 0.00 in0.0 mm 0.00 in0.0 mm 0.00 in0.0 mm
11:54 AM 80.4°F26.9°C 38.1°F3.4°C 22% 5.8 mph W9.3 kmh W 9.2 mph14.8 kmh 29.78 in1008.5 mb 0.00 in0.0 mm 0.00 in0.0 mm 0.00 in0.0 mm
11:55 AM 79.7°F26.5°C 37.5°F3.1°C 22% 3.8 mph W6.1 kmh W 6.9 mph11.1 kmh 29.78 in1008.5 mb 0.00 in0.0 mm 0.00 in0.0 mm 0.00 in0.0 mm
11:56 AM 79.7°F26.5°C 37.5°F3.1°C 22% 2.5 mph W4.0 kmh W 3.4 mph5.5 kmh 29.78 in1008.5 mb 0.00 in0.0 mm 0.00 in0.0 mm 0.00 in0.0 mm
11:57 AM 79.7°F26.5°C 37.5°F3.1°C 22% 2.2 mph W3.5 kmh W 3.4 mph5.5 kmh 29.78 in1008.5 mb 0.00 in0.0 mm 0.00 in0.0 mm 0.00 in0.0 mm
11:58 AM 80.2°F26.8°C 36.7°F2.6°C 21% 3.6 mph NW5.8 kmh NW 4.5 mph7.2 kmh 29.77 in1008.1 mb 0.00 in0.0 mm 0.00 in0.0 mm 0.00 in0.0 mm
11:59 AM 80.8°F27.1°C 38.4°F3.6°C 22% 5.1 mph NW8.2 kmh NW 9.2 mph14.8 kmh 29.78 in1008.5 mb 0.00 in0.0 mm 0.00 in0.0 mm 0.00 in0.0 mm
12:00 PM 80.8°F27.1°C 38.4°F3.6°C 22% 3.1 mph WNW5.0 kmh WNW 4.5 mph7.2 kmh 29.78 in1008.5 mb 0.00 in0.0 mm 0.00 in0.0 mm 0.00 in0.0 mm
12:01 PM 80.2°F26.8°C 37.9°F3.3°C 22% 3.1 mph SW5.0 kmh SW 4.5 mph7.2 kmh 29.78 in1008.5 mb 0.00 in0.0 mm 0.00 in0.0 mm 0.00 in0.0 mm
12:02 PM 80.2°F26.8°C 36.7°F2.6°C 21% 5.6 mph WSW9.0 kmh WSW 8.1 mph13.0 kmh 29.78 in1008.5 mb 0.00 in0.0 mm 0.00 in0.0 mm 0.00 in0.0 mm
12:03 PM 80.2°F26.8°C 37.9°F3.3°C 22% 1.8 mph W2.9 kmh W 2.2 mph3.5 kmh 29.78 in1008.5 mb 0.00 in0.0 mm 0.00 in0.0 mm 0.00 in0.0 mm
12:04 PM 80.2°F26.8°C 37.9°F3.3°C 22% 4.0 mph N6.4 kmh N 4.5 mph7.2 kmh 29.78 in1008.5 mb 0.00 in0.0 mm 0.00 in0.0 mm 0.00 in0.0 mm
12:05 PM 80.2°F26.8°C 36.7°F2.6°C 21% 2.9 mph WSW4.7 kmh WSW 6.9 mph11.1 kmh 29.78 in1008.5 mb 0.00 in0.0 mm 0.00 in0.0 mm 0.00 in0.0 mm
12:06 PM 80.2°F26.8°C 36.7°F2.6°C 21% 2.2 mph NNW3.5 kmh NNW 9.2 mph14.8 kmh 29.78 in1008.5 mb 0.00 in0.0 mm 0.00 in0.0 mm 0.00 in0.0 mm
12:07 PM 80.2°F26.8°C 36.7°F2.6°C 21% 1.3 mph W2.1 kmh W 2.2 mph3.5 kmh 29.78 in1008.5 mb 0.00 in0.0 mm 0.00 in0.0 mm 0.00 in0.0 mm
12:08 PM 80.4°F26.9°C 36.9°F2.7°C 21% 2.9 mph NW4.7 kmh NW 5.8 mph9.3 kmh 29.78 in1008.5 mb 0.00 in0.0 mm 0.00 in0.0 mm 0.00 in0.0 mm
12:09 PM 81.0°F27.2°C 37.4°F3.0°C 21% 2.9 mph NNW4.7 kmh NNW 8.1 mph13.0 kmh 29.78 in1008.5 mb 0.00 in0.0 mm 0.00 in0.0 mm 0.00 in0.0 mm
12:10 PM 81.0°F27.2°C 37.4°F3.0°C 21% 1.3 mph E2.1 kmh E 2.2 mph3.5 kmh 29.78 in1008.5 mb 0.00 in0.0 mm 0.00 in0.0 mm 0.00 in0.0 mm
12:11 PM 81.0°F27.2°C 37.4°F3.0°C 21% 3.6 mph NW5.8 kmh NW 5.8 mph9.3 kmh 29.78 in1008.5 mb 0.00 in0.0 mm 0.00 in0.0 mm 0.00 in0.0 mm
12:12 PM 81.0°F27.2°C 37.4°F3.0°C 21% 3.8 mph NW6.1 kmh NW 6.9 mph11.1 kmh 29.78 in1008.5 mb 0.00 in0.0 mm 0.00 in0.0 mm 0.00 in0.0 mm
12:13 PM 81.0°F27.2°C 37.4°F3.0°C 21% 4.5 mph NW7.2 kmh NW 8.1 mph13.0 kmh 29.77 in1008.1 mb 0.00 in0.0 mm 0.00 in0.0 mm 0.00 in0.0 mm
12:14 PM 81.0°F27.2°C 37.4°F3.0°C 21% 5.8 mph WSW9.3 kmh WSW 9.2 mph14.8 kmh 29.78 in1008.5 mb 0.00 in0.0 mm 0.00 in0.0 mm 0.00 in0.0 mm
12:15 PM 81.0°F27.2°C 37.4°F3.0°C 21% 4.0 mph W6.4 kmh W 6.9 mph11.1 kmh 29.78 in1008.5 mb 0.00 in0.0 mm 0.00 in0.0 mm 0.00 in0.0 mm
12:16 PM 81.0°F27.2°C 37.4°F3.0°C 21% 2.9 mph NW4.7 kmh NW 3.4 mph5.5 kmh 29.78 in1008.5 mb 0.00 in0.0 mm 0.00 in0.0 mm 0.00 in0.0 mm
12:17 PM 81.0°F27.2°C 36.1°F2.3°C 20% 6.7 mph SW10.8 kmh SW 11.4 mph18.3 kmh 29.77 in1008.1 mb 0.00 in0.0 mm 0.00 in0.0 mm 0.00 in0.0 mm
12:18 PM 80.8°F27.1°C 37.2°F2.9°C 21% 4.0 mph WSW6.4 kmh WSW 5.8 mph9.3 kmh 29.77 in1008.1 mb 0.00 in0.0 mm 0.00 in0.0 mm 0.00 in0.0 mm
12:19 PM 80.8°F27.1°C 37.2°F2.9°C 21% 1.8 mph 2.9 kmh 3.4 mph5.5 kmh 29.78 in1008.5 mb 0.00 in0.0 mm 0.00 in0.0 mm 0.00 in0.0 mm
12:20 PM 81.0°F27.2°C 36.1°F2.3°C 20% 6.7 mph WNW10.8 kmh WNW 8.1 mph13.0 kmh 29.78 in1008.5 mb 0.00 in0.0 mm 0.00 in0.0 mm 0.00 in0.0 mm
12:21 PM 81.3°F27.4°C 37.6°F3.1°C 21% 2.2 mph N3.5 kmh N 2.2 mph3.5 kmh 29.78 in1008.5 mb 0.00 in0.0 mm 0.00 in0.0 mm 0.00 in0.0 mm
12:22 PM 81.3°F27.4°C 37.6°F3.1°C 21% 1.3 mph W2.1 kmh W 2.2 mph3.5 kmh 29.77 in1008.1 mb 0.00 in0.0 mm 0.00 in0.0 mm 0.00 in0.0 mm
12:23 PM 81.3°F27.4°C 36.4°F2.4°C 20% 1.8 mph SW2.9 kmh SW 2.2 mph3.5 kmh 29.77 in1008.1 mb 0.00 in0.0 mm 0.00 in0.0 mm 0.00 in0.0 mm
12:24 PM 81.5°F27.5°C 37.8°F3.2°C 21% 7.4 mph NW11.9 kmh NW 9.2 mph14.8 kmh 29.77 in1008.1 mb 0.00 in0.0 mm 0.00 in0.0 mm 0.00 in0.0 mm
12:25 PM 81.5°F27.5°C 37.8°F3.2°C 21% 3.1 mph NW5.0 kmh NW 4.5 mph7.2 kmh 29.78 in1008.5 mb 0.00 in0.0 mm 0.00 in0.0 mm 0.00 in0.0 mm
12:26 PM 81.3°F27.4°C 37.6°F3.1°C 21% 3.4 mph NNW5.5 kmh NNW 4.5 mph7.2 kmh 29.77 in1008.1 mb 0.00 in0.0 mm 0.00 in0.0 mm 0.00 in0.0 mm
12:27 PM 81.3°F27.4°C 36.4°F2.4°C 20% 6.5 mph NW10.5 kmh NW 8.1 mph13.0 kmh 29.77 in1008.1 mb 0.00 in0.0 mm 0.00 in0.0 mm 0.00 in0.0 mm
12:28 PM 81.5°F27.5°C 37.8°F3.2°C 21% 3.4 mph SW5.5 kmh SW 5.8 mph9.3 kmh 29.77 in1008.1 mb 0.00 in0.0 mm 0.00 in0.0 mm 0.00 in0.0 mm
12:29 PM 81.5°F27.5°C 37.8°F3.2°C 21% 5.8 mph NW9.3 kmh NW 12.5 mph20.1 kmh 29.77 in1008.1 mb 0.00 in0.0 mm 0.00 in0.0 mm 0.00 in0.0 mm
12:30 PM 81.5°F27.5°C 37.8°F3.2°C 21% 4.3 mph SW6.9 kmh SW 5.8 mph9.3 kmh 29.77 in1008.1 mb 0.00 in0.0 mm 0.00 in0.0 mm 0.00 in0.0 mm
12:31 PM 80.8°F27.1°C 37.2°F2.9°C 21% 3.6 mph WSW5.8 kmh WSW 5.8 mph9.3 kmh 29.77 in1008.1 mb 0.00 in0.0 mm 0.00 in0.0 mm 0.00 in0.0 mm
12:32 PM 80.4°F26.9°C 36.9°F2.7°C 21% 7.4 mph NW11.9 kmh NW 11.4 mph18.3 kmh 29.77 in1008.1 mb 0.00 in0.0 mm 0.00 in0.0 mm 0.00 in0.0 mm
12:33 PM 80.4°F26.9°C 36.9°F2.7°C 21% 3.4 mph WSW5.5 kmh WSW 5.8 mph9.3 kmh 29.78 in1008.5 mb 0.00 in0.0 mm 0.00 in0.0 mm 0.00 in0.0 mm
12:34 PM 80.4°F26.9°C 36.9°F2.7°C 21% 3.4 mph NW5.5 kmh NW 6.9 mph11.1 kmh 29.77 in1008.1 mb 0.00 in0.0 mm 0.00 in0.0 mm 0.00 in0.0 mm
12:35 PM 80.8°F27.1°C 37.2°F2.9°C 21% 2.0 mph WSW3.2 kmh WSW 3.4 mph5.5 kmh 29.76 in1007.8 mb 0.00 in0.0 mm 0.00 in0.0 mm 0.00 in0.0 mm
12:36 PM 81.1°F27.3°C 37.4°F3.0°C 21% 7.2 mph W11.6 kmh W 10.3 mph16.6 kmh 29.77 in1008.1 mb 0.00 in0.0 mm 0.00 in0.0 mm 0.00 in0.0 mm
12:37 PM 81.1°F27.3°C 37.4°F3.0°C 21% 3.1 mph NW5.0 kmh NW 5.8 mph9.3 kmh 29.77 in1008.1 mb 0.00 in0.0 mm 0.00 in0.0 mm 0.00 in0.0 mm
12:38 PM 81.0°F27.2°C 37.4°F3.0°C 21% 1.8 mph SW2.9 kmh SW 2.2 mph3.5 kmh 29.77 in1008.1 mb 0.00 in0.0 mm 0.00 in0.0 mm 0.00 in0.0 mm
12:39 PM 81.0°F27.2°C 37.4°F3.0°C 21% 3.8 mph N6.1 kmh N 6.9 mph11.1 kmh 29.76 in1007.8 mb 0.00 in0.0 mm 0.00 in0.0 mm 0.00 in0.0 mm
12:40 PM 81.1°F27.3°C 37.4°F3.0°C 21% 2.9 mph WSW4.7 kmh WSW 4.5 mph7.2 kmh 29.77 in1008.1 mb 0.00 in0.0 mm 0.00 in0.0 mm 0.00 in0.0 mm
12:41 PM 81.1°F27.3°C 37.4°F3.0°C 21% 8.1 mph W13.0 kmh W 11.4 mph18.3 kmh 29.76 in1007.8 mb 0.00 in0.0 mm 0.00 in0.0 mm 0.00 in0.0 mm
12:42 PM 80.8°F27.1°C 37.2°F2.9°C 21% 3.6 mph WSW5.8 kmh WSW 4.5 mph7.2 kmh 29.77 in1008.1 mb 0.00 in0.0 mm 0.00 in0.0 mm 0.00 in0.0 mm
12:43 PM 81.0°F27.2°C 37.4°F3.0°C 21% 2.9 mph WSW4.7 kmh WSW 3.4 mph5.5 kmh 29.76 in1007.8 mb 0.00 in0.0 mm 0.00 in0.0 mm 0.00 in0.0 mm
12:44 PM 81.3°F27.4°C 37.6°F3.1°C 21% 3.1 mph WSW5.0 kmh WSW 3.4 mph5.5 kmh 29.76 in1007.8 mb 0.00 in0.0 mm 0.00 in0.0 mm 0.00 in0.0 mm
12:45 PM 81.5°F27.5°C 36.5°F2.5°C 20% 3.4 mph SSW5.5 kmh SSW 4.5 mph7.2 kmh 29.76 in1007.8 mb 0.00 in0.0 mm 0.00 in0.0 mm 0.00 in0.0 mm
12:46 PM 81.7°F27.6°C 36.7°F2.6°C 20% 1.6 mph WSW2.6 kmh WSW 3.4 mph5.5 kmh 29.76 in1007.8 mb 0.00 in0.0 mm 0.00 in0.0 mm 0.00 in0.0 mm
12:47 PM 82.0°F27.8°C 37.0°F2.8°C 20% 2.5 mph E4.0 kmh E 3.4 mph5.5 kmh 29.77 in1008.1 mb 0.00 in0.0 mm 0.00 in0.0 mm 0.00 in0.0 mm
12:48 PM 82.0°F27.8°C 37.0°F2.8°C 20% 3.4 mph NW5.5 kmh NW 5.8 mph9.3 kmh 29.77 in1008.1 mb 0.00 in0.0 mm 0.00 in0.0 mm 0.00 in0.0 mm
12:49 PM 81.7°F27.6°C 36.7°F2.6°C 20% 5.4 mph NW8.7 kmh NW 6.9 mph11.1 kmh 29.76 in1007.8 mb 0.00 in0.0 mm 0.00 in0.0 mm 0.00 in0.0 mm
12:50 PM 81.3°F27.4°C 36.4°F2.4°C 20% 2.7 mph WNW4.3 kmh WNW 6.9 mph11.1 kmh 29.76 in1007.8 mb 0.00 in0.0 mm 0.00 in0.0 mm 0.00 in0.0 mm
12:51 PM 81.3°F27.4°C 37.6°F3.1°C 21% 4.5 mph N7.2 kmh N 5.8 mph9.3 kmh 29.76 in1007.8 mb 0.00 in0.0 mm 0.00 in0.0 mm 0.00 in0.0 mm
12:52 PM 81.3°F27.4°C 36.4°F2.4°C 20% 5.4 mph W8.7 kmh W 9.2 mph14.8 kmh 29.77 in1008.1 mb 0.00 in0.0 mm 0.00 in0.0 mm 0.00 in0.0 mm
12:53 PM 81.3°F27.4°C 36.4°F2.4°C 20% 6.0 mph NW9.7 kmh NW 13.6 mph21.9 kmh 29.76 in1007.8 mb 0.00 in0.0 mm 0.00 in0.0 mm 0.00 in0.0 mm
12:54 PM 81.3°F27.4°C 37.6°F3.1°C 21% 9.4 mph NW15.1 kmh NW 13.6 mph21.9 kmh 29.76 in1007.8 mb 0.00 in0.0 mm 0.00 in0.0 mm 0.00 in0.0 mm
12:55 PM 80.6°F27.0°C 37.0°F2.8°C 21% 7.4 mph W11.9 kmh W 11.4 mph18.3 kmh 29.77 in1008.1 mb 0.00 in0.0 mm 0.00 in0.0 mm 0.00 in0.0 mm
12:56 PM 79.9°F26.6°C 37.6°F3.1°C 22% 5.4 mph W8.7 kmh W 9.2 mph14.8 kmh 29.77 in1008.1 mb 0.00 in0.0 mm 0.00 in0.0 mm 0.00 in0.0 mm
12:57 PM 79.7°F26.5°C 36.3°F2.4°C 21% 4.3 mph NW6.9 kmh NW 6.9 mph11.1 kmh 29.77 in1008.1 mb 0.00 in0.0 mm 0.00 in0.0 mm 0.00 in0.0 mm
12:58 PM 79.7°F26.5°C 36.3°F2.4°C 21% 2.2 mph ESE3.5 kmh ESE 3.4 mph5.5 kmh 29.76 in1007.8 mb 0.00 in0.0 mm 0.00 in0.0 mm 0.00 in0.0 mm
12:59 PM 80.4°F26.9°C 36.9°F2.7°C 21% 1.8 mph NW2.9 kmh NW 2.2 mph3.5 kmh 29.77 in1008.1 mb 0.00 in0.0 mm 0.00 in0.0 mm 0.00 in0.0 mm
01:00 PM 81.5°F27.5°C 37.8°F3.2°C 21% 2.9 mph NW4.7 kmh NW 3.4 mph5.5 kmh 29.76 in1007.8 mb 0.00 in0.0 mm 0.00 in0.0 mm 0.00 in0.0 mm
01:01 PM 81.5°F27.5°C 37.8°F3.2°C 21% 3.8 mph W6.1 kmh W 6.9 mph11.1 kmh 29.76 in1007.8 mb 0.00 in0.0 mm 0.00 in0.0 mm 0.00 in0.0 mm
01:02 PM 81.5°F27.5°C 37.8°F3.2°C 21% 2.7 mph WNW4.3 kmh WNW 3.4 mph5.5 kmh 29.76 in1007.8 mb 0.00 in0.0 mm 0.00 in0.0 mm 0.00 in0.0 mm
01:03 PM 81.3°F27.4°C 36.4°F2.4°C 20% 3.6 mph NW5.8 kmh NW 4.5 mph7.2 kmh 29.77 in1008.1 mb 0.00 in0.0 mm 0.00 in0.0 mm 0.00 in0.0 mm
01:04 PM 81.1°F27.3°C 36.2°F2.3°C 20% 4.9 mph NW7.9 kmh NW 8.1 mph13.0 kmh 29.76 in1007.8 mb 0.00 in0.0 mm 0.00 in0.0 mm 0.00 in0.0 mm
01:05 PM 81.1°F27.3°C 36.2°F2.3°C 20% 2.5 mph WNW4.0 kmh WNW 3.4 mph5.5 kmh 29.77 in1008.1 mb 0.00 in0.0 mm 0.00 in0.0 mm 0.00 in0.0 mm
01:06 PM 81.1°F27.3°C 37.4°F3.0°C 21% 8.9 mph W14.3 kmh W 17.2 mph27.7 kmh 29.76 in1007.8 mb 0.00 in0.0 mm 0.00 in0.0 mm 0.00 in0.0 mm
01:07 PM 81.0°F27.2°C 37.4°F3.0°C 21% 1.8 mph WNW2.9 kmh WNW 2.2 mph3.5 kmh 29.77 in1008.1 mb 0.00 in0.0 mm 0.00 in0.0 mm 0.00 in0.0 mm
01:08 PM 80.4°F26.9°C 36.9°F2.7°C 21% 7.4 mph W11.9 kmh W 10.3 mph16.6 kmh 29.76 in1007.8 mb 0.00 in0.0 mm 0.00 in0.0 mm 0.00 in0.0 mm
01:09 PM 80.2°F26.8°C 36.7°F2.6°C 21% 2.2 mph WSW3.5 kmh WSW 2.2 mph3.5 kmh 29.76 in1007.8 mb 0.00 in0.0 mm 0.00 in0.0 mm 0.00 in0.0 mm
01:10 PM 80.4°F26.9°C 36.9°F2.7°C 21% 5.6 mph SW9.0 kmh SW 9.2 mph14.8 kmh 29.76 in1007.8 mb 0.00 in0.0 mm 0.00 in0.0 mm 0.00 in0.0 mm
01:11 PM 80.4°F26.9°C 36.9°F2.7°C 21% 4.3 mph WNW6.9 kmh WNW 9.2 mph14.8 kmh 29.77 in1008.1 mb 0.00 in0.0 mm 0.00 in0.0 mm 0.00 in0.0 mm
01:12 PM 80.4°F26.9°C 36.9°F2.7°C 21% 3.1 mph WSW5.0 kmh WSW 4.5 mph7.2 kmh 29.76 in1007.8 mb 0.00 in0.0 mm 0.00 in0.0 mm 0.00 in0.0 mm
01:13 PM 80.6°F27.0°C 37.0°F2.8°C 21% 2.2 mph WNW3.5 kmh WNW 4.5 mph7.2 kmh 29.76 in1007.8 mb 0.00 in0.0 mm 0.00 in0.0 mm 0.00 in0.0 mm
01:14 PM 81.0°F27.2°C 37.4°F3.0°C 21% 1.6 mph SE2.6 kmh SE 2.2 mph3.5 kmh 29.76 in1007.8 mb 0.00 in0.0 mm 0.00 in0.0 mm 0.00 in0.0 mm
01:15 PM 81.5°F27.5°C 36.5°F2.5°C 20% 4.0 mph WSW6.4 kmh WSW 5.8 mph9.3 kmh 29.76 in1007.8 mb 0.00 in0.0 mm 0.00 in0.0 mm 0.00 in0.0 mm
01:16 PM 81.7°F27.6°C 37.9°F3.3°C 21% 1.8 mph NNW2.9 kmh NNW 3.4 mph5.5 kmh 29.76 in1007.8 mb 0.00 in0.0 mm 0.00 in0.0 mm 0.00 in0.0 mm
01:17 PM 81.9°F27.7°C 36.9°F2.7°C 20% 4.5 mph N7.2 kmh N 10.3 mph16.6 kmh 29.76 in1007.8 mb 0.00 in0.0 mm 0.00 in0.0 mm 0.00 in0.0 mm
01:18 PM 81.9°F27.7°C 36.9°F2.7°C 20% 4.5 mph NW7.2 kmh NW 11.4 mph18.3 kmh 29.76 in1007.8 mb 0.00 in0.0 mm 0.00 in0.0 mm 0.00 in0.0 mm
01:19 PM 81.9°F27.7°C 38.1°F3.4°C 21% 4.5 mph SW7.2 kmh SW 8.1 mph13.0 kmh 29.76 in1007.8 mb 0.00 in0.0 mm 0.00 in0.0 mm 0.00 in0.0 mm
01:20 PM 81.1°F27.3°C 37.4°F3.0°C 21% 1.3 mph NNE2.1 kmh NNE 2.2 mph3.5 kmh 29.76 in1007.8 mb 0.00 in0.0 mm 0.00 in0.0 mm 0.00 in0.0 mm
01:21 PM 81.1°F27.3°C 36.2°F2.3°C 20% 0.7 mph WSW1.1 kmh WSW 1.1 mph1.8 kmh 29.76 in1007.8 mb 0.00 in0.0 mm 0.00 in0.0 mm 0.00 in0.0 mm
01:22 PM 81.3°F27.4°C 36.4°F2.4°C 20% 4.5 mph W7.2 kmh W 10.3 mph16.6 kmh 29.75 in1007.5 mb 0.00 in0.0 mm 0.00 in0.0 mm 0.00 in0.0 mm
01:23 PM 81.7°F27.6°C 37.9°F3.3°C 21% 3.6 mph NW5.8 kmh NW 4.5 mph7.2 kmh 29.76 in1007.8 mb 0.00 in0.0 mm 0.00 in0.0 mm 0.00 in0.0 mm
01:24 PM 81.7°F27.6°C 36.7°F2.6°C 20% 3.6 mph WNW5.8 kmh WNW 4.5 mph7.2 kmh 29.76 in1007.8 mb 0.00 in0.0 mm 0.00 in0.0 mm 0.00 in0.0 mm
01:25 PM 81.7°F27.6°C 36.7°F2.6°C 20% 2.7 mph WSW4.3 kmh WSW 3.4 mph5.5 kmh 29.76 in1007.8 mb 0.00 in0.0 mm 0.00 in0.0 mm 0.00 in0.0 mm
01:26 PM 81.7°F27.6°C 36.7°F2.6°C 20% 7.4 mph NW11.9 kmh NW 9.2 mph14.8 kmh 29.76 in1007.8 mb 0.00 in0.0 mm 0.00 in0.0 mm 0.00 in0.0 mm
01:27 PM 81.5°F27.5°C 37.8°F3.2°C 21% 4.7 mph NW7.6 kmh NW 6.9 mph11.1 kmh 29.76 in1007.8 mb 0.00 in0.0 mm 0.00 in0.0 mm 0.00 in0.0 mm
01:28 PM 81.1°F27.3°C 37.4°F3.0°C 21% 4.3 mph WSW6.9 kmh WSW 6.9 mph11.1 kmh 29.75 in1007.5 mb 0.00 in0.0 mm 0.00 in0.0 mm 0.00 in0.0 mm
01:29 PM 81.1°F27.3°C 37.4°F3.0°C 21% 8.7 mph N14.0 kmh N 11.4 mph18.3 kmh 29.76 in1007.8 mb 0.00 in0.0 mm 0.00 in0.0 mm 0.00 in0.0 mm
01:30 PM 80.6°F27.0°C 37.0°F2.8°C 21% 1.1 mph WSW1.8 kmh WSW 1.1 mph1.8 kmh 29.76 in1007.8 mb 0.00 in0.0 mm 0.00 in0.0 mm 0.00 in0.0 mm
01:31 PM 80.1°F26.7°C 36.6°F2.6°C 21% 1.6 mph W2.6 kmh W 2.2 mph3.5 kmh 29.76 in1007.8 mb 0.00 in0.0 mm 0.00 in0.0 mm 0.00 in0.0 mm
01:32 PM 80.4°F26.9°C 35.6°F2.0°C 20% 4.0 mph NW6.4 kmh NW 8.1 mph13.0 kmh 29.76 in1007.8 mb 0.00 in0.0 mm 0.00 in0.0 mm 0.00 in0.0 mm
01:33 PM 80.8°F27.1°C 37.2°F2.9°C 21% 1.6 mph W2.6 kmh W 2.2 mph3.5 kmh 29.76 in1007.8 mb 0.00 in0.0 mm 0.00 in0.0 mm 0.00 in0.0 mm
01:34 PM 80.8°F27.1°C 36.0°F2.2°C 20% 4.0 mph NW6.4 kmh NW 5.8 mph9.3 kmh 29.76 in1007.8 mb 0.00 in0.0 mm 0.00 in0.0 mm 0.00 in0.0 mm
01:35 PM 81.5°F27.5°C 36.5°F2.5°C 20% 2.9 mph W4.7 kmh W 3.4 mph5.5 kmh 29.76 in1007.8 mb 0.00 in0.0 mm 0.00 in0.0 mm 0.00 in0.0 mm
01:36 PM 81.7°F27.6°C 36.7°F2.6°C 20% 1.3 mph NW2.1 kmh NW 2.2 mph3.5 kmh 29.76 in1007.8 mb 0.00 in0.0 mm 0.00 in0.0 mm 0.00 in0.0 mm
01:37 PM 81.9°F27.7°C 36.9°F2.7°C 20% 1.8 mph WNW2.9 kmh WNW 2.2 mph3.5 kmh 29.75 in1007.5 mb 0.00 in0.0 mm 0.00 in0.0 mm 0.00 in0.0 mm
01:38 PM 82.0°F27.8°C 35.7°F2.1°C 19% 3.1 mph W5.0 kmh W 5.8 mph9.3 kmh 29.76 in1007.8 mb 0.00 in0.0 mm 0.00 in0.0 mm 0.00 in0.0 mm
01:39 PM 82.2°F27.9°C 37.1°F2.8°C 20% 2.5 mph NNE4.0 kmh NNE 3.4 mph5.5 kmh 29.76 in1007.8 mb 0.00 in0.0 mm 0.00 in0.0 mm 0.00 in0.0 mm
01:40 PM 82.0°F27.8°C 37.0°F2.8°C 20% 4.5 mph NW7.2 kmh NW 6.9 mph11.1 kmh 29.75 in1007.5 mb 0.00 in0.0 mm 0.00 in0.0 mm 0.00 in0.0 mm
01:41 PM 81.7°F27.6°C 36.7°F2.6°C 20% 4.7 mph NNE7.6 kmh NNE 8.1 mph13.0 kmh 29.75 in1007.5 mb 0.00 in0.0 mm 0.00 in0.0 mm 0.00 in0.0 mm
01:42 PM 81.7°F27.6°C 36.7°F2.6°C 20% 5.4 mph NE8.7 kmh NE 6.9 mph11.1 kmh 29.75 in1007.5 mb 0.00 in0.0 mm 0.00 in0.0 mm 0.00 in0.0 mm
01:43 PM 81.5°F27.5°C 35.2°F1.8°C 19% 5.1 mph SW8.2 kmh SW 9.2 mph14.8 kmh 29.75 in1007.5 mb 0.00 in0.0 mm 0.00 in0.0 mm 0.00 in0.0 mm
01:44 PM 81.1°F27.3°C 36.2°F2.3°C 20% 2.5 mph WSW4.0 kmh WSW 3.4 mph5.5 kmh 29.75 in1007.5 mb 0.00 in0.0 mm 0.00 in0.0 mm 0.00 in0.0 mm
01:45 PM 81.1°F27.3°C 36.2°F2.3°C 20% 4.3 mph WSW6.9 kmh WSW 8.1 mph13.0 kmh 29.75 in1007.5 mb 0.00 in0.0 mm 0.00 in0.0 mm 0.00 in0.0 mm
01:46 PM 81.5°F27.5°C 36.5°F2.5°C 20% 2.7 mph W4.3 kmh W 4.5 mph7.2 kmh 29.75 in1007.5 mb 0.00 in0.0 mm 0.00 in0.0 mm 0.00 in0.0 mm
01:47 PM 81.5°F27.5°C 36.5°F2.5°C 20% 4.9 mph N7.9 kmh N 6.9 mph11.1 kmh 29.75 in1007.5 mb 0.00 in0.0 mm 0.00 in0.0 mm 0.00 in0.0 mm
01:48 PM 81.5°F27.5°C 36.5°F2.5°C 20% 4.5 mph NE7.2 kmh NE 6.9 mph11.1 kmh 29.75 in1007.5 mb 0.00 in0.0 mm 0.00 in0.0 mm 0.00 in0.0 mm
01:49 PM 81.5°F27.5°C 36.5°F2.5°C 20% 6.0 mph NW9.7 kmh NW 8.1 mph13.0 kmh 29.75 in1007.5 mb 0.00 in0.0 mm 0.00 in0.0 mm 0.00 in0.0 mm
01:50 PM 81.1°F27.3°C 34.9°F1.6°C 19% 1.8 mph NNW2.9 kmh NNW 3.4 mph5.5 kmh 29.76 in1007.8 mb 0.00 in0.0 mm 0.00 in0.0 mm 0.00 in0.0 mm
01:51 PM 81.0°F27.2°C 36.1°F2.3°C 20% 1.8 mph NNW2.9 kmh NNW 3.4 mph5.5 kmh 29.75 in1007.5 mb 0.00 in0.0 mm 0.00 in0.0 mm 0.00 in0.0 mm
01:52 PM 80.8°F27.1°C 36.0°F2.2°C 20% 2.5 mph NNW4.0 kmh NNW 4.5 mph7.2 kmh 29.75 in1007.5 mb 0.00 in0.0 mm 0.00 in0.0 mm 0.00 in0.0 mm
01:53 PM 80.8°F27.1°C 36.0°F2.2°C 20% 3.8 mph W6.1 kmh W 5.8 mph9.3 kmh 29.75 in1007.5 mb 0.00 in0.0 mm 0.00 in0.0 mm 0.00 in0.0 mm
01:54 PM 81.1°F27.3°C 34.9°F1.6°C 19% 3.4 mph W5.5 kmh W 4.5 mph7.2 kmh 29.75 in1007.5 mb 0.00 in0.0 mm 0.00 in0.0 mm 0.00 in0.0 mm
01:55 PM 81.3°F27.4°C 35.1°F1.7°C 19% 3.6 mph NNE5.8 kmh NNE 4.5 mph7.2 kmh 29.75 in1007.5 mb 0.00 in0.0 mm 0.00 in0.0 mm 0.00 in0.0 mm
01:56 PM 81.1°F27.3°C 36.2°F2.3°C 20% 3.6 mph WSW5.8 kmh WSW 4.5 mph7.2 kmh 29.75 in1007.5 mb 0.00 in0.0 mm 0.00 in0.0 mm 0.00 in0.0 mm
01:57 PM 80.6°F27.0°C 35.8°F2.1°C 20% 2.2 mph NW3.5 kmh NW 2.2 mph3.5 kmh 29.75 in1007.5 mb 0.00 in0.0 mm 0.00 in0.0 mm 0.00 in0.0 mm
01:58 PM 80.4°F26.9°C 34.3°F1.3°C 19% 4.9 mph WNW7.9 kmh WNW 6.9 mph11.1 kmh 29.75 in1007.5 mb 0.00 in0.0 mm 0.00 in0.0 mm 0.00 in0.0 mm
01:59 PM 80.2°F26.8°C 35.5°F1.9°C 20% 5.4 mph NNW8.7 kmh NNW 8.1 mph13.0 kmh 29.75 in1007.5 mb 0.00 in0.0 mm 0.00 in0.0 mm 0.00 in0.0 mm
02:00 PM 80.1°F26.7°C 35.4°F1.9°C 20% 2.9 mph NNE4.7 kmh NNE 4.5 mph7.2 kmh 29.74 in1007.1 mb 0.00 in0.0 mm 0.00 in0.0 mm 0.00 in0.0 mm
02:01 PM 80.1°F26.7°C 35.4°F1.9°C 20% 2.9 mph SE4.7 kmh SE 4.5 mph7.2 kmh 29.75 in1007.5 mb 0.00 in0.0 mm 0.00 in0.0 mm 0.00 in0.0 mm
02:02 PM 80.4°F26.9°C 34.3°F1.3°C 19% 4.0 mph NW6.4 kmh NW 6.9 mph11.1 kmh 29.75 in1007.5 mb 0.00 in0.0 mm 0.00 in0.0 mm 0.00 in0.0 mm
02:03 PM 81.1°F27.3°C 34.9°F1.6°C 19% 3.8 mph N6.1 kmh N 8.1 mph13.0 kmh 29.76 in1007.8 mb 0.00 in0.0 mm 0.00 in0.0 mm 0.00 in0.0 mm
02:04 PM 81.3°F27.4°C 35.1°F1.7°C 19% 4.3 mph NE6.9 kmh NE 5.8 mph9.3 kmh 29.75 in1007.5 mb 0.00 in0.0 mm 0.00 in0.0 mm 0.00 in0.0 mm
02:05 PM 81.1°F27.3°C 34.9°F1.6°C 19% 0.9 mph W1.4 kmh W 1.1 mph1.8 kmh 29.75 in1007.5 mb 0.00 in0.0 mm 0.00 in0.0 mm 0.00 in0.0 mm
02:06 PM 81.1°F27.3°C 34.9°F1.6°C 19% 5.8 mph WSW9.3 kmh WSW 10.3 mph16.6 kmh 29.74 in1007.1 mb 0.00 in0.0 mm 0.00 in0.0 mm 0.00 in0.0 mm
02:07 PM 81.3°F27.4°C 35.1°F1.7°C 19% 3.8 mph WNW6.1 kmh WNW 5.8 mph9.3 kmh 29.75 in1007.5 mb 0.00 in0.0 mm 0.00 in0.0 mm 0.00 in0.0 mm
02:08 PM 81.3°F27.4°C 35.1°F1.7°C 19% 1.6 mph W2.6 kmh W 2.2 mph3.5 kmh 29.75 in1007.5 mb 0.00 in0.0 mm 0.00 in0.0 mm 0.00 in0.0 mm
02:09 PM 81.3°F27.4°C 33.7°F0.9°C 18% 1.8 mph WNW2.9 kmh WNW 2.2 mph3.5 kmh 29.75 in1007.5 mb 0.00 in0.0 mm 0.00 in0.0 mm 0.00 in0.0 mm
02:10 PM 81.9°F27.7°C 34.2°F1.2°C 18% 4.3 mph N6.9 kmh N 8.1 mph13.0 kmh 29.75 in1007.5 mb 0.00 in0.0 mm 0.00 in0.0 mm 0.00 in0.0 mm
02:11 PM 82.0°F27.8°C 34.3°F1.3°C 18% 4.3 mph W6.9 kmh W 6.9 mph11.1 kmh 29.74 in1007.1 mb 0.00 in0.0 mm 0.00 in0.0 mm 0.00 in0.0 mm
02:12 PM 81.9°F27.7°C 34.2°F1.2°C 18% 2.2 mph WNW3.5 kmh WNW 3.4 mph5.5 kmh 29.75 in1007.5 mb 0.00 in0.0 mm 0.00 in0.0 mm 0.00 in0.0 mm
02:13 PM 81.9°F27.7°C 34.2°F1.2°C 18% 2.0 mph WSW3.2 kmh WSW 3.4 mph5.5 kmh 29.74 in1007.1 mb 0.00 in0.0 mm 0.00 in0.0 mm 0.00 in0.0 mm
02:14 PM 82.0°F27.8°C 34.3°F1.3°C 18% 6.0 mph ENE9.7 kmh ENE 8.1 mph13.0 kmh 29.75 in1007.5 mb 0.00 in0.0 mm 0.00 in0.0 mm 0.00 in0.0 mm
02:15 PM 82.0°F27.8°C 34.3°F1.3°C 18% 3.8 mph W6.1 kmh W 4.5 mph7.2 kmh 29.75 in1007.5 mb 0.00 in0.0 mm 0.00 in0.0 mm 0.00 in0.0 mm
02:16 PM 82.0°F27.8°C 34.3°F1.3°C 18% 1.8 mph N2.9 kmh N 2.2 mph3.5 kmh 29.74 in1007.1 mb 0.00 in0.0 mm 0.00 in0.0 mm 0.00 in0.0 mm
02:17 PM 82.0°F27.8°C 34.3°F1.3°C 18% 2.5 mph WSW4.0 kmh WSW 3.4 mph5.5 kmh 29.75 in1007.5 mb 0.00 in0.0 mm 0.00 in0.0 mm 0.00 in0.0 mm
02:18 PM 82.4°F28.0°C 34.6°F1.4°C 18% 7.8 mph N12.6 kmh N 14.8 mph23.8 kmh 29.75 in1007.5 mb 0.00 in0.0 mm 0.00 in0.0 mm 0.00 in0.0 mm
02:19 PM 82.4°F28.0°C 34.6°F1.4°C 18% 3.4 mph E5.5 kmh E 3.4 mph5.5 kmh 29.75 in1007.5 mb 0.00 in0.0 mm 0.00 in0.0 mm 0.00 in0.0 mm
02:20 PM 81.9°F27.7°C 34.2°F1.2°C 18% 4.0 mph N6.4 kmh N 6.9 mph11.1 kmh 29.74 in1007.1 mb 0.00 in0.0 mm 0.00 in0.0 mm 0.00 in0.0 mm
02:21 PM 81.7°F27.6°C 34.1°F1.2°C 18% 4.9 mph NNE7.9 kmh NNE 10.3 mph16.6 kmh 29.75 in1007.5 mb 0.00 in0.0 mm 0.00 in0.0 mm 0.00 in0.0 mm
02:22 PM 81.7°F27.6°C 34.1°F1.2°C 18% 1.8 mph NW2.9 kmh NW 2.2 mph3.5 kmh 29.75 in1007.5 mb 0.00 in0.0 mm 0.00 in0.0 mm 0.00 in0.0 mm
02:23 PM 81.9°F27.7°C 32.8°F0.4°C 17% 4.9 mph W7.9 kmh W 8.1 mph13.0 kmh 29.75 in1007.5 mb 0.00 in0.0 mm 0.00 in0.0 mm 0.00 in0.0 mm
02:24 PM 82.2°F27.9°C 33.0°F0.6°C 17% 4.0 mph W6.4 kmh W 6.9 mph11.1 kmh 29.75 in1007.5 mb 0.00 in0.0 mm 0.00 in0.0 mm 0.00 in0.0 mm
02:25 PM 82.2°F27.9°C 34.5°F1.4°C 18% 1.3 mph WNW2.1 kmh WNW 2.2 mph3.5 kmh 29.75 in1007.5 mb 0.00 in0.0 mm 0.00 in0.0 mm 0.00 in0.0 mm
02:26 PM 82.0°F27.8°C 34.3°F1.3°C 18% 3.8 mph WSW6.1 kmh WSW 9.2 mph14.8 kmh 29.75 in1007.5 mb 0.00 in0.0 mm 0.00 in0.0 mm 0.00 in0.0 mm
02:27 PM 81.9°F27.7°C 32.8°F0.4°C 17% 3.4 mph W5.5 kmh W 4.5 mph7.2 kmh 29.75 in1007.5 mb 0.00 in0.0 mm 0.00 in0.0 mm 0.00 in0.0 mm
02:28 PM 82.0°F27.8°C 32.9°F0.5°C 17% 1.6 mph N2.6 kmh N 2.2 mph3.5 kmh 29.74 in1007.1 mb 0.00 in0.0 mm 0.00 in0.0 mm 0.00 in0.0 mm
02:29 PM 82.2°F27.9°C 33.0°F0.6°C 17% 2.5 mph WSW4.0 kmh WSW 4.5 mph7.2 kmh 29.75 in1007.5 mb 0.00 in0.0 mm 0.00 in0.0 mm 0.00 in0.0 mm
02:30 PM 82.4°F28.0°C 31.7°F-0.2°C 16% 4.9 mph NW7.9 kmh NW 10.3 mph16.6 kmh 29.75 in1007.5 mb 0.00 in0.0 mm 0.00 in0.0 mm 0.00 in0.0 mm
02:31 PM 82.4°F28.0°C 33.2°F0.7°C 17% 2.2 mph WSW3.5 kmh WSW 3.4 mph5.5 kmh 29.74 in1007.1 mb 0.00 in0.0 mm 0.00 in0.0 mm 0.00 in0.0 mm
02:32 PM 82.2°F27.9°C 33.0°F0.6°C 17% 1.8 mph W2.9 kmh W 2.2 mph3.5 kmh 29.75 in1007.5 mb 0.00 in0.0 mm 0.00 in0.0 mm 0.00 in0.0 mm
02:33 PM 82.2°F27.9°C 33.0°F0.6°C 17% 3.8 mph W6.1 kmh W 5.8 mph9.3 kmh 29.74 in1007.1 mb 0.00 in0.0 mm 0.00 in0.0 mm 0.00 in0.0 mm
02:34 PM 82.2°F27.9°C 33.0°F0.6°C 17% 0.9 mph NNE1.4 kmh NNE 1.1 mph1.8 kmh 29.75 in1007.5 mb 0.00 in0.0 mm 0.00 in0.0 mm 0.00 in0.0 mm
02:35 PM 82.2°F27.9°C 34.5°F1.4°C 18% 2.5 mph E4.0 kmh E 3.4 mph5.5 kmh 29.74 in1007.1 mb 0.00 in0.0 mm 0.00 in0.0 mm 0.00 in0.0 mm
02:36 PM 82.0°F27.8°C 32.9°F0.5°C 17% 0.7 mph WSW1.1 kmh WSW 1.1 mph1.8 kmh 29.74 in1007.1 mb 0.00 in0.0 mm 0.00 in0.0 mm 0.00 in0.0 mm
02:37 PM 82.2°F27.9°C 33.0°F0.6°C 17% 2.2 mph NW3.5 kmh NW 4.5 mph7.2 kmh 29.74 in1007.1 mb 0.00 in0.0 mm 0.00 in0.0 mm 0.00 in0.0 mm
02:38 PM 82.2°F27.9°C 33.0°F0.6°C 17% 6.3 mph NW10.1 kmh NW 9.2 mph14.8 kmh 29.75 in1007.5 mb 0.00 in0.0 mm 0.00 in0.0 mm 0.00 in0.0 mm
02:39 PM 82.0°F27.8°C 32.9°F0.5°C 17% 2.7 mph E4.3 kmh E 4.5 mph7.2 kmh 29.75 in1007.5 mb 0.00 in0.0 mm 0.00 in0.0 mm 0.00 in0.0 mm
02:40 PM 81.7°F27.6°C 34.1°F1.2°C 18% 4.3 mph NW6.9 kmh NW 5.8 mph9.3 kmh 29.74 in1007.1 mb 0.00 in0.0 mm 0.00 in0.0 mm 0.00 in0.0 mm
02:41 PM 81.5°F27.5°C 33.9°F1.1°C 18% 1.8 mph WNW2.9 kmh WNW 3.4 mph5.5 kmh 29.74 in1007.1 mb 0.00 in0.0 mm 0.00 in0.0 mm 0.00 in0.0 mm
02:42 PM 81.5°F27.5°C 32.5°F0.3°C 17% 2.0 mph WNW3.2 kmh WNW 3.4 mph5.5 kmh 29.75 in1007.5 mb 0.00 in0.0 mm 0.00 in0.0 mm 0.00 in0.0 mm
02:43 PM 81.7°F27.6°C 32.6°F0.3°C 17% 4.9 mph NW7.9 kmh NW 6.9 mph11.1 kmh 29.75 in1007.5 mb 0.00 in0.0 mm 0.00 in0.0 mm 0.00 in0.0 mm
02:44 PM 81.9°F27.7°C 32.8°F0.4°C 17% 3.4 mph NW5.5 kmh NW 5.8 mph9.3 kmh 29.75 in1007.5 mb 0.00 in0.0 mm 0.00 in0.0 mm 0.00 in0.0 mm
02:45 PM 82.0°F27.8°C 31.4°F-0.3°C 16% 1.3 mph NNW2.1 kmh NNW 2.2 mph3.5 kmh 29.74 in1007.1 mb 0.00 in0.0 mm 0.00 in0.0 mm 0.00 in0.0 mm
02:46 PM 82.2°F27.9°C 31.5°F-0.3°C 16% 1.8 mph NNE2.9 kmh NNE 2.2 mph3.5 kmh 29.75 in1007.5 mb 0.00 in0.0 mm 0.00 in0.0 mm 0.00 in0.0 mm
02:47 PM 82.4°F28.0°C 31.7°F-0.2°C 16% 4.5 mph W7.2 kmh W 8.1 mph13.0 kmh 29.74 in1007.1 mb 0.00 in0.0 mm 0.00 in0.0 mm 0.00 in0.0 mm
02:48 PM 82.2°F27.9°C 33.0°F0.6°C 17% 2.9 mph WSW4.7 kmh WSW 6.9 mph11.1 kmh 29.75 in1007.5 mb 0.00 in0.0 mm 0.00 in0.0 mm 0.00 in0.0 mm
02:49 PM 81.7°F27.6°C 32.6°F0.3°C 17% 5.1 mph NNW8.2 kmh NNW 8.1 mph13.0 kmh 29.75 in1007.5 mb 0.00 in0.0 mm 0.00 in0.0 mm 0.00 in0.0 mm
02:50 PM 81.7°F27.6°C 32.6°F0.3°C 17% 1.3 mph WNW2.1 kmh WNW 2.2 mph3.5 kmh 29.74 in1007.1 mb 0.00 in0.0 mm 0.00 in0.0 mm 0.00 in0.0 mm
02:51 PM 81.7°F27.6°C 32.6°F0.3°C 17% 1.8 mph W2.9 kmh W 2.2 mph3.5 kmh 29.74 in1007.1 mb 0.00 in0.0 mm 0.00 in0.0 mm 0.00 in0.0 mm
02:52 PM 81.5°F27.5°C 32.5°F0.3°C 17% 1.8 mph NE2.9 kmh NE 2.2 mph3.5 kmh 29.74 in1007.1 mb 0.00 in0.0 mm 0.00 in0.0 mm 0.00 in0.0 mm
02:53 PM 81.7°F27.6°C 31.1°F-0.5°C 16% 2.5 mph S4.0 kmh S 4.5 mph7.2 kmh 29.74 in1007.1 mb 0.00 in0.0 mm 0.00 in0.0 mm 0.00 in0.0 mm
02:54 PM 81.7°F27.6°C 32.6°F0.3°C 17% 4.5 mph N7.2 kmh N 9.2 mph14.8 kmh 29.74 in1007.1 mb 0.00 in0.0 mm 0.00 in0.0 mm 0.00 in0.0 mm
02:55 PM 81.5°F27.5°C 32.5°F0.3°C 17% 3.8 mph NNW6.1 kmh NNW 9.2 mph14.8 kmh 29.74 in1007.1 mb 0.00 in0.0 mm 0.00 in0.0 mm 0.00 in0.0 mm
02:56 PM 81.3°F27.4°C 32.3°F0.2°C 17% 3.8 mph WNW6.1 kmh WNW 4.5 mph7.2 kmh 29.74 in1007.1 mb 0.00 in0.0 mm 0.00 in0.0 mm 0.00 in0.0 mm
02:57 PM 81.0°F27.2°C 32.1°F0.1°C 17% 2.9 mph NE4.7 kmh NE 3.4 mph5.5 kmh 29.75 in1007.5 mb 0.00 in0.0 mm 0.00 in0.0 mm 0.00 in0.0 mm
02:58 PM 81.0°F27.2°C 32.1°F0.1°C 17% 3.4 mph NW5.5 kmh NW 5.8 mph9.3 kmh 29.75 in1007.5 mb 0.00 in0.0 mm 0.00 in0.0 mm 0.00 in0.0 mm
02:59 PM 81.3°F27.4°C 32.3°F0.2°C 17% 3.4 mph ENE5.5 kmh ENE 5.8 mph9.3 kmh 29.74 in1007.1 mb 0.00 in0.0 mm 0.00 in0.0 mm 0.00 in0.0 mm
03:00 PM 81.3°F27.4°C 32.3°F0.2°C 17% 2.2 mph N3.5 kmh N 3.4 mph5.5 kmh 29.73 in1006.8 mb 0.00 in0.0 mm 0.00 in0.0 mm 0.00 in0.0 mm
03:01 PM 81.1°F27.3°C 32.1°F0.1°C 17% 1.8 mph ENE2.9 kmh ENE 3.4 mph5.5 kmh 29.74 in1007.1 mb 0.00 in0.0 mm 0.00 in0.0 mm 0.00 in0.0 mm
03:02 PM 81.1°F27.3°C 32.1°F0.1°C 17% 2.9 mph NW4.7 kmh NW 5.8 mph9.3 kmh 29.75 in1007.5 mb 0.00 in0.0 mm 0.00 in0.0 mm 0.00 in0.0 mm
03:03 PM 81.5°F27.5°C 32.5°F0.3°C 17% 3.8 mph NW6.1 kmh NW 5.8 mph9.3 kmh 29.74 in1007.1 mb 0.00 in0.0 mm 0.00 in0.0 mm 0.00 in0.0 mm
03:04 PM 81.5°F27.5°C 32.5°F0.3°C 17% 1.8 mph ESE2.9 kmh ESE 2.2 mph3.5 kmh 29.74 in1007.1 mb 0.00 in0.0 mm 0.00 in0.0 mm 0.00 in0.0 mm
03:05 PM 81.5°F27.5°C 32.5°F0.3°C 17% 2.2 mph WSW3.5 kmh WSW 3.4 mph5.5 kmh 29.74 in1007.1 mb 0.00 in0.0 mm 0.00 in0.0 mm 0.00 in0.0 mm
03:06 PM 81.7°F27.6°C 31.1°F-0.5°C 16% 2.9 mph W4.7 kmh W 6.9 mph11.1 kmh 29.74 in1007.1 mb 0.00 in0.0 mm 0.00 in0.0 mm 0.00 in0.0 mm
03:07 PM 81.7°F27.6°C 31.1°F-0.5°C 16% 5.6 mph NW9.0 kmh NW 9.2 mph14.8 kmh 29.74 in1007.1 mb 0.00 in0.0 mm 0.00 in0.0 mm 0.00 in0.0 mm
03:08 PM 81.5°F27.5°C 32.5°F0.3°C 17% 2.7 mph SW4.3 kmh SW 4.5 mph7.2 kmh 29.74 in1007.1 mb 0.00 in0.0 mm 0.00 in0.0 mm 0.00 in0.0 mm
03:09 PM 81.0°F27.2°C 32.1°F0.1°C 17% 2.7 mph NW4.3 kmh NW 3.4 mph5.5 kmh 29.73 in1006.8 mb 0.00 in0.0 mm 0.00 in0.0 mm 0.00 in0.0 mm
03:10 PM 80.8°F27.1°C 31.9°F-0.1°C 17% 2.2 mph WNW3.5 kmh WNW 3.4 mph5.5 kmh 29.74 in1007.1 mb 0.00 in0.0 mm 0.00 in0.0 mm 0.00 in0.0 mm
03:11 PM 81.1°F27.3°C 32.1°F0.1°C 17% 2.5 mph ENE4.0 kmh ENE 3.4 mph5.5 kmh 29.74 in1007.1 mb 0.00 in0.0 mm 0.00 in0.0 mm 0.00 in0.0 mm
03:12 PM 81.3°F27.4°C 32.3°F0.2°C 17% 2.9 mph NW4.7 kmh NW 4.5 mph7.2 kmh 29.73 in1006.8 mb 0.00 in0.0 mm 0.00 in0.0 mm 0.00 in0.0 mm
03:13 PM 81.3°F27.4°C 32.3°F0.2°C 17% 2.2 mph SW3.5 kmh SW 3.4 mph5.5 kmh 29.74 in1007.1 mb 0.00 in0.0 mm 0.00 in0.0 mm 0.00 in0.0 mm
03:14 PM 81.3°F27.4°C 32.3°F0.2°C 17% 1.8 mph W2.9 kmh W 2.2 mph3.5 kmh 29.74 in1007.1 mb 0.00 in0.0 mm 0.00 in0.0 mm 0.00 in0.0 mm
03:15 PM 81.3°F27.4°C 32.3°F0.2°C 17% 2.5 mph W4.0 kmh W 3.4 mph5.5 kmh 29.74 in1007.1 mb 0.00 in0.0 mm 0.00 in0.0 mm 0.00 in0.0 mm
03:16 PM 81.3°F27.4°C 32.3°F0.2°C 17% 4.5 mph NW7.2 kmh NW 5.8 mph9.3 kmh 29.74 in1007.1 mb 0.00 in0.0 mm 0.00 in0.0 mm 0.00 in0.0 mm
03:17 PM 81.5°F27.5°C 31.0°F-0.6°C 16% 1.3 mph SW2.1 kmh SW 2.2 mph3.5 kmh 29.74 in1007.1 mb 0.00 in0.0 mm 0.00 in0.0 mm 0.00 in0.0 mm
03:18 PM 81.7°F27.6°C 31.1°F-0.5°C 16% 0.9 mph ENE1.4 kmh ENE 1.1 mph1.8 kmh 29.74 in1007.1 mb 0.00 in0.0 mm 0.00 in0.0 mm 0.00 in0.0 mm
03:19 PM 81.7°F27.6°C 32.6°F0.3°C 17% 4.0 mph NW6.4 kmh NW 6.9 mph11.1 kmh 29.74 in1007.1 mb 0.00 in0.0 mm 0.00 in0.0 mm 0.00 in0.0 mm
03:20 PM 81.5°F27.5°C 32.5°F0.3°C 17% 3.4 mph W5.5 kmh W 5.8 mph9.3 kmh 29.73 in1006.8 mb 0.00 in0.0 mm 0.00 in0.0 mm 0.00 in0.0 mm
03:21 PM 81.5°F27.5°C 32.5°F0.3°C 17% 3.1 mph WNW5.0 kmh WNW 4.5 mph7.2 kmh 29.74 in1007.1 mb 0.00 in0.0 mm 0.00 in0.0 mm 0.00 in0.0 mm
03:22 PM 81.5°F27.5°C 32.5°F0.3°C 17% 2.2 mph NNW3.5 kmh NNW 3.4 mph5.5 kmh 29.74 in1007.1 mb 0.00 in0.0 mm 0.00 in0.0 mm 0.00 in0.0 mm
03:23 PM 81.3°F27.4°C 32.3°F0.2°C 17% 0.7 mph NNW1.1 kmh NNW 1.1 mph1.8 kmh 29.74 in1007.1 mb 0.00 in0.0 mm 0.00 in0.0 mm 0.00 in0.0 mm
03:24 PM 81.3°F27.4°C 32.3°F0.2°C 17% 1.1 mph W1.8 kmh W 1.1 mph1.8 kmh 29.74 in1007.1 mb 0.00 in0.0 mm 0.00 in0.0 mm 0.00 in0.0 mm
03:25 PM 81.7°F27.6°C 31.1°F-0.5°C 16% 8.5 mph SW13.7 kmh SW 17.2 mph27.7 kmh 29.74 in1007.1 mb 0.00 in0.0 mm 0.00 in0.0 mm 0.00 in0.0 mm
03:26 PM 81.7°F27.6°C 32.6°F0.3°C 17% 3.8 mph NE6.1 kmh NE 5.8 mph9.3 kmh 29.74 in1007.1 mb 0.00 in0.0 mm 0.00 in0.0 mm 0.00 in0.0 mm
03:27 PM 81.1°F27.3°C 32.1°F0.1°C 17% 5.4 mph W8.7 kmh W 8.1 mph13.0 kmh 29.74 in1007.1 mb 0.00 in0.0 mm 0.00 in0.0 mm 0.00 in0.0 mm
03:28 PM 81.0°F27.2°C 30.6°F-0.8°C 16% 2.2 mph ENE3.5 kmh ENE 2.2 mph3.5 kmh 29.74 in1007.1 mb 0.00 in0.0 mm 0.00 in0.0 mm 0.00 in0.0 mm
03:29 PM 81.0°F27.2°C 32.1°F0.1°C 17% 2.9 mph NNE4.7 kmh NNE 4.5 mph7.2 kmh 29.73 in1006.8 mb 0.00 in0.0 mm 0.00 in0.0 mm 0.00 in0.0 mm
03:30 PM 81.0°F27.2°C 32.1°F0.1°C 17% 2.7 mph NE4.3 kmh NE 5.8 mph9.3 kmh 29.73 in1006.8 mb 0.00 in0.0 mm 0.00 in0.0 mm 0.00 in0.0 mm
03:31 PM 81.0°F27.2°C 32.1°F0.1°C 17% 3.1 mph WSW5.0 kmh WSW 4.5 mph7.2 kmh 29.74 in1007.1 mb 0.00 in0.0 mm 0.00 in0.0 mm 0.00 in0.0 mm
03:32 PM 81.0°F27.2°C 32.1°F0.1°C 17% 1.8 mph SW2.9 kmh SW 3.4 mph5.5 kmh 29.73 in1006.8 mb 0.00 in0.0 mm 0.00 in0.0 mm 0.00 in0.0 mm
03:33 PM 81.3°F27.4°C 32.3°F0.2°C 17% 2.5 mph NW4.0 kmh NW 3.4 mph5.5 kmh 29.74 in1007.1 mb 0.00 in0.0 mm 0.00 in0.0 mm 0.00 in0.0 mm
03:34 PM 81.3°F27.4°C 32.3°F0.2°C 17% 5.4 mph W8.7 kmh W 8.1 mph13.0 kmh 29.73 in1006.8 mb 0.00 in0.0 mm 0.00 in0.0 mm 0.00 in0.0 mm
03:35 PM 81.3°F27.4°C 32.3°F0.2°C 17% 1.8 mph W2.9 kmh W 3.4 mph5.5 kmh 29.74 in1007.1 mb 0.00 in0.0 mm 0.00 in0.0 mm 0.00 in0.0 mm
03:36 PM 81.5°F27.5°C 32.5°F0.3°C 17% 1.8 mph WSW2.9 kmh WSW 3.4 mph5.5 kmh 29.74 in1007.1 mb 0.00 in0.0 mm 0.00 in0.0 mm 0.00 in0.0 mm
03:37 PM 81.7°F27.6°C 32.6°F0.3°C 17% 5.8 mph W9.3 kmh W 8.1 mph13.0 kmh 29.73 in1006.8 mb 0.00 in0.0 mm 0.00 in0.0 mm 0.00 in0.0 mm
03:38 PM 81.7°F27.6°C 32.6°F0.3°C 17% 3.8 mph N6.1 kmh N 5.8 mph9.3 kmh 29.74 in1007.1 mb 0.00 in0.0 mm 0.00 in0.0 mm 0.00 in0.0 mm
03:39 PM 81.3°F27.4°C 32.3°F0.2°C 17% 3.4 mph N5.5 kmh N 4.5 mph7.2 kmh 29.73 in1006.8 mb 0.00 in0.0 mm 0.00 in0.0 mm 0.00 in0.0 mm
03:40 PM 81.1°F27.3°C 32.1°F0.1°C 17% 1.3 mph SSW2.1 kmh SSW 2.2 mph3.5 kmh 29.74 in1007.1 mb 0.00 in0.0 mm 0.00 in0.0 mm 0.00 in0.0 mm
03:41 PM 81.0°F27.2°C 33.5°F0.8°C 18% 1.3 mph NE2.1 kmh NE 2.2 mph3.5 kmh 29.73 in1006.8 mb 0.00 in0.0 mm 0.00 in0.0 mm 0.00 in0.0 mm
03:42 PM 80.8°F27.1°C 33.3°F0.7°C 18% 1.8 mph NE2.9 kmh NE 2.2 mph3.5 kmh 29.73 in1006.8 mb 0.00 in0.0 mm 0.00 in0.0 mm 0.00 in0.0 mm
03:43 PM 80.8°F27.1°C 31.9°F-0.1°C 17% 2.0 mph NNE3.2 kmh NNE 3.4 mph5.5 kmh 29.74 in1007.1 mb 0.00 in0.0 mm 0.00 in0.0 mm 0.00 in0.0 mm
03:44 PM 80.6°F27.0°C 31.7°F-0.2°C 17% 1.6 mph NE2.6 kmh NE 2.2 mph3.5 kmh 29.74 in1007.1 mb 0.00 in0.0 mm 0.00 in0.0 mm 0.00 in0.0 mm
03:45 PM 80.6°F27.0°C 31.7°F-0.2°C 17% 2.5 mph NNE4.0 kmh NNE 3.4 mph5.5 kmh 29.74 in1007.1 mb 0.00 in0.0 mm 0.00 in0.0 mm 0.00 in0.0 mm
03:46 PM 80.4°F26.9°C 31.6°F-0.2°C 17% 1.6 mph SE2.6 kmh SE 2.2 mph3.5 kmh 29.73 in1006.8 mb 0.00 in0.0 mm 0.00 in0.0 mm 0.00 in0.0 mm
03:47 PM 80.6°F27.0°C 31.7°F-0.2°C 17% 3.6 mph SW5.8 kmh SW 6.9 mph11.1 kmh 29.74 in1007.1 mb 0.00 in0.0 mm 0.00 in0.0 mm 0.00 in0.0 mm
03:48 PM 81.0°F27.2°C 32.1°F0.1°C 17% 2.2 mph NNW3.5 kmh NNW 3.4 mph5.5 kmh 29.73 in1006.8 mb 0.00 in0.0 mm 0.00 in0.0 mm 0.00 in0.0 mm
03:49 PM 81.0°F27.2°C 32.1°F0.1°C 17% 0.7 mph WSW1.1 kmh WSW 1.1 mph1.8 kmh 29.74 in1007.1 mb 0.00 in0.0 mm 0.00 in0.0 mm 0.00 in0.0 mm
03:50 PM 80.8°F27.1°C 31.9°F-0.1°C 17% 2.2 mph E3.5 kmh E 3.4 mph5.5 kmh 29.74 in1007.1 mb 0.00 in0.0 mm 0.00 in0.0 mm 0.00 in0.0 mm
03:51 PM 80.6°F27.0°C 31.7°F-0.2°C 17% 2.5 mph N4.0 kmh N 3.4 mph5.5 kmh 29.74 in1007.1 mb 0.00 in0.0 mm 0.00 in0.0 mm 0.00 in0.0 mm
03:52 PM 80.4°F26.9°C 31.6°F-0.2°C 17% 3.8 mph N6.1 kmh N 5.8 mph9.3 kmh 29.74 in1007.1 mb 0.00 in0.0 mm 0.00 in0.0 mm 0.00 in0.0 mm
03:53 PM 80.4°F26.9°C 30.1°F-1.1°C 16% 2.9 mph NW4.7 kmh NW 4.5 mph7.2 kmh 29.73 in1006.8 mb 0.00 in0.0 mm 0.00 in0.0 mm 0.00 in0.0 mm
03:54 PM 80.4°F26.9°C 30.1°F-1.1°C 16% 3.8 mph W6.1 kmh W 6.9 mph11.1 kmh 29.73 in1006.8 mb 0.00 in0.0 mm 0.00 in0.0 mm 0.00 in0.0 mm
03:55 PM 80.2°F26.8°C 29.9°F-1.2°C 16% 3.4 mph W5.5 kmh W 4.5 mph7.2 kmh 29.73 in1006.8 mb 0.00 in0.0 mm 0.00 in0.0 mm 0.00 in0.0 mm
03:56 PM 80.2°F26.8°C 31.4°F-0.3°C 17% 3.1 mph NNW5.0 kmh NNW 10.3 mph16.6 kmh 29.74 in1007.1 mb 0.00 in0.0 mm 0.00 in0.0 mm 0.00 in0.0 mm
03:57 PM 80.1°F26.7°C 31.3°F-0.4°C 17% 1.8 mph WNW2.9 kmh WNW 2.2 mph3.5 kmh 29.74 in1007.1 mb 0.00 in0.0 mm 0.00 in0.0 mm 0.00 in0.0 mm
03:58 PM 80.1°F26.7°C 31.3°F-0.4°C 17% 3.1 mph W5.0 kmh W 5.8 mph9.3 kmh 29.73 in1006.8 mb 0.00 in0.0 mm 0.00 in0.0 mm 0.00 in0.0 mm
03:59 PM 80.2°F26.8°C 31.4°F-0.3°C 17% 1.8 mph NW2.9 kmh NW 3.4 mph5.5 kmh 29.74 in1007.1 mb 0.00 in0.0 mm 0.00 in0.0 mm 0.00 in0.0 mm
04:00 PM 80.4°F26.9°C 31.6°F-0.2°C 17% 2.2 mph SW3.5 kmh SW 3.4 mph5.5 kmh 29.74 in1007.1 mb 0.00 in0.0 mm 0.00 in0.0 mm 0.00 in0.0 mm
04:01 PM 80.4°F26.9°C 31.6°F-0.2°C 17% 4.9 mph W7.9 kmh W 6.9 mph11.1 kmh 29.74 in1007.1 mb 0.00 in0.0 mm 0.00 in0.0 mm 0.00 in0.0 mm
04:02 PM 80.4°F26.9°C 31.6°F-0.2°C 17% 2.7 mph WNW4.3 kmh WNW 3.4 mph5.5 kmh 29.73 in1006.8 mb 0.00 in0.0 mm 0.00 in0.0 mm 0.00 in0.0 mm
04:03 PM 80.1°F26.7°C 31.3°F-0.4°C 17% 3.8 mph W6.1 kmh W 5.8 mph9.3 kmh 29.74 in1007.1 mb 0.00 in0.0 mm 0.00 in0.0 mm 0.00 in0.0 mm
04:05 PM 79.9°F26.6°C 32.6°F0.3°C 18% 6.3 mph NW10.1 kmh NW 8.1 mph13.0 kmh 29.73 in1006.8 mb 0.00 in0.0 mm 0.00 in0.0 mm 0.00 in0.0 mm
04:06 PM 79.5°F26.4°C 32.3°F0.2°C 18% 4.9 mph WNW7.9 kmh WNW 8.1 mph13.0 kmh 29.74 in1007.1 mb 0.00 in0.0 mm 0.00 in0.0 mm 0.00 in0.0 mm
04:07 PM 79.5°F26.4°C 32.3°F0.2°C 18% 2.5 mph WNW4.0 kmh WNW 3.4 mph5.5 kmh 29.73 in1006.8 mb 0.00 in0.0 mm 0.00 in0.0 mm 0.00 in0.0 mm
04:08 PM 79.5°F26.4°C 32.3°F0.2°C 18% 2.7 mph NW4.3 kmh NW 3.4 mph5.5 kmh 29.73 in1006.8 mb 0.00 in0.0 mm 0.00 in0.0 mm 0.00 in0.0 mm
04:09 PM 79.5°F26.4°C 32.3°F0.2°C 18% 2.9 mph N4.7 kmh N 4.5 mph7.2 kmh 29.73 in1006.8 mb 0.00 in0.0 mm 0.00 in0.0 mm 0.00 in0.0 mm
04:10 PM 79.7°F26.5°C 32.4°F0.2°C 18% 2.9 mph W4.7 kmh W 4.5 mph7.2 kmh 29.73 in1006.8 mb 0.00 in0.0 mm 0.00 in0.0 mm 0.00 in0.0 mm
04:11 PM 79.7°F26.5°C 32.4°F0.2°C 18% 2.5 mph WSW4.0 kmh WSW 4.5 mph7.2 kmh 29.73 in1006.8 mb 0.00 in0.0 mm 0.00 in0.0 mm 0.00 in0.0 mm
04:13 PM 79.9°F26.6°C 32.6°F0.3°C 18% 0.9 mph SW1.4 kmh SW 1.1 mph1.8 kmh 29.74 in1007.1 mb 0.00 in0.0 mm 0.00 in0.0 mm 0.00 in0.0 mm
04:15 PM 80.4°F26.9°C 31.6°F-0.2°C 17% 3.6 mph WSW5.8 kmh WSW 5.8 mph9.3 kmh 29.73 in1006.8 mb 0.00 in0.0 mm 0.00 in0.0 mm 0.00 in0.0 mm
04:16 PM 80.6°F27.0°C 33.2°F0.7°C 18% 4.7 mph NW7.6 kmh NW 5.8 mph9.3 kmh 29.73 in1006.8 mb 0.00 in0.0 mm 0.00 in0.0 mm 0.00 in0.0 mm
04:17 PM 80.4°F26.9°C 33.0°F0.6°C 18% 3.6 mph W5.8 kmh W 4.5 mph7.2 kmh 29.73 in1006.8 mb 0.00 in0.0 mm 0.00 in0.0 mm 0.00 in0.0 mm
04:18 PM 79.9°F26.6°C 32.6°F0.3°C 18% 2.5 mph NW4.0 kmh NW 3.4 mph5.5 kmh 29.73 in1006.8 mb 0.00 in0.0 mm 0.00 in0.0 mm 0.00 in0.0 mm
04:19 PM 79.7°F26.5°C 32.4°F0.2°C 18% 1.8 mph NW2.9 kmh NW 2.2 mph3.5 kmh 29.73 in1006.8 mb 0.00 in0.0 mm 0.00 in0.0 mm 0.00 in0.0 mm
04:20 PM 79.7°F26.5°C 32.4°F0.2°C 18% 2.0 mph WNW3.2 kmh WNW 3.4 mph5.5 kmh 29.73 in1006.8 mb 0.00 in0.0 mm 0.00 in0.0 mm 0.00 in0.0 mm
04:21 PM 79.9°F26.6°C 32.6°F0.3°C 18% 2.2 mph WNW3.5 kmh WNW 3.4 mph5.5 kmh 29.73 in1006.8 mb 0.00 in0.0 mm 0.00 in0.0 mm 0.00 in0.0 mm
04:22 PM 80.1°F26.7°C 32.8°F0.4°C 18% 1.8 mph WNW2.9 kmh WNW 4.5 mph7.2 kmh 29.73 in1006.8 mb 0.00 in0.0 mm 0.00 in0.0 mm 0.00 in0.0 mm
04:23 PM 80.2°F26.8°C 32.8°F0.4°C 18% 3.4 mph NW5.5 kmh NW 4.5 mph7.2 kmh 29.73 in1006.8 mb 0.00 in0.0 mm 0.00 in0.0 mm 0.00 in0.0 mm
04:24 PM 80.1°F26.7°C 34.1°F1.2°C 19% 3.6 mph WSW5.8 kmh WSW 5.8 mph9.3 kmh 29.73 in1006.8 mb 0.00 in0.0 mm 0.00 in0.0 mm 0.00 in0.0 mm
04:25 PM 79.9°F26.6°C 33.9°F1.1°C 19% 2.0 mph N3.2 kmh N 2.2 mph3.5 kmh 29.73 in1006.8 mb 0.00 in0.0 mm 0.00 in0.0 mm 0.00 in0.0 mm
04:26 PM 79.7°F26.5°C 33.8°F1.0°C 19% 1.3 mph N2.1 kmh N 2.2 mph3.5 kmh 29.73 in1006.8 mb 0.00 in0.0 mm 0.00 in0.0 mm 0.00 in0.0 mm
04:27 PM 79.7°F26.5°C 32.4°F0.2°C 18% 2.2 mph W3.5 kmh W 3.4 mph5.5 kmh 29.73 in1006.8 mb 0.00 in0.0 mm 0.00 in0.0 mm 0.00 in0.0 mm
04:28 PM 79.9°F26.6°C 31.2°F-0.4°C 17% 4.9 mph NNW7.9 kmh NNW 6.9 mph11.1 kmh 29.73 in1006.8 mb 0.00 in0.0 mm 0.00 in0.0 mm 0.00 in0.0 mm
04:29 PM 79.9°F26.6°C 32.6°F0.3°C 18% 3.4 mph W5.5 kmh W 5.8 mph9.3 kmh 29.73 in1006.8 mb 0.00 in0.0 mm 0.00 in0.0 mm 0.00 in0.0 mm
04:30 PM 79.5°F26.4°C 33.6°F0.9°C 19% 2.5 mph NNW4.0 kmh NNW 5.8 mph9.3 kmh 29.73 in1006.8 mb 0.00 in0.0 mm 0.00 in0.0 mm 0.00 in0.0 mm
04:31 PM 79.3°F26.3°C 33.5°F0.8°C 19% 1.3 mph NE2.1 kmh NE 2.2 mph3.5 kmh 29.74 in1007.1 mb 0.00 in0.0 mm 0.00 in0.0 mm 0.00 in0.0 mm
04:32 PM 79.3°F26.3°C 32.1°F0.1°C 18% 1.1 mph NNW1.8 kmh NNW 2.2 mph3.5 kmh 29.73 in1006.8 mb 0.00 in0.0 mm 0.00 in0.0 mm 0.00 in0.0 mm
04:33 PM 79.3°F26.3°C 32.1°F0.1°C 18% 2.5 mph W4.0 kmh W 6.9 mph11.1 kmh 29.73 in1006.8 mb 0.00 in0.0 mm 0.00 in0.0 mm 0.00 in0.0 mm
04:34 PM 79.5°F26.4°C 32.3°F0.2°C 18% 2.0 mph NW3.2 kmh NW 3.4 mph5.5 kmh 29.73 in1006.8 mb 0.00 in0.0 mm 0.00 in0.0 mm 0.00 in0.0 mm
04:35 PM 79.5°F26.4°C 32.3°F0.2°C 18% 2.9 mph WNW4.7 kmh WNW 4.5 mph7.2 kmh 29.73 in1006.8 mb 0.00 in0.0 mm 0.00 in0.0 mm 0.00 in0.0 mm
04:36 PM 79.5°F26.4°C 32.3°F0.2°C 18% 0.4 mph W0.6 kmh W 2.2 mph3.5 kmh 29.73 in1006.8 mb 0.00 in0.0 mm 0.00 in0.0 mm 0.00 in0.0 mm
04:37 PM 79.5°F26.4°C 32.3°F0.2°C 18% 1.8 mph W2.9 kmh W 4.5 mph7.2 kmh 29.73 in1006.8 mb 0.00 in0.0 mm 0.00 in0.0 mm 0.00 in0.0 mm
04:38 PM 80.1°F26.7°C 32.8°F0.4°C 18% 2.0 mph W3.2 kmh W 3.4 mph5.5 kmh 29.73 in1006.8 mb 0.00 in0.0 mm 0.00 in0.0 mm 0.00 in0.0 mm
04:39 PM 80.1°F26.7°C 34.1°F1.2°C 19% 5.8 mph NW9.3 kmh NW 10.3 mph16.6 kmh 29.73 in1006.8 mb 0.00 in0.0 mm 0.00 in0.0 mm 0.00 in0.0 mm
04:40 PM 79.5°F26.4°C 34.9°F1.6°C 20% 5.6 mph N9.0 kmh N 8.1 mph13.0 kmh 29.73 in1006.8 mb 0.00 in0.0 mm 0.00 in0.0 mm 0.00 in0.0 mm
04:41 PM 78.8°F26.0°C 34.3°F1.3°C 20% 2.2 mph WNW3.5 kmh WNW 2.2 mph3.5 kmh 29.73 in1006.8 mb 0.00 in0.0 mm 0.00 in0.0 mm 0.00 in0.0 mm
04:42 PM 78.6°F25.9°C 34.2°F1.2°C 20% 2.2 mph WNW3.5 kmh WNW 2.2 mph3.5 kmh 29.73 in1006.8 mb 0.00 in0.0 mm 0.00 in0.0 mm 0.00 in0.0 mm
04:43 PM 78.3°F25.7°C 33.9°F1.1°C 20% 2.7 mph WNW4.3 kmh WNW 3.4 mph5.5 kmh 29.73 in1006.8 mb 0.00 in0.0 mm 0.00 in0.0 mm 0.00 in0.0 mm
04:44 PM 78.3°F25.7°C 33.9°F1.1°C 20% 2.2 mph WSW3.5 kmh WSW 2.2 mph3.5 kmh 29.73 in1006.8 mb 0.00 in0.0 mm 0.00 in0.0 mm 0.00 in0.0 mm
04:45 PM 78.3°F25.7°C 33.9°F1.1°C 20% 4.0 mph WNW6.4 kmh WNW 8.1 mph13.0 kmh 29.73 in1006.8 mb 0.00 in0.0 mm 0.00 in0.0 mm 0.00 in0.0 mm
04:46 PM 78.3°F25.7°C 33.9°F1.1°C 20% Calm Calm -- 29.73 in1006.8 mb 0.00 in0.0 mm 0.00 in0.0 mm 0.00 in0.0 mm
04:47 PM 78.1°F25.6°C 33.7°F0.9°C 20% 4.7 mph NW7.6 kmh NW 8.1 mph13.0 kmh 29.73 in1006.8 mb 0.00 in0.0 mm 0.00 in0.0 mm 0.00 in0.0 mm
04:48 PM 77.9°F25.5°C 34.8°F1.6°C 21% 5.4 mph SW8.7 kmh SW 11.4 mph18.3 kmh 29.73 in1006.8 mb 0.00 in0.0 mm 0.00 in0.0 mm 0.00 in0.0 mm
04:49 PM 77.7°F25.4°C 34.6°F1.4°C 21% 5.4 mph SW8.7 kmh SW 9.2 mph14.8 kmh 29.72 in1006.4 mb 0.00 in0.0 mm 0.00 in0.0 mm 0.00 in0.0 mm
04:50 PM 77.2°F25.1°C 34.2°F1.2°C 21% 5.4 mph NW8.7 kmh NW 9.2 mph14.8 kmh 29.73 in1006.8 mb 0.00 in0.0 mm 0.00 in0.0 mm 0.00 in0.0 mm
04:51 PM 77.0°F25.0°C 32.8°F0.4°C 20% 4.7 mph WNW7.6 kmh WNW 8.1 mph13.0 kmh 29.73 in1006.8 mb 0.00 in0.0 mm 0.00 in0.0 mm 0.00 in0.0 mm
04:52 PM 77.2°F25.1°C 33.0°F0.6°C 20% 4.3 mph WSW6.9 kmh WSW 6.9 mph11.1 kmh 29.73 in1006.8 mb 0.00 in0.0 mm 0.00 in0.0 mm 0.00 in0.0 mm
04:53 PM 77.2°F25.1°C 31.7°F-0.2°C 19% 5.8 mph WNW9.3 kmh WNW 11.4 mph18.3 kmh 29.73 in1006.8 mb 0.00 in0.0 mm 0.00 in0.0 mm 0.00 in0.0 mm
04:54 PM 77.4°F25.2°C 31.9°F-0.1°C 19% 5.8 mph SE9.3 kmh SE 9.2 mph14.8 kmh 29.73 in1006.8 mb 0.00 in0.0 mm 0.00 in0.0 mm 0.00 in0.0 mm
04:55 PM 77.4°F25.2°C 31.9°F-0.1°C 19% 1.6 mph NNW2.6 kmh NNW 2.2 mph3.5 kmh 29.73 in1006.8 mb 0.00 in0.0 mm 0.00 in0.0 mm 0.00 in0.0 mm
04:56 PM 77.4°F25.2°C 30.6°F-0.8°C 18% 4.5 mph WNW7.2 kmh WNW 6.9 mph11.1 kmh 29.73 in1006.8 mb 0.00 in0.0 mm 0.00 in0.0 mm 0.00 in0.0 mm
04:57 PM 77.5°F25.3°C 32.0°F0.0°C 19% 1.6 mph WSW2.6 kmh WSW 2.2 mph3.5 kmh 29.73 in1006.8 mb 0.00 in0.0 mm 0.00 in0.0 mm 0.00 in0.0 mm
04:58 PM 77.5°F25.3°C 32.0°F0.0°C 19% 4.9 mph W7.9 kmh W 8.1 mph13.0 kmh 29.73 in1006.8 mb 0.00 in0.0 mm 0.00 in0.0 mm 0.00 in0.0 mm
04:59 PM 77.7°F25.4°C 33.4°F0.8°C 20% 3.4 mph WSW5.5 kmh WSW 6.9 mph11.1 kmh 29.73 in1006.8 mb 0.00 in0.0 mm 0.00 in0.0 mm 0.00 in0.0 mm
05:00 PM 77.7°F25.4°C 33.4°F0.8°C 20% 3.6 mph SW5.8 kmh SW 4.5 mph7.2 kmh 29.73 in1006.8 mb 0.00 in0.0 mm 0.00 in0.0 mm 0.00 in0.0 mm
05:01 PM 77.7°F25.4°C 33.4°F0.8°C 20% 3.4 mph W5.5 kmh W 5.8 mph9.3 kmh 29.73 in1006.8 mb 0.00 in0.0 mm 0.00 in0.0 mm 0.00 in0.0 mm
05:02 PM 77.4°F25.2°C 33.2°F0.7°C 20% 3.8 mph WSW6.1 kmh WSW 4.5 mph7.2 kmh 29.73 in1006.8 mb 0.00 in0.0 mm 0.00 in0.0 mm 0.00 in0.0 mm
05:03 PM 77.2°F25.1°C 34.2°F1.2°C 21% 3.4 mph W5.5 kmh W 5.8 mph9.3 kmh 29.74 in1007.1 mb 0.00 in0.0 mm 0.00 in0.0 mm 0.00 in0.0 mm
05:04 PM 76.8°F24.9°C 33.9°F1.1°C 21% 4.0 mph W6.4 kmh W 6.9 mph11.1 kmh 29.73 in1006.8 mb 0.00 in0.0 mm 0.00 in0.0 mm 0.00 in0.0 mm
05:05 PM 76.8°F24.9°C 33.9°F1.1°C 21% 3.8 mph NNW6.1 kmh NNW 6.9 mph11.1 kmh 29.73 in1006.8 mb 0.00 in0.0 mm 0.00 in0.0 mm 0.00 in0.0 mm
05:06 PM 76.6°F24.8°C 33.7°F0.9°C 21% 3.8 mph W6.1 kmh W 4.5 mph7.2 kmh 29.73 in1006.8 mb 0.00 in0.0 mm 0.00 in0.0 mm 0.00 in0.0 mm
05:07 PM 76.6°F24.8°C 34.9°F1.6°C 22% 2.7 mph SW4.3 kmh SW 4.5 mph7.2 kmh 29.73 in1006.8 mb 0.00 in0.0 mm 0.00 in0.0 mm 0.00 in0.0 mm
05:08 PM 76.5°F24.7°C 33.6°F0.9°C 21% 2.7 mph W4.3 kmh W 3.4 mph5.5 kmh 29.73 in1006.8 mb 0.00 in0.0 mm 0.00 in0.0 mm 0.00 in0.0 mm
05:09 PM 76.5°F24.7°C 33.6°F0.9°C 21% 3.4 mph NE5.5 kmh NE 6.9 mph11.1 kmh 29.73 in1006.8 mb 0.00 in0.0 mm 0.00 in0.0 mm 0.00 in0.0 mm
05:10 PM 76.5°F24.7°C 33.6°F0.9°C 21% 4.9 mph WSW7.9 kmh WSW 6.9 mph11.1 kmh 29.73 in1006.8 mb 0.00 in0.0 mm 0.00 in0.0 mm 0.00 in0.0 mm
05:11 PM 76.5°F24.7°C 33.6°F0.9°C 21% 3.8 mph WNW6.1 kmh WNW 4.5 mph7.2 kmh 29.73 in1006.8 mb 0.00 in0.0 mm 0.00 in0.0 mm 0.00 in0.0 mm
05:12 PM 76.5°F24.7°C 33.6°F0.9°C 21% 3.1 mph WSW5.0 kmh WSW 5.8 mph9.3 kmh 29.73 in1006.8 mb 0.00 in0.0 mm 0.00 in0.0 mm 0.00 in0.0 mm
05:13 PM 76.5°F24.7°C 33.6°F0.9°C 21% 2.0 mph NW3.2 kmh NW 3.4 mph5.5 kmh 29.73 in1006.8 mb 0.00 in0.0 mm 0.00 in0.0 mm 0.00 in0.0 mm
05:14 PM 76.6°F24.8°C 33.7°F0.9°C 21% 5.8 mph WSW9.3 kmh WSW 12.5 mph20.1 kmh 29.73 in1006.8 mb 0.00 in0.0 mm 0.00 in0.0 mm 0.00 in0.0 mm
05:15 PM 76.5°F24.7°C 34.8°F1.6°C 22% 1.8 mph WSW2.9 kmh WSW 3.4 mph5.5 kmh 29.73 in1006.8 mb 0.00 in0.0 mm 0.00 in0.0 mm 0.00 in0.0 mm
05:16 PM 76.3°F24.6°C 33.5°F0.8°C 21% 3.8 mph NNW6.1 kmh NNW 5.8 mph9.3 kmh 29.74 in1007.1 mb 0.00 in0.0 mm 0.00 in0.0 mm 0.00 in0.0 mm
05:17 PM 76.1°F24.5°C 33.3°F0.7°C 21% 2.9 mph WSW4.7 kmh WSW 5.8 mph9.3 kmh 29.73 in1006.8 mb 0.00 in0.0 mm 0.00 in0.0 mm 0.00 in0.0 mm
05:18 PM 75.9°F24.4°C 34.3°F1.3°C 22% 2.2 mph E3.5 kmh E 3.4 mph5.5 kmh 29.74 in1007.1 mb 0.00 in0.0 mm 0.00 in0.0 mm 0.00 in0.0 mm
05:19 PM 75.7°F24.3°C 34.1°F1.2°C 22% 2.2 mph W3.5 kmh W 3.4 mph5.5 kmh 29.74 in1007.1 mb 0.00 in0.0 mm 0.00 in0.0 mm 0.00 in0.0 mm
05:21 PM 75.7°F24.3°C 34.1°F1.2°C 22% 1.1 mph WSW1.8 kmh WSW 2.2 mph3.5 kmh 29.73 in1006.8 mb 0.00 in0.0 mm 0.00 in0.0 mm 0.00 in0.0 mm
05:22 PM 75.4°F24.1°C 35.0°F1.7°C 23% 3.8 mph NNW6.1 kmh NNW 5.8 mph9.3 kmh 29.73 in1006.8 mb 0.00 in0.0 mm 0.00 in0.0 mm 0.00 in0.0 mm
05:23 PM 75.2°F24.0°C 33.7°F0.9°C 22% 0.9 mph SSW1.4 kmh SSW 1.1 mph1.8 kmh 29.74 in1007.1 mb 0.00 in0.0 mm 0.00 in0.0 mm 0.00 in0.0 mm
05:24 PM 75.2°F24.0°C 33.7°F0.9°C 22% 2.5 mph WSW4.0 kmh WSW 4.5 mph7.2 kmh 29.74 in1007.1 mb 0.00 in0.0 mm 0.00 in0.0 mm 0.00 in0.0 mm
05:25 PM 75.2°F24.0°C 33.7°F0.9°C 22% 1.8 mph SW2.9 kmh SW 2.2 mph3.5 kmh 29.74 in1007.1 mb 0.00 in0.0 mm 0.00 in0.0 mm 0.00 in0.0 mm
05:26 PM 75.4°F24.1°C 33.9°F1.1°C 22% 0.9 mph SW1.4 kmh SW 3.4 mph5.5 kmh 29.74 in1007.1 mb 0.00 in0.0 mm 0.00 in0.0 mm 0.00 in0.0 mm
05:27 PM 75.6°F24.2°C 34.1°F1.2°C 22% 3.6 mph WSW5.8 kmh WSW 5.8 mph9.3 kmh 29.74 in1007.1 mb 0.00 in0.0 mm 0.00 in0.0 mm 0.00 in0.0 mm
05:28 PM 75.6°F24.2°C 35.2°F1.8°C 23% 5.4 mph WNW8.7 kmh WNW 9.2 mph14.8 kmh 29.74 in1007.1 mb 0.00 in0.0 mm 0.00 in0.0 mm 0.00 in0.0 mm
05:29 PM 75.0°F23.9°C 34.7°F1.5°C 23% 2.0 mph WNW3.2 kmh WNW 4.5 mph7.2 kmh 29.74 in1007.1 mb 0.00 in0.0 mm 0.00 in0.0 mm 0.00 in0.0 mm
05:30 PM 74.7°F23.7°C 34.4°F1.3°C 23% 1.6 mph WSW2.6 kmh WSW 2.2 mph3.5 kmh 29.74 in1007.1 mb 0.00 in0.0 mm 0.00 in0.0 mm 0.00 in0.0 mm
05:31 PM 74.7°F23.7°C 33.3°F0.7°C 22% 2.7 mph W4.3 kmh W 5.8 mph9.3 kmh 29.74 in1007.1 mb 0.00 in0.0 mm 0.00 in0.0 mm 0.00 in0.0 mm
05:32 PM 74.7°F23.7°C 33.3°F0.7°C 22% 2.2 mph SW3.5 kmh SW 3.4 mph5.5 kmh 29.75 in1007.5 mb 0.00 in0.0 mm 0.00 in0.0 mm 0.00 in0.0 mm
05:33 PM 74.7°F23.7°C 33.3°F0.7°C 22% 1.8 mph SW2.9 kmh SW 3.4 mph5.5 kmh 29.74 in1007.1 mb 0.00 in0.0 mm 0.00 in0.0 mm 0.00 in0.0 mm
05:34 PM 74.7°F23.7°C 33.3°F0.7°C 22% 1.1 mph W1.8 kmh W 1.1 mph1.8 kmh 29.74 in1007.1 mb 0.00 in0.0 mm 0.00 in0.0 mm 0.00 in0.0 mm
05:35 PM 74.7°F23.7°C 34.4°F1.3°C 23% 5.6 mph WSW9.0 kmh WSW 9.2 mph14.8 kmh 29.74 in1007.1 mb 0.00 in0.0 mm 0.00 in0.0 mm 0.00 in0.0 mm
05:36 PM 74.5°F23.6°C 34.3°F1.3°C 23% 2.2 mph W3.5 kmh W 3.4 mph5.5 kmh 29.74 in1007.1 mb 0.00 in0.0 mm 0.00 in0.0 mm 0.00 in0.0 mm
05:37 PM 74.3°F23.5°C 35.2°F1.8°C 24% 0.7 mph SW1.1 kmh SW 1.1 mph1.8 kmh 29.75 in1007.5 mb 0.00 in0.0 mm 0.00 in0.0 mm 0.00 in0.0 mm
05:38 PM 74.3°F23.5°C 35.2°F1.8°C 24% 0.9 mph SW1.4 kmh SW 1.1 mph1.8 kmh 29.73 in1006.8 mb 0.00 in0.0 mm 0.00 in0.0 mm 0.00 in0.0 mm
05:39 PM 74.3°F23.5°C 35.2°F1.8°C 24% 2.5 mph SW4.0 kmh SW 4.5 mph7.2 kmh 29.75 in1007.5 mb 0.00 in0.0 mm 0.00 in0.0 mm 0.00 in0.0 mm
05:40 PM 74.3°F23.5°C 35.2°F1.8°C 24% 2.5 mph SSW4.0 kmh SSW 3.4 mph5.5 kmh 29.74 in1007.1 mb 0.00 in0.0 mm 0.00 in0.0 mm 0.00 in0.0 mm
05:41 PM 74.1°F23.4°C 35.0°F1.7°C 24% 4.7 mph NNW7.6 kmh NNW 8.1 mph13.0 kmh 29.76 in1007.8 mb 0.00 in0.0 mm 0.00 in0.0 mm 0.00 in0.0 mm
05:42 PM 73.9°F23.3°C 34.8°F1.6°C 24% 2.5 mph WNW4.0 kmh WNW 3.4 mph5.5 kmh 29.75 in1007.5 mb 0.00 in0.0 mm 0.00 in0.0 mm 0.00 in0.0 mm
05:43 PM 73.6°F23.1°C 34.6°F1.4°C 24% 1.1 mph WSW1.8 kmh WSW 1.1 mph1.8 kmh 29.74 in1007.1 mb 0.00 in0.0 mm 0.00 in0.0 mm 0.00 in0.0 mm
05:45 PM 73.6°F23.1°C 34.6°F1.4°C 24% Calm Calm -- 29.75 in1007.5 mb 0.00 in0.0 mm 0.00 in0.0 mm 0.00 in0.0 mm
05:46 PM 73.6°F23.1°C 34.6°F1.4°C 24% 1.8 mph W2.9 kmh W 2.2 mph3.5 kmh 29.75 in1007.5 mb 0.00 in0.0 mm 0.00 in0.0 mm 0.00 in0.0 mm
05:47 PM 73.4°F23.0°C 35.4°F1.9°C 25% 2.2 mph W3.5 kmh W 3.4 mph5.5 kmh 29.75 in1007.5 mb 0.00 in0.0 mm 0.00 in0.0 mm 0.00 in0.0 mm
05:48 PM 73.0°F22.8°C 35.1°F1.7°C 25% 0.9 mph WNW1.4 kmh WNW 2.2 mph3.5 kmh 29.74 in1007.1 mb 0.00 in0.0 mm 0.00 in0.0 mm 0.00 in0.0 mm
05:49 PM 72.9°F22.7°C 35.0°F1.7°C 25% 1.3 mph ENE2.1 kmh ENE 2.2 mph3.5 kmh 29.75 in1007.5 mb 0.00 in0.0 mm 0.00 in0.0 mm 0.00 in0.0 mm
05:50 PM 72.9°F22.7°C 36.0°F2.2°C 26% 1.3 mph SW2.1 kmh SW 2.2 mph3.5 kmh 29.74 in1007.1 mb 0.00 in0.0 mm 0.00 in0.0 mm 0.00 in0.0 mm
05:51 PM 72.5°F22.5°C 35.7°F2.1°C 26% 1.8 mph W2.9 kmh W 3.4 mph5.5 kmh 29.75 in1007.5 mb 0.00 in0.0 mm 0.00 in0.0 mm 0.00 in0.0 mm
05:52 PM 72.3°F22.4°C 36.4°F2.4°C 27% 2.5 mph NW4.0 kmh NW 3.4 mph5.5 kmh 29.75 in1007.5 mb 0.00 in0.0 mm 0.00 in0.0 mm 0.00 in0.0 mm
05:53 PM 72.1°F22.3°C 36.3°F2.4°C 27% 1.3 mph NW2.1 kmh NW 2.2 mph3.5 kmh 29.75 in1007.5 mb 0.00 in0.0 mm 0.00 in0.0 mm 0.00 in0.0 mm
05:54 PM 72.0°F22.2°C 36.2°F2.3°C 27% 1.1 mph ESE1.8 kmh ESE 1.1 mph1.8 kmh 29.75 in1007.5 mb 0.00 in0.0 mm 0.00 in0.0 mm 0.00 in0.0 mm
05:55 PM 71.8°F22.1°C 35.1°F1.7°C 26% 1.8 mph W2.9 kmh W 4.5 mph7.2 kmh 29.75 in1007.5 mb 0.00 in0.0 mm 0.00 in0.0 mm 0.00 in0.0 mm
05:56 PM 71.8°F22.1°C 35.1°F1.7°C 26% 2.7 mph WNW4.3 kmh WNW 3.4 mph5.5 kmh 29.76 in1007.8 mb 0.00 in0.0 mm 0.00 in0.0 mm 0.00 in0.0 mm
05:57 PM 71.6°F22.0°C 34.9°F1.6°C 26% 1.3 mph WSW2.1 kmh WSW 2.2 mph3.5 kmh 29.76 in1007.8 mb 0.00 in0.0 mm 0.00 in0.0 mm 0.00 in0.0 mm
05:58 PM 71.6°F22.0°C 34.9°F1.6°C 26% 6.0 mph N9.7 kmh N 9.2 mph14.8 kmh 29.75 in1007.5 mb 0.00 in0.0 mm 0.00 in0.0 mm 0.00 in0.0 mm
05:59 PM 71.4°F21.9°C 34.7°F1.5°C 26% 0.9 mph WNW1.4 kmh WNW 2.2 mph3.5 kmh 29.75 in1007.5 mb 0.00 in0.0 mm 0.00 in0.0 mm 0.00 in0.0 mm
06:00 PM 71.2°F21.8°C 34.6°F1.4°C 26% 1.8 mph ESE2.9 kmh ESE 2.2 mph3.5 kmh 29.74 in1007.1 mb 0.00 in0.0 mm 0.00 in0.0 mm 0.00 in0.0 mm
06:01 PM 71.2°F21.8°C 35.5°F1.9°C 27% 1.3 mph WNW2.1 kmh WNW 2.2 mph3.5 kmh 29.75 in1007.5 mb 0.00 in0.0 mm 0.00 in0.0 mm 0.00 in0.0 mm
06:02 PM 71.1°F21.7°C 35.4°F1.9°C 27% 0.9 mph ESE1.4 kmh ESE 2.2 mph3.5 kmh 29.74 in1007.1 mb 0.00 in0.0 mm 0.00 in0.0 mm 0.00 in0.0 mm
06:03 PM 70.9°F21.6°C 35.2°F1.8°C 27% 0.9 mph WSW1.4 kmh WSW 1.1 mph1.8 kmh 29.75 in1007.5 mb 0.00 in0.0 mm 0.00 in0.0 mm 0.00 in0.0 mm
06:04 PM 70.9°F21.6°C 35.2°F1.8°C 27% 0.2 mph SW0.3 kmh SW 1.1 mph1.8 kmh 29.76 in1007.8 mb 0.00 in0.0 mm 0.00 in0.0 mm 0.00 in0.0 mm
06:05 PM 70.7°F21.5°C 34.1°F1.2°C 26% 3.6 mph NNW5.8 kmh NNW 4.5 mph7.2 kmh 29.75 in1007.5 mb 0.00 in0.0 mm 0.00 in0.0 mm 0.00 in0.0 mm
06:06 PM 70.7°F21.5°C 32.1°F0.1°C 24% 3.8 mph WNW6.1 kmh WNW 5.8 mph9.3 kmh 29.75 in1007.5 mb 0.00 in0.0 mm 0.00 in0.0 mm 0.00 in0.0 mm
06:07 PM 70.7°F21.5°C 33.1°F0.6°C 25% 1.6 mph WSW2.6 kmh WSW 2.2 mph3.5 kmh 29.76 in1007.8 mb 0.00 in0.0 mm 0.00 in0.0 mm 0.00 in0.0 mm
06:08 PM 70.7°F21.5°C 33.1°F0.6°C 25% 2.7 mph W4.3 kmh W 3.4 mph5.5 kmh 29.76 in1007.8 mb 0.00 in0.0 mm 0.00 in0.0 mm 0.00 in0.0 mm
06:09 PM 70.7°F21.5°C 33.1°F0.6°C 25% 2.2 mph W3.5 kmh W 3.4 mph5.5 kmh 29.76 in1007.8 mb 0.00 in0.0 mm 0.00 in0.0 mm 0.00 in0.0 mm
06:10 PM 70.7°F21.5°C 34.1°F1.2°C 26% 0.9 mph WSW1.4 kmh WSW 1.1 mph1.8 kmh 29.76 in1007.8 mb 0.00 in0.0 mm 0.00 in0.0 mm 0.00 in0.0 mm
06:11 PM 70.7°F21.5°C 34.1°F1.2°C 26% 0.9 mph SW1.4 kmh SW 1.1 mph1.8 kmh 29.76 in1007.8 mb 0.00 in0.0 mm 0.00 in0.0 mm 0.00 in0.0 mm
06:12 PM 70.5°F21.4°C 34.9°F1.6°C 27% 3.6 mph W5.8 kmh W 5.8 mph9.3 kmh 29.76 in1007.8 mb 0.00 in0.0 mm 0.00 in0.0 mm 0.00 in0.0 mm
06:13 PM 70.3°F21.3°C 34.7°F1.5°C 27% 3.6 mph W5.8 kmh W 6.9 mph11.1 kmh 29.76 in1007.8 mb 0.00 in0.0 mm 0.00 in0.0 mm 0.00 in0.0 mm
06:14 PM 70.3°F21.3°C 34.7°F1.5°C 27% Calm Calm -- 29.76 in1007.8 mb 0.00 in0.0 mm 0.00 in0.0 mm 0.00 in0.0 mm
06:15 PM 70.2°F21.2°C 33.7°F0.9°C 26% 1.3 mph NE2.1 kmh NE 2.2 mph3.5 kmh 29.76 in1007.8 mb 0.00 in0.0 mm 0.00 in0.0 mm 0.00 in0.0 mm
06:16 PM 70.2°F21.2°C 33.7°F0.9°C 26% 0.9 mph S1.4 kmh S 1.1 mph1.8 kmh 29.76 in1007.8 mb 0.00 in0.0 mm 0.00 in0.0 mm 0.00 in0.0 mm
06:17 PM 70.0°F21.1°C 33.5°F0.8°C 26% 2.7 mph E4.3 kmh E 3.4 mph5.5 kmh 29.76 in1007.8 mb 0.00 in0.0 mm 0.00 in0.0 mm 0.00 in0.0 mm
06:18 PM 70.0°F21.1°C 32.6°F0.3°C 25% 3.8 mph N6.1 kmh N 5.8 mph9.3 kmh 29.76 in1007.8 mb 0.00 in0.0 mm 0.00 in0.0 mm 0.00 in0.0 mm
06:19 PM 70.0°F21.1°C 33.5°F0.8°C 26% 0.2 mph NNW0.3 kmh NNW 1.1 mph1.8 kmh 29.76 in1007.8 mb 0.00 in0.0 mm 0.00 in0.0 mm 0.00 in0.0 mm
06:20 PM 70.0°F21.1°C 33.5°F0.8°C 26% 0.9 mph WNW1.4 kmh WNW 4.5 mph7.2 kmh 29.76 in1007.8 mb 0.00 in0.0 mm 0.00 in0.0 mm 0.00 in0.0 mm
06:21 PM 70.0°F21.1°C 33.5°F0.8°C 26% 1.3 mph E2.1 kmh E 2.2 mph3.5 kmh 29.76 in1007.8 mb 0.00 in0.0 mm 0.00 in0.0 mm 0.00 in0.0 mm
06:22 PM 69.8°F21.0°C 33.4°F0.8°C 26% 0.4 mph SE0.6 kmh SE 1.1 mph1.8 kmh 29.76 in1007.8 mb 0.00 in0.0 mm 0.00 in0.0 mm 0.00 in0.0 mm
06:23 PM 69.6°F20.9°C 33.2°F0.7°C 26% 1.3 mph NE2.1 kmh NE 2.2 mph3.5 kmh 29.76 in1007.8 mb 0.00 in0.0 mm 0.00 in0.0 mm 0.00 in0.0 mm
06:24 PM 69.4°F20.8°C 33.0°F0.6°C 26% 2.7 mph WSW4.3 kmh WSW 6.9 mph11.1 kmh 29.76 in1007.8 mb 0.00 in0.0 mm 0.00 in0.0 mm 0.00 in0.0 mm
06:25 PM 69.4°F20.8°C 32.0°F0.0°C 25% 1.1 mph WSW1.8 kmh WSW 2.2 mph3.5 kmh 29.76 in1007.8 mb 0.00 in0.0 mm 0.00 in0.0 mm 0.00 in0.0 mm
06:26 PM 69.4°F20.8°C 33.0°F0.6°C 26% 3.8 mph WSW6.1 kmh WSW 5.8 mph9.3 kmh 29.76 in1007.8 mb 0.00 in0.0 mm 0.00 in0.0 mm 0.00 in0.0 mm
06:27 PM 69.4°F20.8°C 33.0°F0.6°C 26% 1.3 mph NW2.1 kmh NW 3.4 mph5.5 kmh 29.76 in1007.8 mb 0.00 in0.0 mm 0.00 in0.0 mm 0.00 in0.0 mm
06:28 PM 69.6°F20.9°C 33.2°F0.7°C 26% Calm Calm -- 29.76 in1007.8 mb 0.00 in0.0 mm 0.00 in0.0 mm 0.00 in0.0 mm
06:29 PM 69.6°F20.9°C 33.2°F0.7°C 26% 0.9 mph W1.4 kmh W 1.1 mph1.8 kmh 29.76 in1007.8 mb 0.00 in0.0 mm 0.00 in0.0 mm 0.00 in0.0 mm
06:30 PM 69.4°F20.8°C 34.0°F1.1°C 27% 4.0 mph W6.4 kmh W 6.9 mph11.1 kmh 29.76 in1007.8 mb 0.00 in0.0 mm 0.00 in0.0 mm 0.00 in0.0 mm
06:31 PM 69.3°F20.7°C 33.9°F1.1°C 27% 2.2 mph N3.5 kmh N 3.4 mph5.5 kmh 29.76 in1007.8 mb 0.00 in0.0 mm 0.00 in0.0 mm 0.00 in0.0 mm
06:32 PM 69.3°F20.7°C 32.9°F0.5°C 26% 3.4 mph NW5.5 kmh NW 5.8 mph9.3 kmh 29.76 in1007.8 mb 0.00 in0.0 mm 0.00 in0.0 mm 0.00 in0.0 mm
06:33 PM 69.3°F20.7°C 32.9°F0.5°C 26% 1.3 mph WNW2.1 kmh WNW 2.2 mph3.5 kmh 29.77 in1008.1 mb 0.00 in0.0 mm 0.00 in0.0 mm 0.00 in0.0 mm
06:34 PM 69.3°F20.7°C 32.9°F0.5°C 26% 0.4 mph W0.6 kmh W 1.1 mph1.8 kmh 29.76 in1007.8 mb 0.00 in0.0 mm 0.00 in0.0 mm 0.00 in0.0 mm
06:35 PM 69.3°F20.7°C 33.9°F1.1°C 27% 0.9 mph W1.4 kmh W 2.2 mph3.5 kmh 29.77 in1008.1 mb 0.00 in0.0 mm 0.00 in0.0 mm 0.00 in0.0 mm
06:36 PM 69.1°F20.6°C 34.6°F1.4°C 28% 1.8 mph NW2.9 kmh NW 2.2 mph3.5 kmh 29.76 in1007.8 mb 0.00 in0.0 mm 0.00 in0.0 mm 0.00 in0.0 mm
06:37 PM 68.9°F20.5°C 33.5°F0.8°C 27% 2.9 mph NW4.7 kmh NW 5.8 mph9.3 kmh 29.77 in1008.1 mb 0.00 in0.0 mm 0.00 in0.0 mm 0.00 in0.0 mm
06:38 PM 68.7°F20.4°C 33.4°F0.8°C 27% 0.9 mph NE1.4 kmh NE 1.1 mph1.8 kmh 29.77 in1008.1 mb 0.00 in0.0 mm 0.00 in0.0 mm 0.00 in0.0 mm
06:39 PM 68.7°F20.4°C 33.4°F0.8°C 27% 1.6 mph WNW2.6 kmh WNW 2.2 mph3.5 kmh 29.77 in1008.1 mb 0.00 in0.0 mm 0.00 in0.0 mm 0.00 in0.0 mm
06:40 PM 68.7°F20.4°C 33.4°F0.8°C 27% 1.6 mph WSW2.6 kmh WSW 3.4 mph5.5 kmh 29.77 in1008.1 mb 0.00 in0.0 mm 0.00 in0.0 mm 0.00 in0.0 mm
06:41 PM 68.7°F20.4°C 34.3°F1.3°C 28% 1.1 mph WSW1.8 kmh WSW 1.1 mph1.8 kmh 29.77 in1008.1 mb 0.00 in0.0 mm 0.00 in0.0 mm 0.00 in0.0 mm
06:42 PM 68.7°F20.4°C 33.4°F0.8°C 27% 1.1 mph W1.8 kmh W 1.1 mph1.8 kmh 29.77 in1008.1 mb 0.00 in0.0 mm 0.00 in0.0 mm 0.00 in0.0 mm
06:43 PM 68.7°F20.4°C 34.3°F1.3°C 28% 1.8 mph WSW2.9 kmh WSW 3.4 mph5.5 kmh 29.77 in1008.1 mb 0.00 in0.0 mm 0.00 in0.0 mm 0.00 in0.0 mm
06:44 PM 68.5°F20.3°C 34.1°F1.2°C 28% 1.8 mph NNW2.9 kmh NNW 2.2 mph3.5 kmh 29.77 in1008.1 mb 0.00 in0.0 mm 0.00 in0.0 mm 0.00 in0.0 mm
06:45 PM 68.5°F20.3°C 34.1°F1.2°C 28% 0.2 mph W0.3 kmh W 1.1 mph1.8 kmh 29.77 in1008.1 mb 0.00 in0.0 mm 0.00 in0.0 mm 0.00 in0.0 mm
06:46 PM 68.5°F20.3°C 34.1°F1.2°C 28% Calm Calm -- 29.77 in1008.1 mb 0.00 in0.0 mm 0.00 in0.0 mm 0.00 in0.0 mm
06:47 PM 68.5°F20.3°C 34.1°F1.2°C 28% 0.4 mph WNW0.6 kmh WNW 1.1 mph1.8 kmh 29.77 in1008.1 mb 0.00 in0.0 mm 0.00 in0.0 mm 0.00 in0.0 mm
06:48 PM 68.4°F20.2°C 33.1°F0.6°C 27% 1.3 mph N2.1 kmh N 2.2 mph3.5 kmh 29.77 in1008.1 mb 0.00 in0.0 mm 0.00 in0.0 mm 0.00 in0.0 mm
06:49 PM 68.2°F20.1°C 32.9°F0.5°C 27% 1.3 mph WNW2.1 kmh WNW 2.2 mph3.5 kmh 29.77 in1008.1 mb 0.00 in0.0 mm 0.00 in0.0 mm 0.00 in0.0 mm
06:50 PM 68.2°F20.1°C 32.9°F0.5°C 27% 1.3 mph WSW2.1 kmh WSW 2.2 mph3.5 kmh 29.77 in1008.1 mb 0.00 in0.0 mm 0.00 in0.0 mm 0.00 in0.0 mm
06:51 PM 68.2°F20.1°C 32.9°F0.5°C 27% 0.9 mph NW1.4 kmh NW 1.1 mph1.8 kmh 29.77 in1008.1 mb 0.00 in0.0 mm 0.00 in0.0 mm 0.00 in0.0 mm
06:52 PM 68.0°F20.0°C 32.8°F0.4°C 27% 1.1 mph SSW1.8 kmh SSW 2.2 mph3.5 kmh 29.77 in1008.1 mb 0.00 in0.0 mm 0.00 in0.0 mm 0.00 in0.0 mm
06:53 PM 68.0°F20.0°C 32.8°F0.4°C 27% 2.2 mph W3.5 kmh W 3.4 mph5.5 kmh 29.77 in1008.1 mb 0.00 in0.0 mm 0.00 in0.0 mm 0.00 in0.0 mm
06:54 PM 68.0°F20.0°C 32.8°F0.4°C 27% 1.3 mph SW2.1 kmh SW 2.2 mph3.5 kmh 29.77 in1008.1 mb 0.00 in0.0 mm 0.00 in0.0 mm 0.00 in0.0 mm
06:55 PM 68.0°F20.0°C 32.8°F0.4°C 27% 0.9 mph W1.4 kmh W 1.1 mph1.8 kmh 29.78 in1008.5 mb 0.00 in0.0 mm 0.00 in0.0 mm 0.00 in0.0 mm
06:56 PM 68.0°F20.0°C 32.8°F0.4°C 27% 0.7 mph W1.1 kmh W 1.1 mph1.8 kmh 29.77 in1008.1 mb 0.00 in0.0 mm 0.00 in0.0 mm 0.00 in0.0 mm
06:57 PM 68.0°F20.0°C 32.8°F0.4°C 27% 1.1 mph WNW1.8 kmh WNW 2.2 mph3.5 kmh 29.77 in1008.1 mb 0.00 in0.0 mm 0.00 in0.0 mm 0.00 in0.0 mm
06:58 PM 68.0°F20.0°C 32.8°F0.4°C 27% 2.9 mph W4.7 kmh W 3.4 mph5.5 kmh 29.77 in1008.1 mb 0.00 in0.0 mm 0.00 in0.0 mm 0.00 in0.0 mm
06:59 PM 68.0°F20.0°C 32.8°F0.4°C 27% 0.9 mph WSW1.4 kmh WSW 1.1 mph1.8 kmh 29.77 in1008.1 mb 0.00 in0.0 mm 0.00 in0.0 mm 0.00 in0.0 mm
07:00 PM 68.0°F20.0°C 32.8°F0.4°C 27% 1.8 mph WSW2.9 kmh WSW 3.4 mph5.5 kmh 29.77 in1008.1 mb 0.00 in0.0 mm 0.00 in0.0 mm 0.00 in0.0 mm
07:01 PM 68.0°F20.0°C 32.8°F0.4°C 27% 1.3 mph NW2.1 kmh NW 2.2 mph3.5 kmh 29.78 in1008.5 mb 0.00 in0.0 mm 0.00 in0.0 mm 0.00 in0.0 mm
07:02 PM 68.0°F20.0°C 33.7°F0.9°C 28% 0.9 mph W1.4 kmh W 1.1 mph1.8 kmh 29.78 in1008.5 mb 0.00 in0.0 mm 0.00 in0.0 mm 0.00 in0.0 mm
07:03 PM 67.8°F19.9°C 33.5°F0.8°C 28% 3.8 mph NW6.1 kmh NW 5.8 mph9.3 kmh 29.78 in1008.5 mb 0.00 in0.0 mm 0.00 in0.0 mm 0.00 in0.0 mm
07:04 PM 67.8°F19.9°C 33.5°F0.8°C 28% 1.6 mph NNW2.6 kmh NNW 2.2 mph3.5 kmh 29.77 in1008.1 mb 0.00 in0.0 mm 0.00 in0.0 mm 0.00 in0.0 mm
07:05 PM 67.8°F19.9°C 33.5°F0.8°C 28% 0.2 mph WSW0.3 kmh WSW 1.1 mph1.8 kmh 29.78 in1008.5 mb 0.00 in0.0 mm 0.00 in0.0 mm 0.00 in0.0 mm
07:06 PM 67.8°F19.9°C 34.4°F1.3°C 29% 1.1 mph W1.8 kmh W 1.1 mph1.8 kmh 29.78 in1008.5 mb 0.00 in0.0 mm 0.00 in0.0 mm 0.00 in0.0 mm
07:07 PM 67.6°F19.8°C 34.2°F1.2°C 29% 2.7 mph WNW4.3 kmh WNW 4.5 mph7.2 kmh 29.77 in1008.1 mb 0.00 in0.0 mm 0.00 in0.0 mm 0.00 in0.0 mm
07:08 PM 67.6°F19.8°C 34.2°F1.2°C 29% 2.2 mph NW3.5 kmh NW 4.5 mph7.2 kmh 29.77 in1008.1 mb 0.00 in0.0 mm 0.00 in0.0 mm 0.00 in0.0 mm
07:09 PM 67.6°F19.8°C 34.2°F1.2°C 29% 2.2 mph WSW3.5 kmh WSW 4.5 mph7.2 kmh 29.78 in1008.5 mb 0.00 in0.0 mm 0.00 in0.0 mm 0.00 in0.0 mm
07:10 PM 67.6°F19.8°C 34.2°F1.2°C 29% 3.4 mph W5.5 kmh W 4.5 mph7.2 kmh 29.78 in1008.5 mb 0.00 in0.0 mm 0.00 in0.0 mm 0.00 in0.0 mm
07:11 PM 67.6°F19.8°C 34.2°F1.2°C 29% 2.5 mph WSW4.0 kmh WSW 5.8 mph9.3 kmh 29.78 in1008.5 mb 0.00 in0.0 mm 0.00 in0.0 mm 0.00 in0.0 mm
07:12 PM 67.6°F19.8°C 34.2°F1.2°C 29% 1.8 mph W2.9 kmh W 2.2 mph3.5 kmh 29.78 in1008.5 mb 0.00 in0.0 mm 0.00 in0.0 mm 0.00 in0.0 mm
07:13 PM 67.6°F19.8°C 34.2°F1.2°C 29% 0.9 mph WSW1.4 kmh WSW 1.1 mph1.8 kmh 29.78 in1008.5 mb 0.00 in0.0 mm 0.00 in0.0 mm 0.00 in0.0 mm
07:14 PM 67.6°F19.8°C 34.2°F1.2°C 29% 1.8 mph W2.9 kmh W 3.4 mph5.5 kmh 29.78 in1008.5 mb 0.00 in0.0 mm 0.00 in0.0 mm 0.00 in0.0 mm
07:15 PM 67.5°F19.7°C 34.1°F1.2°C 29% 3.1 mph W5.0 kmh W 4.5 mph7.2 kmh 29.78 in1008.5 mb 0.00 in0.0 mm 0.00 in0.0 mm 0.00 in0.0 mm
07:16 PM 67.3°F19.6°C 34.0°F1.1°C 29% 2.9 mph NW4.7 kmh NW 5.8 mph9.3 kmh 29.78 in1008.5 mb 0.00 in0.0 mm 0.00 in0.0 mm 0.00 in0.0 mm
07:17 PM 67.3°F19.6°C 34.8°F1.6°C 30% 2.0 mph WNW3.2 kmh WNW 3.4 mph5.5 kmh 29.79 in1008.8 mb 0.00 in0.0 mm 0.00 in0.0 mm 0.00 in0.0 mm
07:18 PM 67.3°F19.6°C 34.0°F1.1°C 29% 4.0 mph NW6.4 kmh NW 4.5 mph7.2 kmh 29.78 in1008.5 mb 0.00 in0.0 mm 0.00 in0.0 mm 0.00 in0.0 mm
07:19 PM 67.3°F19.6°C 34.0°F1.1°C 29% 2.5 mph WSW4.0 kmh WSW 4.5 mph7.2 kmh 29.78 in1008.5 mb 0.00 in0.0 mm 0.00 in0.0 mm 0.00 in0.0 mm
07:20 PM 67.5°F19.7°C 34.1°F1.2°C 29% 2.5 mph WSW4.0 kmh WSW 4.5 mph7.2 kmh 29.78 in1008.5 mb 0.00 in0.0 mm 0.00 in0.0 mm 0.00 in0.0 mm
07:21 PM 67.5°F19.7°C 34.1°F1.2°C 29% 3.4 mph WSW5.5 kmh WSW 4.5 mph7.2 kmh 29.78 in1008.5 mb 0.00 in0.0 mm 0.00 in0.0 mm 0.00 in0.0 mm
07:22 PM 67.3°F19.6°C 34.8°F1.6°C 30% 1.3 mph W2.1 kmh W 2.2 mph3.5 kmh 29.78 in1008.5 mb 0.00 in0.0 mm 0.00 in0.0 mm 0.00 in0.0 mm
07:23 PM 67.3°F19.6°C 34.0°F1.1°C 29% 2.2 mph WNW3.5 kmh WNW 3.4 mph5.5 kmh 29.78 in1008.5 mb 0.00 in0.0 mm 0.00 in0.0 mm 0.00 in0.0 mm
07:24 PM 67.3°F19.6°C 34.0°F1.1°C 29% 4.0 mph WSW6.4 kmh WSW 5.8 mph9.3 kmh 29.78 in1008.5 mb 0.00 in0.0 mm 0.00 in0.0 mm 0.00 in0.0 mm
07:25 PM 67.3°F19.6°C 34.0°F1.1°C 29% 2.0 mph WNW3.2 kmh WNW 3.4 mph5.5 kmh 29.78 in1008.5 mb 0.00 in0.0 mm 0.00 in0.0 mm 0.00 in0.0 mm
07:26 PM 67.3°F19.6°C 34.0°F1.1°C 29% 2.5 mph WSW4.0 kmh WSW 3.4 mph5.5 kmh 29.78 in1008.5 mb 0.00 in0.0 mm 0.00 in0.0 mm 0.00 in0.0 mm
07:27 PM 67.5°F19.7°C 34.1°F1.2°C 29% 2.0 mph WSW3.2 kmh WSW 3.4 mph5.5 kmh 29.78 in1008.5 mb 0.00 in0.0 mm 0.00 in0.0 mm 0.00 in0.0 mm
07:28 PM 67.5°F19.7°C 33.2°F0.7°C 28% 2.2 mph WNW3.5 kmh WNW 3.4 mph5.5 kmh 29.79 in1008.8 mb 0.00 in0.0 mm 0.00 in0.0 mm 0.00 in0.0 mm
07:29 PM 67.5°F19.7°C 33.2°F0.7°C 28% 4.0 mph NW6.4 kmh NW 5.8 mph9.3 kmh 29.78 in1008.5 mb 0.00 in0.0 mm 0.00 in0.0 mm 0.00 in0.0 mm
07:30 PM 67.5°F19.7°C 34.1°F1.2°C 29% 0.9 mph W1.4 kmh W 1.1 mph1.8 kmh 29.78 in1008.5 mb 0.00 in0.0 mm 0.00 in0.0 mm 0.00 in0.0 mm
07:31 PM 67.5°F19.7°C 34.1°F1.2°C 29% 1.3 mph WNW2.1 kmh WNW 2.2 mph3.5 kmh 29.79 in1008.8 mb 0.00 in0.0 mm 0.00 in0.0 mm 0.00 in0.0 mm
07:32 PM 67.5°F19.7°C 34.1°F1.2°C 29% 2.2 mph W3.5 kmh W 3.4 mph5.5 kmh 29.78 in1008.5 mb 0.00 in0.0 mm 0.00 in0.0 mm 0.00 in0.0 mm
07:33 PM 67.5°F19.7°C 34.1°F1.2°C 29% 0.2 mph WNW0.3 kmh WNW 1.1 mph1.8 kmh 29.79 in1008.8 mb 0.00 in0.0 mm 0.00 in0.0 mm 0.00 in0.0 mm
07:34 PM 67.3°F19.6°C 34.0°F1.1°C 29% 1.3 mph W2.1 kmh W 2.2 mph3.5 kmh 29.79 in1008.8 mb 0.00 in0.0 mm 0.00 in0.0 mm 0.00 in0.0 mm
07:35 PM 67.1°F19.5°C 33.8°F1.0°C 29% 2.2 mph WSW3.5 kmh WSW 3.4 mph5.5 kmh 29.78 in1008.5 mb 0.00 in0.0 mm 0.00 in0.0 mm 0.00 in0.0 mm
07:36 PM 66.9°F19.4°C 33.6°F0.9°C 29% 1.8 mph WSW2.9 kmh WSW 2.2 mph3.5 kmh 29.78 in1008.5 mb 0.00 in0.0 mm 0.00 in0.0 mm 0.00 in0.0 mm
07:37 PM 66.9°F19.4°C 33.6°F0.9°C 29% 2.0 mph WSW3.2 kmh WSW 2.2 mph3.5 kmh 29.79 in1008.8 mb 0.00 in0.0 mm 0.00 in0.0 mm 0.00 in0.0 mm
07:38 PM 66.9°F19.4°C 33.6°F0.9°C 29% 1.3 mph W2.1 kmh W 2.2 mph3.5 kmh 29.79 in1008.8 mb 0.00 in0.0 mm 0.00 in0.0 mm 0.00 in0.0 mm
07:39 PM 66.9°F19.4°C 33.6°F0.9°C 29% 2.5 mph WSW4.0 kmh WSW 3.4 mph5.5 kmh 29.79 in1008.8 mb 0.00 in0.0 mm 0.00 in0.0 mm 0.00 in0.0 mm
07:40 PM 66.7°F19.3°C 33.4°F0.8°C 29% 4.3 mph WNW6.9 kmh WNW 6.9 mph11.1 kmh 29.78 in1008.5 mb 0.00 in0.0 mm 0.00 in0.0 mm 0.00 in0.0 mm
07:41 PM 66.7°F19.3°C 33.4°F0.8°C 29% 2.5 mph W4.0 kmh W 3.4 mph5.5 kmh 29.78 in1008.5 mb 0.00 in0.0 mm 0.00 in0.0 mm 0.00 in0.0 mm
07:42 PM 66.7°F19.3°C 33.4°F0.8°C 29% 2.7 mph WNW4.3 kmh WNW 3.4 mph5.5 kmh 29.78 in1008.5 mb 0.00 in0.0 mm 0.00 in0.0 mm 0.00 in0.0 mm
07:43 PM 66.9°F19.4°C 33.6°F0.9°C 29% 0.9 mph W1.4 kmh W 1.1 mph1.8 kmh 29.79 in1008.8 mb 0.00 in0.0 mm 0.00 in0.0 mm 0.00 in0.0 mm
07:44 PM 66.9°F19.4°C 33.6°F0.9°C 29% 3.6 mph NW5.8 kmh NW 4.5 mph7.2 kmh 29.79 in1008.8 mb 0.00 in0.0 mm 0.00 in0.0 mm 0.00 in0.0 mm
07:45 PM 66.9°F19.4°C 33.6°F0.9°C 29% 2.0 mph WSW3.2 kmh WSW 2.2 mph3.5 kmh 29.78 in1008.5 mb 0.00 in0.0 mm 0.00 in0.0 mm 0.00 in0.0 mm
07:46 PM 66.9°F19.4°C 32.7°F0.4°C 28% 2.7 mph WNW4.3 kmh WNW 3.4 mph5.5 kmh 29.79 in1008.8 mb 0.00 in0.0 mm 0.00 in0.0 mm 0.00 in0.0 mm
07:47 PM 67.1°F19.5°C 32.9°F0.5°C 28% 2.2 mph W3.5 kmh W 3.4 mph5.5 kmh 29.79 in1008.8 mb 0.00 in0.0 mm 0.00 in0.0 mm 0.00 in0.0 mm
07:48 PM 67.1°F19.5°C 32.9°F0.5°C 28% 0.9 mph W1.4 kmh W 1.1 mph1.8 kmh 29.78 in1008.5 mb 0.00 in0.0 mm 0.00 in0.0 mm 0.00 in0.0 mm
07:49 PM 67.1°F19.5°C 32.9°F0.5°C 28% 1.3 mph WNW2.1 kmh WNW 2.2 mph3.5 kmh 29.78 in1008.5 mb 0.00 in0.0 mm 0.00 in0.0 mm 0.00 in0.0 mm
07:50 PM 66.9°F19.4°C 33.6°F0.9°C 29% 1.3 mph W2.1 kmh W 2.2 mph3.5 kmh 29.79 in1008.8 mb 0.00 in0.0 mm 0.00 in0.0 mm 0.00 in0.0 mm
07:51 PM 66.7°F19.3°C 33.4°F0.8°C 29% 0.7 mph WSW1.1 kmh WSW 1.1 mph1.8 kmh 29.79 in1008.8 mb 0.00 in0.0 mm 0.00 in0.0 mm 0.00 in0.0 mm
07:52 PM 66.6°F19.2°C 33.3°F0.7°C 29% 0.7 mph W1.1 kmh W 1.1 mph1.8 kmh 29.78 in1008.5 mb 0.00 in0.0 mm 0.00 in0.0 mm 0.00 in0.0 mm